<?xml version="1.0" encoding="UTF-8" standalone="no" ?>
<gpx xmlns="http://www.topografix.com/GPX/1/1" xmlns:xsi="http://www.w3.org/2001/XMLSchema-instance" xsi:schemaLocation="http://www.topografix.com/GPX/1/1 http://www.topografix.com/GPX/1/1/gpx.xsd" version="1.1" creator="VisuGPX - https://www.visugpx.com">
  <metadata>
    <name>Golf de Niort (tour) 8Km</name>
  </metadata>
  <trk>
    <name><![CDATA[Golf de Niort (tour) 8Km_1]]></name>
    <trkseg>
      <trkpt lat="46.29576" lon="-0.45325">
        <ele>19</ele>
        <time>2016-11-08T13:44:13Z</time>
      </trkpt>
      <trkpt lat="46.29575" lon="-0.45321">
        <ele>19</ele>
        <time>2016-11-08T13:44:18Z</time>
      </trkpt>
      <trkpt lat="46.29574" lon="-0.45316">
        <ele>19</ele>
        <time>2016-11-08T13:44:23Z</time>
      </trkpt>
      <trkpt lat="46.29573" lon="-0.4531">
        <ele>19</ele>
        <time>2016-11-08T13:44:28Z</time>
      </trkpt>
      <trkpt lat="46.29572" lon="-0.45304">
        <ele>19</ele>
        <time>2016-11-08T13:44:33Z</time>
      </trkpt>
      <trkpt lat="46.29571" lon="-0.45297">
        <ele>19</ele>
        <time>2016-11-08T13:44:38Z</time>
      </trkpt>
      <trkpt lat="46.29569" lon="-0.4529">
        <ele>17</ele>
        <time>2016-11-08T13:44:43Z</time>
      </trkpt>
      <trkpt lat="46.29567" lon="-0.45284">
        <ele>17</ele>
        <time>2016-11-08T13:44:48Z</time>
      </trkpt>
      <trkpt lat="46.29566" lon="-0.45277">
        <ele>17</ele>
        <time>2016-11-08T13:44:53Z</time>
      </trkpt>
      <trkpt lat="46.29565" lon="-0.45272">
        <ele>17</ele>
        <time>2016-11-08T13:44:58Z</time>
      </trkpt>
      <trkpt lat="46.29562" lon="-0.45267">
        <ele>17</ele>
        <time>2016-11-08T13:45:03Z</time>
      </trkpt>
      <trkpt lat="46.29561" lon="-0.45262">
        <ele>17</ele>
        <time>2016-11-08T13:45:08Z</time>
      </trkpt>
      <trkpt lat="46.29559" lon="-0.45256">
        <ele>17</ele>
        <time>2016-11-08T13:45:13Z</time>
      </trkpt>
      <trkpt lat="46.29557" lon="-0.45251">
        <ele>17</ele>
        <time>2016-11-08T13:45:18Z</time>
      </trkpt>
      <trkpt lat="46.29555" lon="-0.45245">
        <ele>17</ele>
        <time>2016-11-08T13:45:23Z</time>
      </trkpt>
      <trkpt lat="46.29555" lon="-0.45237">
        <ele>17</ele>
        <time>2016-11-08T13:45:28Z</time>
      </trkpt>
      <trkpt lat="46.29555" lon="-0.45225">
        <ele>17</ele>
        <time>2016-11-08T13:45:33Z</time>
      </trkpt>
      <trkpt lat="46.29556" lon="-0.45217">
        <ele>17</ele>
        <time>2016-11-08T13:45:38Z</time>
      </trkpt>
      <trkpt lat="46.29556" lon="-0.45207">
        <ele>16</ele>
        <time>2016-11-08T13:45:43Z</time>
      </trkpt>
      <trkpt lat="46.29556" lon="-0.45198">
        <ele>16</ele>
        <time>2016-11-08T13:45:48Z</time>
      </trkpt>
      <trkpt lat="46.29555" lon="-0.4519">
        <ele>16</ele>
        <time>2016-11-08T13:45:53Z</time>
      </trkpt>
      <trkpt lat="46.29554" lon="-0.45182">
        <ele>16</ele>
        <time>2016-11-08T13:45:58Z</time>
      </trkpt>
      <trkpt lat="46.29553" lon="-0.45174">
        <ele>16</ele>
        <time>2016-11-08T13:46:03Z</time>
      </trkpt>
      <trkpt lat="46.29552" lon="-0.45167">
        <ele>16</ele>
        <time>2016-11-08T13:46:08Z</time>
      </trkpt>
      <trkpt lat="46.29548" lon="-0.45161">
        <ele>16</ele>
        <time>2016-11-08T13:46:13Z</time>
      </trkpt>
      <trkpt lat="46.29548" lon="-0.45153">
        <ele>16</ele>
        <time>2016-11-08T13:46:18Z</time>
      </trkpt>
      <trkpt lat="46.29547" lon="-0.45144">
        <ele>16</ele>
        <time>2016-11-08T13:46:23Z</time>
      </trkpt>
      <trkpt lat="46.29547" lon="-0.45137">
        <ele>16</ele>
        <time>2016-11-08T13:46:28Z</time>
      </trkpt>
      <trkpt lat="46.29547" lon="-0.4513">
        <ele>16</ele>
        <time>2016-11-08T13:46:33Z</time>
      </trkpt>
      <trkpt lat="46.29548" lon="-0.45122">
        <ele>15</ele>
        <time>2016-11-08T13:46:38Z</time>
      </trkpt>
      <trkpt lat="46.29548" lon="-0.45115">
        <ele>15</ele>
        <time>2016-11-08T13:46:43Z</time>
      </trkpt>
      <trkpt lat="46.29549" lon="-0.45108">
        <ele>15</ele>
        <time>2016-11-08T13:46:48Z</time>
      </trkpt>
      <trkpt lat="46.29549" lon="-0.45101">
        <ele>15</ele>
        <time>2016-11-08T13:46:53Z</time>
      </trkpt>
      <trkpt lat="46.29549" lon="-0.45092">
        <ele>15</ele>
        <time>2016-11-08T13:46:58Z</time>
      </trkpt>
      <trkpt lat="46.29549" lon="-0.45084">
        <ele>15</ele>
        <time>2016-11-08T13:47:03Z</time>
      </trkpt>
      <trkpt lat="46.29548" lon="-0.45078">
        <ele>15</ele>
        <time>2016-11-08T13:47:08Z</time>
      </trkpt>
      <trkpt lat="46.29548" lon="-0.45072">
        <ele>15</ele>
        <time>2016-11-08T13:47:13Z</time>
      </trkpt>
      <trkpt lat="46.29547" lon="-0.45064">
        <ele>15</ele>
        <time>2016-11-08T13:47:18Z</time>
      </trkpt>
      <trkpt lat="46.29545" lon="-0.45055">
        <ele>15</ele>
        <time>2016-11-08T13:47:23Z</time>
      </trkpt>
      <trkpt lat="46.29545" lon="-0.45048">
        <ele>15</ele>
        <time>2016-11-08T13:47:28Z</time>
      </trkpt>
      <trkpt lat="46.29544" lon="-0.45043">
        <ele>15</ele>
        <time>2016-11-08T13:47:33Z</time>
      </trkpt>
      <trkpt lat="46.29544" lon="-0.45034">
        <ele>17</ele>
        <time>2016-11-08T13:47:38Z</time>
      </trkpt>
      <trkpt lat="46.29544" lon="-0.45027">
        <ele>17</ele>
        <time>2016-11-08T13:47:43Z</time>
      </trkpt>
      <trkpt lat="46.29543" lon="-0.4502">
        <ele>17</ele>
        <time>2016-11-08T13:47:48Z</time>
      </trkpt>
      <trkpt lat="46.29541" lon="-0.45009">
        <ele>18</ele>
        <time>2016-11-08T13:47:53Z</time>
      </trkpt>
      <trkpt lat="46.29539" lon="-0.44995">
        <ele>18</ele>
        <time>2016-11-08T13:47:58Z</time>
      </trkpt>
      <trkpt lat="46.29539" lon="-0.44988">
        <ele>18</ele>
        <time>2016-11-08T13:48:03Z</time>
      </trkpt>
      <trkpt lat="46.29539" lon="-0.44979">
        <ele>18</ele>
        <time>2016-11-08T13:48:08Z</time>
      </trkpt>
      <trkpt lat="46.2954" lon="-0.4497">
        <ele>18</ele>
        <time>2016-11-08T13:48:13Z</time>
      </trkpt>
      <trkpt lat="46.29542" lon="-0.44963">
        <ele>17</ele>
        <time>2016-11-08T13:48:18Z</time>
      </trkpt>
      <trkpt lat="46.29545" lon="-0.44958">
        <ele>18</ele>
        <time>2016-11-08T13:48:23Z</time>
      </trkpt>
      <trkpt lat="46.29547" lon="-0.44954">
        <ele>18</ele>
        <time>2016-11-08T13:48:28Z</time>
      </trkpt>
      <trkpt lat="46.29548" lon="-0.44951">
        <ele>18</ele>
        <time>2016-11-08T13:48:33Z</time>
      </trkpt>
      <trkpt lat="46.2955" lon="-0.44949">
        <ele>18</ele>
        <time>2016-11-08T13:48:38Z</time>
      </trkpt>
      <trkpt lat="46.29554" lon="-0.44942">
        <ele>18</ele>
        <time>2016-11-08T13:48:43Z</time>
      </trkpt>
      <trkpt lat="46.29559" lon="-0.4494">
        <ele>18</ele>
        <time>2016-11-08T13:48:48Z</time>
      </trkpt>
      <trkpt lat="46.29564" lon="-0.44937">
        <ele>18</ele>
        <time>2016-11-08T13:48:53Z</time>
      </trkpt>
      <trkpt lat="46.29569" lon="-0.44934">
        <ele>18</ele>
        <time>2016-11-08T13:48:58Z</time>
      </trkpt>
      <trkpt lat="46.29572" lon="-0.44931">
        <ele>18</ele>
        <time>2016-11-08T13:49:03Z</time>
      </trkpt>
      <trkpt lat="46.29578" lon="-0.44924">
        <ele>18</ele>
        <time>2016-11-08T13:49:08Z</time>
      </trkpt>
      <trkpt lat="46.2959" lon="-0.44916">
        <ele>18</ele>
        <time>2016-11-08T13:49:13Z</time>
      </trkpt>
      <trkpt lat="46.29596" lon="-0.44915">
        <ele>18</ele>
        <time>2016-11-08T13:49:18Z</time>
      </trkpt>
      <trkpt lat="46.29599" lon="-0.44913">
        <ele>18</ele>
        <time>2016-11-08T13:49:23Z</time>
      </trkpt>
      <trkpt lat="46.29602" lon="-0.44912">
        <ele>18</ele>
        <time>2016-11-08T13:49:28Z</time>
      </trkpt>
      <trkpt lat="46.29606" lon="-0.4491">
        <ele>18</ele>
        <time>2016-11-08T13:49:33Z</time>
      </trkpt>
      <trkpt lat="46.2961" lon="-0.44906">
        <ele>18</ele>
        <time>2016-11-08T13:49:38Z</time>
      </trkpt>
      <trkpt lat="46.29614" lon="-0.44902">
        <ele>18</ele>
        <time>2016-11-08T13:49:43Z</time>
      </trkpt>
      <trkpt lat="46.29619" lon="-0.44896">
        <ele>18</ele>
        <time>2016-11-08T13:49:48Z</time>
      </trkpt>
      <trkpt lat="46.29623" lon="-0.44892">
        <ele>18</ele>
        <time>2016-11-08T13:49:53Z</time>
      </trkpt>
      <trkpt lat="46.29628" lon="-0.44889">
        <ele>15</ele>
        <time>2016-11-08T13:49:58Z</time>
      </trkpt>
      <trkpt lat="46.29632" lon="-0.44887">
        <ele>15</ele>
        <time>2016-11-08T13:50:03Z</time>
      </trkpt>
      <trkpt lat="46.29637" lon="-0.44885">
        <ele>15</ele>
        <time>2016-11-08T13:50:08Z</time>
      </trkpt>
      <trkpt lat="46.29641" lon="-0.44883">
        <ele>15</ele>
        <time>2016-11-08T13:50:13Z</time>
      </trkpt>
      <trkpt lat="46.29646" lon="-0.44879">
        <ele>15</ele>
        <time>2016-11-08T13:50:18Z</time>
      </trkpt>
      <trkpt lat="46.29651" lon="-0.44876">
        <ele>15</ele>
        <time>2016-11-08T13:50:23Z</time>
      </trkpt>
      <trkpt lat="46.29655" lon="-0.44872">
        <ele>15</ele>
        <time>2016-11-08T13:50:28Z</time>
      </trkpt>
      <trkpt lat="46.29659" lon="-0.44865">
        <ele>15</ele>
        <time>2016-11-08T13:50:33Z</time>
      </trkpt>
      <trkpt lat="46.29664" lon="-0.4486">
        <ele>15</ele>
        <time>2016-11-08T13:50:38Z</time>
      </trkpt>
      <trkpt lat="46.2967" lon="-0.44854">
        <ele>15</ele>
        <time>2016-11-08T13:50:43Z</time>
      </trkpt>
      <trkpt lat="46.29674" lon="-0.44848">
        <ele>15</ele>
        <time>2016-11-08T13:50:48Z</time>
      </trkpt>
      <trkpt lat="46.2968" lon="-0.44843">
        <ele>15</ele>
        <time>2016-11-08T13:50:53Z</time>
      </trkpt>
      <trkpt lat="46.29684" lon="-0.44835">
        <ele>15</ele>
        <time>2016-11-08T13:50:58Z</time>
      </trkpt>
      <trkpt lat="46.29688" lon="-0.44828">
        <ele>15</ele>
        <time>2016-11-08T13:51:03Z</time>
      </trkpt>
      <trkpt lat="46.29693" lon="-0.44821">
        <ele>15</ele>
        <time>2016-11-08T13:51:08Z</time>
      </trkpt>
      <trkpt lat="46.29696" lon="-0.44812">
        <ele>15</ele>
        <time>2016-11-08T13:51:13Z</time>
      </trkpt>
      <trkpt lat="46.29699" lon="-0.44803">
        <ele>15</ele>
        <time>2016-11-08T13:51:18Z</time>
      </trkpt>
      <trkpt lat="46.29702" lon="-0.44797">
        <ele>15</ele>
        <time>2016-11-08T13:51:23Z</time>
      </trkpt>
      <trkpt lat="46.29705" lon="-0.44791">
        <ele>16</ele>
        <time>2016-11-08T13:51:28Z</time>
      </trkpt>
      <trkpt lat="46.29708" lon="-0.44786">
        <ele>16</ele>
        <time>2016-11-08T13:51:33Z</time>
      </trkpt>
      <trkpt lat="46.29712" lon="-0.44783">
        <ele>17</ele>
        <time>2016-11-08T13:51:38Z</time>
      </trkpt>
      <trkpt lat="46.29716" lon="-0.44777">
        <ele>17</ele>
        <time>2016-11-08T13:51:43Z</time>
      </trkpt>
      <trkpt lat="46.29721" lon="-0.44768">
        <ele>17</ele>
        <time>2016-11-08T13:51:48Z</time>
      </trkpt>
      <trkpt lat="46.29726" lon="-0.4476">
        <ele>17</ele>
        <time>2016-11-08T13:51:53Z</time>
      </trkpt>
      <trkpt lat="46.2973" lon="-0.44752">
        <ele>17</ele>
        <time>2016-11-08T13:51:58Z</time>
      </trkpt>
      <trkpt lat="46.29734" lon="-0.44745">
        <ele>17</ele>
        <time>2016-11-08T13:52:03Z</time>
      </trkpt>
      <trkpt lat="46.29739" lon="-0.44738">
        <ele>17</ele>
        <time>2016-11-08T13:52:08Z</time>
      </trkpt>
      <trkpt lat="46.29742" lon="-0.44729">
        <ele>17</ele>
        <time>2016-11-08T13:52:13Z</time>
      </trkpt>
      <trkpt lat="46.29745" lon="-0.44721">
        <ele>17</ele>
        <time>2016-11-08T13:52:18Z</time>
      </trkpt>
      <trkpt lat="46.29747" lon="-0.44711">
        <ele>17</ele>
        <time>2016-11-08T13:52:23Z</time>
      </trkpt>
      <trkpt lat="46.29751" lon="-0.44706">
        <ele>16</ele>
        <time>2016-11-08T13:52:28Z</time>
      </trkpt>
      <trkpt lat="46.29753" lon="-0.44701">
        <ele>16</ele>
        <time>2016-11-08T13:52:33Z</time>
      </trkpt>
      <trkpt lat="46.29755" lon="-0.44695">
        <ele>16</ele>
        <time>2016-11-08T13:52:38Z</time>
      </trkpt>
      <trkpt lat="46.29759" lon="-0.44687">
        <ele>16</ele>
        <time>2016-11-08T13:52:43Z</time>
      </trkpt>
      <trkpt lat="46.29763" lon="-0.44682">
        <ele>16</ele>
        <time>2016-11-08T13:52:48Z</time>
      </trkpt>
      <trkpt lat="46.29767" lon="-0.44677">
        <ele>16</ele>
        <time>2016-11-08T13:52:53Z</time>
      </trkpt>
      <trkpt lat="46.2977" lon="-0.44672">
        <ele>16</ele>
        <time>2016-11-08T13:52:58Z</time>
      </trkpt>
      <trkpt lat="46.29775" lon="-0.44664">
        <ele>16</ele>
        <time>2016-11-08T13:53:03Z</time>
      </trkpt>
      <trkpt lat="46.29779" lon="-0.44655">
        <ele>16</ele>
        <time>2016-11-08T13:53:08Z</time>
      </trkpt>
      <trkpt lat="46.29785" lon="-0.44647">
        <ele>16</ele>
        <time>2016-11-08T13:53:13Z</time>
      </trkpt>
      <trkpt lat="46.29789" lon="-0.44638">
        <ele>16</ele>
        <time>2016-11-08T13:53:18Z</time>
      </trkpt>
      <trkpt lat="46.29791" lon="-0.44629">
        <ele>16</ele>
        <time>2016-11-08T13:53:23Z</time>
      </trkpt>
      <trkpt lat="46.29793" lon="-0.44623">
        <ele>15</ele>
        <time>2016-11-08T13:53:28Z</time>
      </trkpt>
      <trkpt lat="46.29792" lon="-0.44617">
        <ele>15</ele>
        <time>2016-11-08T13:53:33Z</time>
      </trkpt>
      <trkpt lat="46.29791" lon="-0.44608">
        <ele>17</ele>
        <time>2016-11-08T13:53:38Z</time>
      </trkpt>
      <trkpt lat="46.29789" lon="-0.44602">
        <ele>17</ele>
        <time>2016-11-08T13:53:43Z</time>
      </trkpt>
      <trkpt lat="46.29785" lon="-0.44599">
        <ele>17</ele>
        <time>2016-11-08T13:53:48Z</time>
      </trkpt>
      <trkpt lat="46.29779" lon="-0.44597">
        <ele>17</ele>
        <time>2016-11-08T13:53:53Z</time>
      </trkpt>
      <trkpt lat="46.29773" lon="-0.44598">
        <ele>17</ele>
        <time>2016-11-08T13:53:58Z</time>
      </trkpt>
      <trkpt lat="46.29767" lon="-0.44596">
        <ele>17</ele>
        <time>2016-11-08T13:54:03Z</time>
      </trkpt>
      <trkpt lat="46.29762" lon="-0.44596">
        <ele>17</ele>
        <time>2016-11-08T13:54:08Z</time>
      </trkpt>
      <trkpt lat="46.29758" lon="-0.44596">
        <ele>17</ele>
        <time>2016-11-08T13:54:13Z</time>
      </trkpt>
      <trkpt lat="46.29752" lon="-0.44596">
        <ele>17</ele>
        <time>2016-11-08T13:54:18Z</time>
      </trkpt>
      <trkpt lat="46.29748" lon="-0.44596">
        <ele>17</ele>
        <time>2016-11-08T13:54:23Z</time>
      </trkpt>
      <trkpt lat="46.29742" lon="-0.44594">
        <ele>17</ele>
        <time>2016-11-08T13:54:28Z</time>
      </trkpt>
      <trkpt lat="46.29737" lon="-0.44591">
        <ele>17</ele>
        <time>2016-11-08T13:54:33Z</time>
      </trkpt>
      <trkpt lat="46.29733" lon="-0.44588">
        <ele>17</ele>
        <time>2016-11-08T13:54:38Z</time>
      </trkpt>
      <trkpt lat="46.29727" lon="-0.44581">
        <ele>17</ele>
        <time>2016-11-08T13:54:43Z</time>
      </trkpt>
      <trkpt lat="46.29723" lon="-0.44574">
        <ele>17</ele>
        <time>2016-11-08T13:54:48Z</time>
      </trkpt>
      <trkpt lat="46.29721" lon="-0.44567">
        <ele>17</ele>
        <time>2016-11-08T13:54:53Z</time>
      </trkpt>
      <trkpt lat="46.29717" lon="-0.44559">
        <ele>17</ele>
        <time>2016-11-08T13:54:58Z</time>
      </trkpt>
      <trkpt lat="46.29715" lon="-0.44554">
        <ele>17</ele>
        <time>2016-11-08T13:55:03Z</time>
      </trkpt>
      <trkpt lat="46.29715" lon="-0.44553">
        <ele>17</ele>
        <time>2016-11-08T13:55:08Z</time>
      </trkpt>
      <trkpt lat="46.29713" lon="-0.44547">
        <ele>17</ele>
        <time>2016-11-08T13:55:13Z</time>
      </trkpt>
      <trkpt lat="46.29712" lon="-0.44541">
        <ele>16</ele>
        <time>2016-11-08T13:55:18Z</time>
      </trkpt>
      <trkpt lat="46.29712" lon="-0.44533">
        <ele>16</ele>
        <time>2016-11-08T13:55:23Z</time>
      </trkpt>
      <trkpt lat="46.29712" lon="-0.44527">
        <ele>16</ele>
        <time>2016-11-08T13:55:28Z</time>
      </trkpt>
      <trkpt lat="46.29717" lon="-0.44521">
        <ele>16</ele>
        <time>2016-11-08T13:55:33Z</time>
      </trkpt>
      <trkpt lat="46.29722" lon="-0.44518">
        <ele>16</ele>
        <time>2016-11-08T13:55:38Z</time>
      </trkpt>
      <trkpt lat="46.29725" lon="-0.44515">
        <ele>16</ele>
        <time>2016-11-08T13:55:43Z</time>
      </trkpt>
      <trkpt lat="46.29729" lon="-0.44513">
        <ele>16</ele>
        <time>2016-11-08T13:55:48Z</time>
      </trkpt>
      <trkpt lat="46.29733" lon="-0.44512">
        <ele>16</ele>
        <time>2016-11-08T13:55:53Z</time>
      </trkpt>
      <trkpt lat="46.29735" lon="-0.4451">
        <ele>16</ele>
        <time>2016-11-08T13:55:58Z</time>
      </trkpt>
      <trkpt lat="46.29738" lon="-0.44507">
        <ele>16</ele>
        <time>2016-11-08T13:56:03Z</time>
      </trkpt>
      <trkpt lat="46.29741" lon="-0.44506">
        <ele>16</ele>
        <time>2016-11-08T13:56:08Z</time>
      </trkpt>
      <trkpt lat="46.29745" lon="-0.44504">
        <ele>16</ele>
        <time>2016-11-08T13:56:13Z</time>
      </trkpt>
      <trkpt lat="46.29749" lon="-0.44502">
        <ele>16</ele>
        <time>2016-11-08T13:56:18Z</time>
      </trkpt>
      <trkpt lat="46.29752" lon="-0.44499">
        <ele>16</ele>
        <time>2016-11-08T13:56:23Z</time>
      </trkpt>
      <trkpt lat="46.29757" lon="-0.44499">
        <ele>16</ele>
        <time>2016-11-08T13:56:28Z</time>
      </trkpt>
      <trkpt lat="46.29762" lon="-0.44497">
        <ele>16</ele>
        <time>2016-11-08T13:56:33Z</time>
      </trkpt>
      <trkpt lat="46.29764" lon="-0.44497">
        <ele>16</ele>
        <time>2016-11-08T13:56:38Z</time>
      </trkpt>
      <trkpt lat="46.29775" lon="-0.44494">
        <ele>16</ele>
        <time>2016-11-08T13:56:53Z</time>
      </trkpt>
      <trkpt lat="46.29781" lon="-0.44491">
        <ele>16</ele>
        <time>2016-11-08T13:56:58Z</time>
      </trkpt>
      <trkpt lat="46.29785" lon="-0.44491">
        <ele>16</ele>
        <time>2016-11-08T13:57:03Z</time>
      </trkpt>
      <trkpt lat="46.29795" lon="-0.44489">
        <ele>15</ele>
        <time>2016-11-08T13:57:08Z</time>
      </trkpt>
      <trkpt lat="46.298" lon="-0.44485">
        <ele>15</ele>
        <time>2016-11-08T13:57:13Z</time>
      </trkpt>
      <trkpt lat="46.29806" lon="-0.44483">
        <ele>15</ele>
        <time>2016-11-08T13:57:18Z</time>
      </trkpt>
      <trkpt lat="46.29818" lon="-0.44483">
        <ele>15</ele>
        <time>2016-11-08T13:57:23Z</time>
      </trkpt>
      <trkpt lat="46.29826" lon="-0.44478">
        <ele>15</ele>
        <time>2016-11-08T13:57:28Z</time>
      </trkpt>
      <trkpt lat="46.29826" lon="-0.44473">
        <ele>15</ele>
        <time>2016-11-08T13:57:33Z</time>
      </trkpt>
      <trkpt lat="46.29826" lon="-0.44469">
        <ele>15</ele>
        <time>2016-11-08T13:57:38Z</time>
      </trkpt>
      <trkpt lat="46.29826" lon="-0.44465">
        <ele>15</ele>
        <time>2016-11-08T13:57:43Z</time>
      </trkpt>
      <trkpt lat="46.29824" lon="-0.44461">
        <ele>15</ele>
        <time>2016-11-08T13:57:48Z</time>
      </trkpt>
      <trkpt lat="46.29823" lon="-0.44456">
        <ele>16</ele>
        <time>2016-11-08T13:57:53Z</time>
      </trkpt>
      <trkpt lat="46.2982" lon="-0.44451">
        <ele>16</ele>
        <time>2016-11-08T13:57:58Z</time>
      </trkpt>
      <trkpt lat="46.29818" lon="-0.44442">
        <ele>16</ele>
        <time>2016-11-08T13:58:03Z</time>
      </trkpt>
      <trkpt lat="46.29815" lon="-0.44434">
        <ele>16</ele>
        <time>2016-11-08T13:58:08Z</time>
      </trkpt>
      <trkpt lat="46.29814" lon="-0.44427">
        <ele>16</ele>
        <time>2016-11-08T13:58:13Z</time>
      </trkpt>
      <trkpt lat="46.29811" lon="-0.44424">
        <ele>16</ele>
        <time>2016-11-08T13:58:18Z</time>
      </trkpt>
      <trkpt lat="46.29809" lon="-0.44421">
        <ele>16</ele>
        <time>2016-11-08T13:58:23Z</time>
      </trkpt>
      <trkpt lat="46.29806" lon="-0.44417">
        <ele>16</ele>
        <time>2016-11-08T13:58:28Z</time>
      </trkpt>
      <trkpt lat="46.29806" lon="-0.44415">
        <ele>16</ele>
        <time>2016-11-08T13:58:33Z</time>
      </trkpt>
      <trkpt lat="46.29801" lon="-0.44407">
        <ele>16</ele>
        <time>2016-11-08T13:58:38Z</time>
      </trkpt>
      <trkpt lat="46.29797" lon="-0.44401">
        <ele>16</ele>
        <time>2016-11-08T13:58:43Z</time>
      </trkpt>
      <trkpt lat="46.29794" lon="-0.44392">
        <ele>16</ele>
        <time>2016-11-08T13:58:48Z</time>
      </trkpt>
      <trkpt lat="46.29791" lon="-0.44381">
        <ele>15</ele>
        <time>2016-11-08T13:58:53Z</time>
      </trkpt>
      <trkpt lat="46.29787" lon="-0.44371">
        <ele>16</ele>
        <time>2016-11-08T13:58:58Z</time>
      </trkpt>
      <trkpt lat="46.29784" lon="-0.44363">
        <ele>16</ele>
        <time>2016-11-08T13:59:03Z</time>
      </trkpt>
      <trkpt lat="46.2978" lon="-0.44354">
        <ele>16</ele>
        <time>2016-11-08T13:59:08Z</time>
      </trkpt>
      <trkpt lat="46.29777" lon="-0.44345">
        <ele>16</ele>
        <time>2016-11-08T13:59:13Z</time>
      </trkpt>
      <trkpt lat="46.29773" lon="-0.44335">
        <ele>16</ele>
        <time>2016-11-08T13:59:18Z</time>
      </trkpt>
      <trkpt lat="46.29771" lon="-0.44327">
        <ele>16</ele>
        <time>2016-11-08T13:59:23Z</time>
      </trkpt>
      <trkpt lat="46.29766" lon="-0.44315">
        <ele>16</ele>
        <time>2016-11-08T13:59:28Z</time>
      </trkpt>
      <trkpt lat="46.29761" lon="-0.44304">
        <ele>16</ele>
        <time>2016-11-08T13:59:33Z</time>
      </trkpt>
      <trkpt lat="46.29756" lon="-0.44294">
        <ele>16</ele>
        <time>2016-11-08T13:59:38Z</time>
      </trkpt>
      <trkpt lat="46.29753" lon="-0.44287">
        <ele>17</ele>
        <time>2016-11-08T13:59:43Z</time>
      </trkpt>
      <trkpt lat="46.2975" lon="-0.44283">
        <ele>17</ele>
        <time>2016-11-08T13:59:48Z</time>
      </trkpt>
      <trkpt lat="46.29745" lon="-0.44274">
        <ele>17</ele>
        <time>2016-11-08T13:59:53Z</time>
      </trkpt>
      <trkpt lat="46.29735" lon="-0.44273">
        <ele>17</ele>
        <time>2016-11-08T13:59:58Z</time>
      </trkpt>
      <trkpt lat="46.29735" lon="-0.44268">
        <ele>17</ele>
        <time>2016-11-08T14:00:03Z</time>
      </trkpt>
      <trkpt lat="46.29732" lon="-0.44262">
        <ele>17</ele>
        <time>2016-11-08T14:00:08Z</time>
      </trkpt>
      <trkpt lat="46.29728" lon="-0.44251">
        <ele>17</ele>
        <time>2016-11-08T14:00:13Z</time>
      </trkpt>
      <trkpt lat="46.29725" lon="-0.44241">
        <ele>17</ele>
        <time>2016-11-08T14:00:18Z</time>
      </trkpt>
      <trkpt lat="46.29721" lon="-0.44233">
        <ele>17</ele>
        <time>2016-11-08T14:00:23Z</time>
      </trkpt>
      <trkpt lat="46.29717" lon="-0.44231">
        <ele>17</ele>
        <time>2016-11-08T14:00:28Z</time>
      </trkpt>
      <trkpt lat="46.29712" lon="-0.44232">
        <ele>17</ele>
        <time>2016-11-08T14:00:33Z</time>
      </trkpt>
      <trkpt lat="46.29707" lon="-0.44234">
        <ele>15</ele>
        <time>2016-11-08T14:00:38Z</time>
      </trkpt>
      <trkpt lat="46.29703" lon="-0.44236">
        <ele>15</ele>
        <time>2016-11-08T14:00:43Z</time>
      </trkpt>
      <trkpt lat="46.29698" lon="-0.44242">
        <ele>15</ele>
        <time>2016-11-08T14:00:48Z</time>
      </trkpt>
      <trkpt lat="46.29693" lon="-0.44247">
        <ele>15</ele>
        <time>2016-11-08T14:00:53Z</time>
      </trkpt>
      <trkpt lat="46.2969" lon="-0.44254">
        <ele>15</ele>
        <time>2016-11-08T14:00:58Z</time>
      </trkpt>
      <trkpt lat="46.29687" lon="-0.44261">
        <ele>15</ele>
        <time>2016-11-08T14:01:03Z</time>
      </trkpt>
      <trkpt lat="46.29683" lon="-0.44266">
        <ele>15</ele>
        <time>2016-11-08T14:01:08Z</time>
      </trkpt>
      <trkpt lat="46.29679" lon="-0.44272">
        <ele>15</ele>
        <time>2016-11-08T14:01:13Z</time>
      </trkpt>
      <trkpt lat="46.29675" lon="-0.44278">
        <ele>15</ele>
        <time>2016-11-08T14:01:18Z</time>
      </trkpt>
      <trkpt lat="46.29672" lon="-0.44286">
        <ele>15</ele>
        <time>2016-11-08T14:01:23Z</time>
      </trkpt>
      <trkpt lat="46.29669" lon="-0.44294">
        <ele>17</ele>
        <time>2016-11-08T14:01:28Z</time>
      </trkpt>
      <trkpt lat="46.29665" lon="-0.44301">
        <ele>17</ele>
        <time>2016-11-08T14:01:33Z</time>
      </trkpt>
      <trkpt lat="46.29661" lon="-0.44308">
        <ele>17</ele>
        <time>2016-11-08T14:01:38Z</time>
      </trkpt>
      <trkpt lat="46.29658" lon="-0.44315">
        <ele>17</ele>
        <time>2016-11-08T14:01:43Z</time>
      </trkpt>
      <trkpt lat="46.29655" lon="-0.44322">
        <ele>17</ele>
        <time>2016-11-08T14:01:48Z</time>
      </trkpt>
      <trkpt lat="46.29652" lon="-0.44329">
        <ele>17</ele>
        <time>2016-11-08T14:01:53Z</time>
      </trkpt>
      <trkpt lat="46.29648" lon="-0.44335">
        <ele>17</ele>
        <time>2016-11-08T14:01:58Z</time>
      </trkpt>
      <trkpt lat="46.29645" lon="-0.44342">
        <ele>17</ele>
        <time>2016-11-08T14:02:03Z</time>
      </trkpt>
      <trkpt lat="46.2964" lon="-0.44349">
        <ele>17</ele>
        <time>2016-11-08T14:02:08Z</time>
      </trkpt>
      <trkpt lat="46.29637" lon="-0.44355">
        <ele>17</ele>
        <time>2016-11-08T14:02:13Z</time>
      </trkpt>
      <trkpt lat="46.29633" lon="-0.44361">
        <ele>17</ele>
        <time>2016-11-08T14:02:18Z</time>
      </trkpt>
      <trkpt lat="46.2963" lon="-0.44368">
        <ele>17</ele>
        <time>2016-11-08T14:02:23Z</time>
      </trkpt>
      <trkpt lat="46.29627" lon="-0.44375">
        <ele>17</ele>
        <time>2016-11-08T14:02:28Z</time>
      </trkpt>
      <trkpt lat="46.29623" lon="-0.44381">
        <ele>20</ele>
        <time>2016-11-08T14:02:33Z</time>
      </trkpt>
      <trkpt lat="46.29619" lon="-0.44387">
        <ele>20</ele>
        <time>2016-11-08T14:02:38Z</time>
      </trkpt>
      <trkpt lat="46.29614" lon="-0.44391">
        <ele>20</ele>
        <time>2016-11-08T14:02:43Z</time>
      </trkpt>
      <trkpt lat="46.29609" lon="-0.44392">
        <ele>20</ele>
        <time>2016-11-08T14:02:48Z</time>
      </trkpt>
      <trkpt lat="46.29604" lon="-0.44395">
        <ele>20</ele>
        <time>2016-11-08T14:02:53Z</time>
      </trkpt>
      <trkpt lat="46.29599" lon="-0.44398">
        <ele>20</ele>
        <time>2016-11-08T14:02:58Z</time>
      </trkpt>
      <trkpt lat="46.29594" lon="-0.444">
        <ele>20</ele>
        <time>2016-11-08T14:03:03Z</time>
      </trkpt>
      <trkpt lat="46.2959" lon="-0.44401">
        <ele>20</ele>
        <time>2016-11-08T14:03:08Z</time>
      </trkpt>
      <trkpt lat="46.29586" lon="-0.44404">
        <ele>20</ele>
        <time>2016-11-08T14:03:13Z</time>
      </trkpt>
      <trkpt lat="46.29581" lon="-0.44406">
        <ele>20</ele>
        <time>2016-11-08T14:03:18Z</time>
      </trkpt>
      <trkpt lat="46.29576" lon="-0.44408">
        <ele>20</ele>
        <time>2016-11-08T14:03:23Z</time>
      </trkpt>
      <trkpt lat="46.29572" lon="-0.44409">
        <ele>20</ele>
        <time>2016-11-08T14:03:28Z</time>
      </trkpt>
      <trkpt lat="46.29566" lon="-0.44412">
        <ele>20</ele>
        <time>2016-11-08T14:03:33Z</time>
      </trkpt>
      <trkpt lat="46.2956" lon="-0.44413">
        <ele>20</ele>
        <time>2016-11-08T14:03:38Z</time>
      </trkpt>
      <trkpt lat="46.29555" lon="-0.44414">
        <ele>20</ele>
        <time>2016-11-08T14:03:43Z</time>
      </trkpt>
      <trkpt lat="46.2955" lon="-0.44417">
        <ele>20</ele>
        <time>2016-11-08T14:03:48Z</time>
      </trkpt>
      <trkpt lat="46.29545" lon="-0.44421">
        <ele>20</ele>
        <time>2016-11-08T14:03:53Z</time>
      </trkpt>
      <trkpt lat="46.2954" lon="-0.44423">
        <ele>18</ele>
        <time>2016-11-08T14:03:58Z</time>
      </trkpt>
      <trkpt lat="46.29535" lon="-0.44424">
        <ele>18</ele>
        <time>2016-11-08T14:04:03Z</time>
      </trkpt>
      <trkpt lat="46.29532" lon="-0.44427">
        <ele>18</ele>
        <time>2016-11-08T14:04:08Z</time>
      </trkpt>
      <trkpt lat="46.29528" lon="-0.4443">
        <ele>18</ele>
        <time>2016-11-08T14:04:13Z</time>
      </trkpt>
      <trkpt lat="46.29521" lon="-0.44432">
        <ele>18</ele>
        <time>2016-11-08T14:04:18Z</time>
      </trkpt>
      <trkpt lat="46.29515" lon="-0.44434">
        <ele>18</ele>
        <time>2016-11-08T14:04:23Z</time>
      </trkpt>
      <trkpt lat="46.29509" lon="-0.44433">
        <ele>18</ele>
        <time>2016-11-08T14:04:28Z</time>
      </trkpt>
      <trkpt lat="46.29503" lon="-0.44431">
        <ele>18</ele>
        <time>2016-11-08T14:04:33Z</time>
      </trkpt>
      <trkpt lat="46.29498" lon="-0.44426">
        <ele>18</ele>
        <time>2016-11-08T14:04:38Z</time>
      </trkpt>
      <trkpt lat="46.29494" lon="-0.44422">
        <ele>18</ele>
        <time>2016-11-08T14:04:43Z</time>
      </trkpt>
      <trkpt lat="46.2949" lon="-0.44421">
        <ele>18</ele>
        <time>2016-11-08T14:04:48Z</time>
      </trkpt>
      <trkpt lat="46.29485" lon="-0.44417">
        <ele>18</ele>
        <time>2016-11-08T14:04:53Z</time>
      </trkpt>
      <trkpt lat="46.2948" lon="-0.44415">
        <ele>18</ele>
        <time>2016-11-08T14:04:58Z</time>
      </trkpt>
      <trkpt lat="46.29476" lon="-0.4441">
        <ele>18</ele>
        <time>2016-11-08T14:05:03Z</time>
      </trkpt>
      <trkpt lat="46.29473" lon="-0.44406">
        <ele>18</ele>
        <time>2016-11-08T14:05:08Z</time>
      </trkpt>
      <trkpt lat="46.29469" lon="-0.44402">
        <ele>18</ele>
        <time>2016-11-08T14:05:13Z</time>
      </trkpt>
      <trkpt lat="46.29464" lon="-0.44396">
        <ele>18</ele>
        <time>2016-11-08T14:05:18Z</time>
      </trkpt>
      <trkpt lat="46.2946" lon="-0.44391">
        <ele>18</ele>
        <time>2016-11-08T14:05:23Z</time>
      </trkpt>
      <trkpt lat="46.29456" lon="-0.44388">
        <ele>20</ele>
        <time>2016-11-08T14:05:28Z</time>
      </trkpt>
      <trkpt lat="46.29453" lon="-0.44384">
        <ele>20</ele>
        <time>2016-11-08T14:05:33Z</time>
      </trkpt>
      <trkpt lat="46.2945" lon="-0.44376">
        <ele>20</ele>
        <time>2016-11-08T14:05:38Z</time>
      </trkpt>
      <trkpt lat="46.29448" lon="-0.44371">
        <ele>19</ele>
        <time>2016-11-08T14:05:43Z</time>
      </trkpt>
      <trkpt lat="46.29444" lon="-0.44365">
        <ele>19</ele>
        <time>2016-11-08T14:05:48Z</time>
      </trkpt>
      <trkpt lat="46.29439" lon="-0.44357">
        <ele>19</ele>
        <time>2016-11-08T14:05:53Z</time>
      </trkpt>
      <trkpt lat="46.29437" lon="-0.44349">
        <ele>19</ele>
        <time>2016-11-08T14:05:58Z</time>
      </trkpt>
      <trkpt lat="46.29433" lon="-0.44346">
        <ele>19</ele>
        <time>2016-11-08T14:06:03Z</time>
      </trkpt>
      <trkpt lat="46.29431" lon="-0.44342">
        <ele>19</ele>
        <time>2016-11-08T14:06:08Z</time>
      </trkpt>
      <trkpt lat="46.29426" lon="-0.44341">
        <ele>19</ele>
        <time>2016-11-08T14:06:13Z</time>
      </trkpt>
      <trkpt lat="46.29422" lon="-0.44338">
        <ele>19</ele>
        <time>2016-11-08T14:06:18Z</time>
      </trkpt>
      <trkpt lat="46.29418" lon="-0.44332">
        <ele>19</ele>
        <time>2016-11-08T14:06:23Z</time>
      </trkpt>
      <trkpt lat="46.29414" lon="-0.44322">
        <ele>19</ele>
        <time>2016-11-08T14:06:28Z</time>
      </trkpt>
      <trkpt lat="46.29411" lon="-0.44315">
        <ele>19</ele>
        <time>2016-11-08T14:06:33Z</time>
      </trkpt>
      <trkpt lat="46.29406" lon="-0.44311">
        <ele>19</ele>
        <time>2016-11-08T14:06:38Z</time>
      </trkpt>
      <trkpt lat="46.29402" lon="-0.44304">
        <ele>19</ele>
        <time>2016-11-08T14:06:43Z</time>
      </trkpt>
      <trkpt lat="46.29397" lon="-0.443">
        <ele>19</ele>
        <time>2016-11-08T14:06:48Z</time>
      </trkpt>
      <trkpt lat="46.29392" lon="-0.44299">
        <ele>19</ele>
        <time>2016-11-08T14:06:53Z</time>
      </trkpt>
      <trkpt lat="46.29387" lon="-0.443">
        <ele>19</ele>
        <time>2016-11-08T14:06:58Z</time>
      </trkpt>
      <trkpt lat="46.29381" lon="-0.44304">
        <ele>19</ele>
        <time>2016-11-08T14:07:03Z</time>
      </trkpt>
      <trkpt lat="46.29378" lon="-0.44304">
        <ele>19</ele>
        <time>2016-11-08T14:07:08Z</time>
      </trkpt>
      <trkpt lat="46.29376" lon="-0.44307">
        <ele>19</ele>
        <time>2016-11-08T14:07:13Z</time>
      </trkpt>
      <trkpt lat="46.29373" lon="-0.44311">
        <ele>25</ele>
        <time>2016-11-08T14:07:18Z</time>
      </trkpt>
      <trkpt lat="46.29369" lon="-0.44313">
        <ele>25</ele>
        <time>2016-11-08T14:07:23Z</time>
      </trkpt>
      <trkpt lat="46.29365" lon="-0.44315">
        <ele>25</ele>
        <time>2016-11-08T14:07:28Z</time>
      </trkpt>
      <trkpt lat="46.2936" lon="-0.44317">
        <ele>25</ele>
        <time>2016-11-08T14:07:33Z</time>
      </trkpt>
      <trkpt lat="46.29355" lon="-0.44322">
        <ele>25</ele>
        <time>2016-11-08T14:07:38Z</time>
      </trkpt>
      <trkpt lat="46.29349" lon="-0.44323">
        <ele>25</ele>
        <time>2016-11-08T14:07:43Z</time>
      </trkpt>
      <trkpt lat="46.29345" lon="-0.44326">
        <ele>25</ele>
        <time>2016-11-08T14:07:48Z</time>
      </trkpt>
      <trkpt lat="46.29338" lon="-0.4433">
        <ele>25</ele>
        <time>2016-11-08T14:07:53Z</time>
      </trkpt>
      <trkpt lat="46.29332" lon="-0.44334">
        <ele>25</ele>
        <time>2016-11-08T14:07:58Z</time>
      </trkpt>
      <trkpt lat="46.29327" lon="-0.44336">
        <ele>25</ele>
        <time>2016-11-08T14:08:03Z</time>
      </trkpt>
      <trkpt lat="46.29322" lon="-0.44338">
        <ele>25</ele>
        <time>2016-11-08T14:08:08Z</time>
      </trkpt>
      <trkpt lat="46.29317" lon="-0.4434">
        <ele>25</ele>
        <time>2016-11-08T14:08:13Z</time>
      </trkpt>
      <trkpt lat="46.2931" lon="-0.44336">
        <ele>25</ele>
        <time>2016-11-08T14:08:18Z</time>
      </trkpt>
      <trkpt lat="46.29301" lon="-0.44332">
        <ele>25</ele>
        <time>2016-11-08T14:08:23Z</time>
      </trkpt>
      <trkpt lat="46.29296" lon="-0.44332">
        <ele>25</ele>
        <time>2016-11-08T14:08:28Z</time>
      </trkpt>
      <trkpt lat="46.2929" lon="-0.4433">
        <ele>26</ele>
        <time>2016-11-08T14:08:33Z</time>
      </trkpt>
      <trkpt lat="46.29285" lon="-0.44327">
        <ele>26</ele>
        <time>2016-11-08T14:08:38Z</time>
      </trkpt>
      <trkpt lat="46.2928" lon="-0.44324">
        <ele>26</ele>
        <time>2016-11-08T14:08:43Z</time>
      </trkpt>
      <trkpt lat="46.29275" lon="-0.4432">
        <ele>26</ele>
        <time>2016-11-08T14:08:48Z</time>
      </trkpt>
      <trkpt lat="46.29269" lon="-0.44314">
        <ele>26</ele>
        <time>2016-11-08T14:08:53Z</time>
      </trkpt>
      <trkpt lat="46.29264" lon="-0.4431">
        <ele>26</ele>
        <time>2016-11-08T14:08:58Z</time>
      </trkpt>
      <trkpt lat="46.29259" lon="-0.44307">
        <ele>26</ele>
        <time>2016-11-08T14:09:03Z</time>
      </trkpt>
      <trkpt lat="46.29255" lon="-0.443">
        <ele>26</ele>
        <time>2016-11-08T14:09:08Z</time>
      </trkpt>
      <trkpt lat="46.29252" lon="-0.44295">
        <ele>26</ele>
        <time>2016-11-08T14:09:13Z</time>
      </trkpt>
      <trkpt lat="46.29248" lon="-0.44288">
        <ele>26</ele>
        <time>2016-11-08T14:09:18Z</time>
      </trkpt>
      <trkpt lat="46.29245" lon="-0.44282">
        <ele>26</ele>
        <time>2016-11-08T14:09:23Z</time>
      </trkpt>
      <trkpt lat="46.29242" lon="-0.44275">
        <ele>26</ele>
        <time>2016-11-08T14:09:28Z</time>
      </trkpt>
      <trkpt lat="46.29239" lon="-0.44269">
        <ele>26</ele>
        <time>2016-11-08T14:09:33Z</time>
      </trkpt>
      <trkpt lat="46.29237" lon="-0.44262">
        <ele>26</ele>
        <time>2016-11-08T14:09:38Z</time>
      </trkpt>
      <trkpt lat="46.29236" lon="-0.44254">
        <ele>26</ele>
        <time>2016-11-08T14:09:43Z</time>
      </trkpt>
      <trkpt lat="46.29235" lon="-0.44247">
        <ele>26</ele>
        <time>2016-11-08T14:09:48Z</time>
      </trkpt>
      <trkpt lat="46.29233" lon="-0.4424">
        <ele>26</ele>
        <time>2016-11-08T14:09:53Z</time>
      </trkpt>
      <trkpt lat="46.29232" lon="-0.44235">
        <ele>26</ele>
        <time>2016-11-08T14:09:58Z</time>
      </trkpt>
      <trkpt lat="46.29231" lon="-0.44228">
        <ele>26</ele>
        <time>2016-11-08T14:10:03Z</time>
      </trkpt>
      <trkpt lat="46.2923" lon="-0.44221">
        <ele>26</ele>
        <time>2016-11-08T14:10:08Z</time>
      </trkpt>
      <trkpt lat="46.29229" lon="-0.44215">
        <ele>26</ele>
        <time>2016-11-08T14:10:13Z</time>
      </trkpt>
      <trkpt lat="46.29228" lon="-0.44209">
        <ele>26</ele>
        <time>2016-11-08T14:10:18Z</time>
      </trkpt>
      <trkpt lat="46.29226" lon="-0.44202">
        <ele>26</ele>
        <time>2016-11-08T14:10:23Z</time>
      </trkpt>
      <trkpt lat="46.29225" lon="-0.44194">
        <ele>26</ele>
        <time>2016-11-08T14:10:28Z</time>
      </trkpt>
      <trkpt lat="46.29223" lon="-0.44187">
        <ele>26</ele>
        <time>2016-11-08T14:10:33Z</time>
      </trkpt>
      <trkpt lat="46.29222" lon="-0.44179">
        <ele>26</ele>
        <time>2016-11-08T14:10:38Z</time>
      </trkpt>
      <trkpt lat="46.29221" lon="-0.44174">
        <ele>26</ele>
        <time>2016-11-08T14:10:43Z</time>
      </trkpt>
      <trkpt lat="46.29219" lon="-0.44168">
        <ele>26</ele>
        <time>2016-11-08T14:10:48Z</time>
      </trkpt>
      <trkpt lat="46.29215" lon="-0.4416">
        <ele>26</ele>
        <time>2016-11-08T14:10:53Z</time>
      </trkpt>
      <trkpt lat="46.29213" lon="-0.44151">
        <ele>26</ele>
        <time>2016-11-08T14:10:58Z</time>
      </trkpt>
      <trkpt lat="46.29211" lon="-0.44145">
        <ele>26</ele>
        <time>2016-11-08T14:11:03Z</time>
      </trkpt>
      <trkpt lat="46.2921" lon="-0.44135">
        <ele>26</ele>
        <time>2016-11-08T14:11:08Z</time>
      </trkpt>
      <trkpt lat="46.29209" lon="-0.44127">
        <ele>26</ele>
        <time>2016-11-08T14:11:13Z</time>
      </trkpt>
      <trkpt lat="46.29208" lon="-0.44119">
        <ele>29</ele>
        <time>2016-11-08T14:11:18Z</time>
      </trkpt>
      <trkpt lat="46.29207" lon="-0.44114">
        <ele>29</ele>
        <time>2016-11-08T14:11:23Z</time>
      </trkpt>
      <trkpt lat="46.29207" lon="-0.44107">
        <ele>29</ele>
        <time>2016-11-08T14:11:28Z</time>
      </trkpt>
      <trkpt lat="46.29206" lon="-0.44099">
        <ele>29</ele>
        <time>2016-11-08T14:11:33Z</time>
      </trkpt>
      <trkpt lat="46.29205" lon="-0.44093">
        <ele>29</ele>
        <time>2016-11-08T14:11:38Z</time>
      </trkpt>
      <trkpt lat="46.29204" lon="-0.44084">
        <ele>29</ele>
        <time>2016-11-08T14:11:43Z</time>
      </trkpt>
      <trkpt lat="46.29203" lon="-0.44075">
        <ele>29</ele>
        <time>2016-11-08T14:11:48Z</time>
      </trkpt>
      <trkpt lat="46.29202" lon="-0.44068">
        <ele>29</ele>
        <time>2016-11-08T14:11:53Z</time>
      </trkpt>
      <trkpt lat="46.29202" lon="-0.44062">
        <ele>29</ele>
        <time>2016-11-08T14:11:58Z</time>
      </trkpt>
      <trkpt lat="46.29201" lon="-0.44057">
        <ele>29</ele>
        <time>2016-11-08T14:12:03Z</time>
      </trkpt>
      <trkpt lat="46.292" lon="-0.44051">
        <ele>29</ele>
        <time>2016-11-08T14:12:08Z</time>
      </trkpt>
      <trkpt lat="46.29199" lon="-0.44042">
        <ele>29</ele>
        <time>2016-11-08T14:12:13Z</time>
      </trkpt>
      <trkpt lat="46.29198" lon="-0.44035">
        <ele>29</ele>
        <time>2016-11-08T14:12:18Z</time>
      </trkpt>
      <trkpt lat="46.29198" lon="-0.44028">
        <ele>29</ele>
        <time>2016-11-08T14:12:23Z</time>
      </trkpt>
      <trkpt lat="46.29196" lon="-0.44018">
        <ele>29</ele>
        <time>2016-11-08T14:12:28Z</time>
      </trkpt>
      <trkpt lat="46.29196" lon="-0.44009">
        <ele>29</ele>
        <time>2016-11-08T14:12:33Z</time>
      </trkpt>
      <trkpt lat="46.29195" lon="-0.43999">
        <ele>29</ele>
        <time>2016-11-08T14:12:38Z</time>
      </trkpt>
      <trkpt lat="46.29194" lon="-0.4399">
        <ele>29</ele>
        <time>2016-11-08T14:12:43Z</time>
      </trkpt>
      <trkpt lat="46.29195" lon="-0.43979">
        <ele>29</ele>
        <time>2016-11-08T14:12:48Z</time>
      </trkpt>
      <trkpt lat="46.29194" lon="-0.43971">
        <ele>29</ele>
        <time>2016-11-08T14:12:53Z</time>
      </trkpt>
      <trkpt lat="46.29193" lon="-0.43962">
        <ele>29</ele>
        <time>2016-11-08T14:12:58Z</time>
      </trkpt>
      <trkpt lat="46.29193" lon="-0.43953">
        <ele>29</ele>
        <time>2016-11-08T14:13:03Z</time>
      </trkpt>
      <trkpt lat="46.29192" lon="-0.43945">
        <ele>29</ele>
        <time>2016-11-08T14:13:08Z</time>
      </trkpt>
      <trkpt lat="46.29193" lon="-0.43943">
        <ele>29</ele>
        <time>2016-11-08T14:13:13Z</time>
      </trkpt>
      <trkpt lat="46.29195" lon="-0.4393">
        <ele>29</ele>
        <time>2016-11-08T14:13:23Z</time>
      </trkpt>
      <trkpt lat="46.292" lon="-0.43925">
        <ele>29</ele>
        <time>2016-11-08T14:13:28Z</time>
      </trkpt>
      <trkpt lat="46.29205" lon="-0.43922">
        <ele>29</ele>
        <time>2016-11-08T14:13:33Z</time>
      </trkpt>
      <trkpt lat="46.2921" lon="-0.43919">
        <ele>26</ele>
        <time>2016-11-08T14:13:38Z</time>
      </trkpt>
      <trkpt lat="46.29213" lon="-0.43917">
        <ele>26</ele>
        <time>2016-11-08T14:13:43Z</time>
      </trkpt>
      <trkpt lat="46.29217" lon="-0.43915">
        <ele>26</ele>
        <time>2016-11-08T14:13:48Z</time>
      </trkpt>
      <trkpt lat="46.29222" lon="-0.43913">
        <ele>26</ele>
        <time>2016-11-08T14:13:53Z</time>
      </trkpt>
      <trkpt lat="46.29226" lon="-0.4391">
        <ele>26</ele>
        <time>2016-11-08T14:13:58Z</time>
      </trkpt>
      <trkpt lat="46.2923" lon="-0.43908">
        <ele>26</ele>
        <time>2016-11-08T14:14:03Z</time>
      </trkpt>
      <trkpt lat="46.29236" lon="-0.43905">
        <ele>26</ele>
        <time>2016-11-08T14:14:08Z</time>
      </trkpt>
      <trkpt lat="46.29241" lon="-0.43903">
        <ele>26</ele>
        <time>2016-11-08T14:14:13Z</time>
      </trkpt>
      <trkpt lat="46.29246" lon="-0.439">
        <ele>26</ele>
        <time>2016-11-08T14:14:18Z</time>
      </trkpt>
      <trkpt lat="46.2925" lon="-0.43898">
        <ele>26</ele>
        <time>2016-11-08T14:14:23Z</time>
      </trkpt>
      <trkpt lat="46.29255" lon="-0.43897">
        <ele>26</ele>
        <time>2016-11-08T14:14:28Z</time>
      </trkpt>
      <trkpt lat="46.29259" lon="-0.43897">
        <ele>26</ele>
        <time>2016-11-08T14:14:33Z</time>
      </trkpt>
      <trkpt lat="46.29266" lon="-0.43895">
        <ele>26</ele>
        <time>2016-11-08T14:14:38Z</time>
      </trkpt>
      <trkpt lat="46.29271" lon="-0.43894">
        <ele>26</ele>
        <time>2016-11-08T14:14:43Z</time>
      </trkpt>
      <trkpt lat="46.29276" lon="-0.43893">
        <ele>26</ele>
        <time>2016-11-08T14:14:48Z</time>
      </trkpt>
      <trkpt lat="46.29282" lon="-0.43893">
        <ele>26</ele>
        <time>2016-11-08T14:14:53Z</time>
      </trkpt>
      <trkpt lat="46.29289" lon="-0.43893">
        <ele>26</ele>
        <time>2016-11-08T14:14:58Z</time>
      </trkpt>
      <trkpt lat="46.29297" lon="-0.43893">
        <ele>20</ele>
        <time>2016-11-08T14:15:03Z</time>
      </trkpt>
      <trkpt lat="46.29303" lon="-0.43893">
        <ele>20</ele>
        <time>2016-11-08T14:15:08Z</time>
      </trkpt>
      <trkpt lat="46.29308" lon="-0.43893">
        <ele>20</ele>
        <time>2016-11-08T14:15:13Z</time>
      </trkpt>
      <trkpt lat="46.29313" lon="-0.43891">
        <ele>20</ele>
        <time>2016-11-08T14:15:18Z</time>
      </trkpt>
      <trkpt lat="46.29318" lon="-0.4389">
        <ele>20</ele>
        <time>2016-11-08T14:15:23Z</time>
      </trkpt>
      <trkpt lat="46.29323" lon="-0.4389">
        <ele>20</ele>
        <time>2016-11-08T14:15:28Z</time>
      </trkpt>
      <trkpt lat="46.29327" lon="-0.43889">
        <ele>20</ele>
        <time>2016-11-08T14:15:33Z</time>
      </trkpt>
      <trkpt lat="46.29331" lon="-0.43888">
        <ele>20</ele>
        <time>2016-11-08T14:15:38Z</time>
      </trkpt>
      <trkpt lat="46.29335" lon="-0.43888">
        <ele>20</ele>
        <time>2016-11-08T14:15:43Z</time>
      </trkpt>
      <trkpt lat="46.29339" lon="-0.43888">
        <ele>20</ele>
        <time>2016-11-08T14:15:48Z</time>
      </trkpt>
      <trkpt lat="46.29343" lon="-0.43886">
        <ele>20</ele>
        <time>2016-11-08T14:15:53Z</time>
      </trkpt>
      <trkpt lat="46.29343" lon="-0.43886">
        <ele>20</ele>
        <time>2016-11-08T14:15:58Z</time>
      </trkpt>
      <trkpt lat="46.29348" lon="-0.43885">
        <ele>20</ele>
        <time>2016-11-08T14:16:03Z</time>
      </trkpt>
      <trkpt lat="46.29353" lon="-0.43883">
        <ele>20</ele>
        <time>2016-11-08T14:16:08Z</time>
      </trkpt>
      <trkpt lat="46.29356" lon="-0.43883">
        <ele>20</ele>
        <time>2016-11-08T14:16:13Z</time>
      </trkpt>
      <trkpt lat="46.29359" lon="-0.43882">
        <ele>20</ele>
        <time>2016-11-08T14:16:18Z</time>
      </trkpt>
      <trkpt lat="46.29362" lon="-0.43881">
        <ele>20</ele>
        <time>2016-11-08T14:16:23Z</time>
      </trkpt>
      <trkpt lat="46.29366" lon="-0.43878">
        <ele>20</ele>
        <time>2016-11-08T14:16:28Z</time>
      </trkpt>
      <trkpt lat="46.2937" lon="-0.43876">
        <ele>20</ele>
        <time>2016-11-08T14:16:33Z</time>
      </trkpt>
      <trkpt lat="46.29374" lon="-0.43875">
        <ele>21</ele>
        <time>2016-11-08T14:16:38Z</time>
      </trkpt>
      <trkpt lat="46.29379" lon="-0.43872">
        <ele>21</ele>
        <time>2016-11-08T14:16:43Z</time>
      </trkpt>
      <trkpt lat="46.29388" lon="-0.4387">
        <ele>21</ele>
        <time>2016-11-08T14:16:48Z</time>
      </trkpt>
      <trkpt lat="46.29393" lon="-0.4387">
        <ele>21</ele>
        <time>2016-11-08T14:16:53Z</time>
      </trkpt>
      <trkpt lat="46.29399" lon="-0.43869">
        <ele>21</ele>
        <time>2016-11-08T14:16:58Z</time>
      </trkpt>
      <trkpt lat="46.29407" lon="-0.43867">
        <ele>21</ele>
        <time>2016-11-08T14:17:03Z</time>
      </trkpt>
      <trkpt lat="46.29415" lon="-0.43866">
        <ele>21</ele>
        <time>2016-11-08T14:17:08Z</time>
      </trkpt>
      <trkpt lat="46.2942" lon="-0.43865">
        <ele>21</ele>
        <time>2016-11-08T14:17:13Z</time>
      </trkpt>
      <trkpt lat="46.29423" lon="-0.43863">
        <ele>21</ele>
        <time>2016-11-08T14:17:18Z</time>
      </trkpt>
      <trkpt lat="46.29431" lon="-0.43862">
        <ele>21</ele>
        <time>2016-11-08T14:17:23Z</time>
      </trkpt>
      <trkpt lat="46.29438" lon="-0.4386">
        <ele>21</ele>
        <time>2016-11-08T14:17:28Z</time>
      </trkpt>
      <trkpt lat="46.29447" lon="-0.43862">
        <ele>21</ele>
        <time>2016-11-08T14:17:33Z</time>
      </trkpt>
      <trkpt lat="46.29451" lon="-0.43862">
        <ele>21</ele>
        <time>2016-11-08T14:17:38Z</time>
      </trkpt>
      <trkpt lat="46.29458" lon="-0.43864">
        <ele>21</ele>
        <time>2016-11-08T14:17:43Z</time>
      </trkpt>
      <trkpt lat="46.29468" lon="-0.43867">
        <ele>19</ele>
        <time>2016-11-08T14:17:48Z</time>
      </trkpt>
      <trkpt lat="46.29475" lon="-0.43869">
        <ele>19</ele>
        <time>2016-11-08T14:17:53Z</time>
      </trkpt>
      <trkpt lat="46.29479" lon="-0.43872">
        <ele>19</ele>
        <time>2016-11-08T14:17:58Z</time>
      </trkpt>
      <trkpt lat="46.29485" lon="-0.43876">
        <ele>21</ele>
        <time>2016-11-08T14:18:03Z</time>
      </trkpt>
      <trkpt lat="46.2949" lon="-0.43881">
        <ele>21</ele>
        <time>2016-11-08T14:18:08Z</time>
      </trkpt>
      <trkpt lat="46.29496" lon="-0.43885">
        <ele>21</ele>
        <time>2016-11-08T14:18:13Z</time>
      </trkpt>
      <trkpt lat="46.29504" lon="-0.43888">
        <ele>21</ele>
        <time>2016-11-08T14:18:18Z</time>
      </trkpt>
      <trkpt lat="46.29509" lon="-0.43888">
        <ele>21</ele>
        <time>2016-11-08T14:18:23Z</time>
      </trkpt>
      <trkpt lat="46.29512" lon="-0.43886">
        <ele>21</ele>
        <time>2016-11-08T14:18:28Z</time>
      </trkpt>
      <trkpt lat="46.29516" lon="-0.43882">
        <ele>21</ele>
        <time>2016-11-08T14:18:33Z</time>
      </trkpt>
      <trkpt lat="46.29521" lon="-0.43878">
        <ele>21</ele>
        <time>2016-11-08T14:18:38Z</time>
      </trkpt>
      <trkpt lat="46.29526" lon="-0.43874">
        <ele>19</ele>
        <time>2016-11-08T14:18:43Z</time>
      </trkpt>
      <trkpt lat="46.29531" lon="-0.43869">
        <ele>19</ele>
        <time>2016-11-08T14:18:48Z</time>
      </trkpt>
      <trkpt lat="46.29536" lon="-0.43867">
        <ele>19</ele>
        <time>2016-11-08T14:18:53Z</time>
      </trkpt>
      <trkpt lat="46.29541" lon="-0.43864">
        <ele>19</ele>
        <time>2016-11-08T14:18:58Z</time>
      </trkpt>
      <trkpt lat="46.29545" lon="-0.43862">
        <ele>18</ele>
        <time>2016-11-08T14:19:03Z</time>
      </trkpt>
      <trkpt lat="46.29549" lon="-0.43859">
        <ele>18</ele>
        <time>2016-11-08T14:19:08Z</time>
      </trkpt>
      <trkpt lat="46.29553" lon="-0.43854">
        <ele>18</ele>
        <time>2016-11-08T14:19:13Z</time>
      </trkpt>
      <trkpt lat="46.29558" lon="-0.43847">
        <ele>18</ele>
        <time>2016-11-08T14:19:18Z</time>
      </trkpt>
      <trkpt lat="46.29563" lon="-0.43839">
        <ele>18</ele>
        <time>2016-11-08T14:19:23Z</time>
      </trkpt>
      <trkpt lat="46.29567" lon="-0.43832">
        <ele>18</ele>
        <time>2016-11-08T14:19:28Z</time>
      </trkpt>
      <trkpt lat="46.29571" lon="-0.43825">
        <ele>18</ele>
        <time>2016-11-08T14:19:33Z</time>
      </trkpt>
      <trkpt lat="46.29574" lon="-0.43818">
        <ele>18</ele>
        <time>2016-11-08T14:19:38Z</time>
      </trkpt>
      <trkpt lat="46.29576" lon="-0.43813">
        <ele>18</ele>
        <time>2016-11-08T14:19:43Z</time>
      </trkpt>
      <trkpt lat="46.29577" lon="-0.43806">
        <ele>18</ele>
        <time>2016-11-08T14:19:48Z</time>
      </trkpt>
      <trkpt lat="46.29577" lon="-0.43801">
        <ele>18</ele>
        <time>2016-11-08T14:19:53Z</time>
      </trkpt>
      <trkpt lat="46.29575" lon="-0.43797">
        <ele>18</ele>
        <time>2016-11-08T14:19:58Z</time>
      </trkpt>
      <trkpt lat="46.29572" lon="-0.43794">
        <ele>18</ele>
        <time>2016-11-08T14:20:03Z</time>
      </trkpt>
      <trkpt lat="46.29569" lon="-0.43792">
        <ele>18</ele>
        <time>2016-11-08T14:20:08Z</time>
      </trkpt>
      <trkpt lat="46.29565" lon="-0.43789">
        <ele>18</ele>
        <time>2016-11-08T14:20:13Z</time>
      </trkpt>
      <trkpt lat="46.29562" lon="-0.43786">
        <ele>18</ele>
        <time>2016-11-08T14:20:18Z</time>
      </trkpt>
      <trkpt lat="46.29559" lon="-0.43784">
        <ele>18</ele>
        <time>2016-11-08T14:20:23Z</time>
      </trkpt>
      <trkpt lat="46.29554" lon="-0.4378">
        <ele>18</ele>
        <time>2016-11-08T14:20:28Z</time>
      </trkpt>
      <trkpt lat="46.29551" lon="-0.43775">
        <ele>18</ele>
        <time>2016-11-08T14:20:33Z</time>
      </trkpt>
      <trkpt lat="46.29547" lon="-0.4377">
        <ele>18</ele>
        <time>2016-11-08T14:20:38Z</time>
      </trkpt>
      <trkpt lat="46.29543" lon="-0.43768">
        <ele>18</ele>
        <time>2016-11-08T14:20:43Z</time>
      </trkpt>
      <trkpt lat="46.29539" lon="-0.43761">
        <ele>18</ele>
        <time>2016-11-08T14:20:48Z</time>
      </trkpt>
      <trkpt lat="46.29536" lon="-0.43754">
        <ele>18</ele>
        <time>2016-11-08T14:20:53Z</time>
      </trkpt>
      <trkpt lat="46.29533" lon="-0.43746">
        <ele>18</ele>
        <time>2016-11-08T14:20:58Z</time>
      </trkpt>
      <trkpt lat="46.29531" lon="-0.43738">
        <ele>18</ele>
        <time>2016-11-08T14:21:03Z</time>
      </trkpt>
      <trkpt lat="46.29529" lon="-0.43729">
        <ele>18</ele>
        <time>2016-11-08T14:21:08Z</time>
      </trkpt>
      <trkpt lat="46.29527" lon="-0.43719">
        <ele>18</ele>
        <time>2016-11-08T14:21:13Z</time>
      </trkpt>
      <trkpt lat="46.29524" lon="-0.4371">
        <ele>18</ele>
        <time>2016-11-08T14:21:18Z</time>
      </trkpt>
      <trkpt lat="46.29522" lon="-0.43702">
        <ele>20</ele>
        <time>2016-11-08T14:21:23Z</time>
      </trkpt>
      <trkpt lat="46.29519" lon="-0.43693">
        <ele>20</ele>
        <time>2016-11-08T14:21:28Z</time>
      </trkpt>
      <trkpt lat="46.29516" lon="-0.43686">
        <ele>20</ele>
        <time>2016-11-08T14:21:33Z</time>
      </trkpt>
      <trkpt lat="46.29513" lon="-0.43677">
        <ele>20</ele>
        <time>2016-11-08T14:21:38Z</time>
      </trkpt>
      <trkpt lat="46.2951" lon="-0.43666">
        <ele>20</ele>
        <time>2016-11-08T14:21:43Z</time>
      </trkpt>
      <trkpt lat="46.29507" lon="-0.43658">
        <ele>20</ele>
        <time>2016-11-08T14:21:48Z</time>
      </trkpt>
      <trkpt lat="46.29504" lon="-0.4365">
        <ele>20</ele>
        <time>2016-11-08T14:21:53Z</time>
      </trkpt>
      <trkpt lat="46.29502" lon="-0.43642">
        <ele>20</ele>
        <time>2016-11-08T14:21:58Z</time>
      </trkpt>
      <trkpt lat="46.29499" lon="-0.43632">
        <ele>20</ele>
        <time>2016-11-08T14:22:03Z</time>
      </trkpt>
      <trkpt lat="46.29497" lon="-0.43625">
        <ele>21</ele>
        <time>2016-11-08T14:22:08Z</time>
      </trkpt>
      <trkpt lat="46.29495" lon="-0.43619">
        <ele>21</ele>
        <time>2016-11-08T14:22:13Z</time>
      </trkpt>
      <trkpt lat="46.29493" lon="-0.4361">
        <ele>21</ele>
        <time>2016-11-08T14:22:18Z</time>
      </trkpt>
      <trkpt lat="46.29491" lon="-0.436">
        <ele>21</ele>
        <time>2016-11-08T14:22:23Z</time>
      </trkpt>
      <trkpt lat="46.29488" lon="-0.43592">
        <ele>21</ele>
        <time>2016-11-08T14:22:28Z</time>
      </trkpt>
      <trkpt lat="46.29486" lon="-0.43586">
        <ele>21</ele>
        <time>2016-11-08T14:22:33Z</time>
      </trkpt>
      <trkpt lat="46.29484" lon="-0.4358">
        <ele>21</ele>
        <time>2016-11-08T14:22:38Z</time>
      </trkpt>
      <trkpt lat="46.29482" lon="-0.43572">
        <ele>21</ele>
        <time>2016-11-08T14:22:43Z</time>
      </trkpt>
      <trkpt lat="46.2948" lon="-0.43565">
        <ele>21</ele>
        <time>2016-11-08T14:22:48Z</time>
      </trkpt>
      <trkpt lat="46.29477" lon="-0.4356">
        <ele>21</ele>
        <time>2016-11-08T14:22:53Z</time>
      </trkpt>
      <trkpt lat="46.29476" lon="-0.43555">
        <ele>21</ele>
        <time>2016-11-08T14:22:58Z</time>
      </trkpt>
      <trkpt lat="46.29473" lon="-0.43548">
        <ele>21</ele>
        <time>2016-11-08T14:23:03Z</time>
      </trkpt>
      <trkpt lat="46.29472" lon="-0.43541">
        <ele>20</ele>
        <time>2016-11-08T14:23:08Z</time>
      </trkpt>
      <trkpt lat="46.29469" lon="-0.43536">
        <ele>20</ele>
        <time>2016-11-08T14:23:13Z</time>
      </trkpt>
      <trkpt lat="46.29467" lon="-0.43532">
        <ele>20</ele>
        <time>2016-11-08T14:23:18Z</time>
      </trkpt>
      <trkpt lat="46.29465" lon="-0.43525">
        <ele>20</ele>
        <time>2016-11-08T14:23:23Z</time>
      </trkpt>
      <trkpt lat="46.29463" lon="-0.43518">
        <ele>20</ele>
        <time>2016-11-08T14:23:28Z</time>
      </trkpt>
      <trkpt lat="46.29461" lon="-0.4351">
        <ele>20</ele>
        <time>2016-11-08T14:23:33Z</time>
      </trkpt>
      <trkpt lat="46.29458" lon="-0.43504">
        <ele>20</ele>
        <time>2016-11-08T14:23:38Z</time>
      </trkpt>
      <trkpt lat="46.29455" lon="-0.43496">
        <ele>20</ele>
        <time>2016-11-08T14:23:43Z</time>
      </trkpt>
      <trkpt lat="46.29452" lon="-0.43489">
        <ele>20</ele>
        <time>2016-11-08T14:23:48Z</time>
      </trkpt>
      <trkpt lat="46.2945" lon="-0.43479">
        <ele>20</ele>
        <time>2016-11-08T14:23:53Z</time>
      </trkpt>
      <trkpt lat="46.29445" lon="-0.43464">
        <ele>20</ele>
        <time>2016-11-08T14:23:58Z</time>
      </trkpt>
      <trkpt lat="46.29443" lon="-0.43452">
        <ele>21</ele>
        <time>2016-11-08T14:24:03Z</time>
      </trkpt>
      <trkpt lat="46.2944" lon="-0.43441">
        <ele>21</ele>
        <time>2016-11-08T14:24:08Z</time>
      </trkpt>
      <trkpt lat="46.29438" lon="-0.43433">
        <ele>21</ele>
        <time>2016-11-08T14:24:13Z</time>
      </trkpt>
      <trkpt lat="46.29435" lon="-0.43423">
        <ele>21</ele>
        <time>2016-11-08T14:24:18Z</time>
      </trkpt>
      <trkpt lat="46.29435" lon="-0.43415">
        <ele>21</ele>
        <time>2016-11-08T14:24:23Z</time>
      </trkpt>
      <trkpt lat="46.29435" lon="-0.43409">
        <ele>21</ele>
        <time>2016-11-08T14:24:28Z</time>
      </trkpt>
      <trkpt lat="46.29436" lon="-0.43401">
        <ele>21</ele>
        <time>2016-11-08T14:24:33Z</time>
      </trkpt>
      <trkpt lat="46.29436" lon="-0.43393">
        <ele>21</ele>
        <time>2016-11-08T14:24:38Z</time>
      </trkpt>
      <trkpt lat="46.29437" lon="-0.43385">
        <ele>21</ele>
        <time>2016-11-08T14:24:43Z</time>
      </trkpt>
      <trkpt lat="46.29437" lon="-0.43376">
        <ele>21</ele>
        <time>2016-11-08T14:24:48Z</time>
      </trkpt>
      <trkpt lat="46.29437" lon="-0.43364">
        <ele>21</ele>
        <time>2016-11-08T14:24:53Z</time>
      </trkpt>
      <trkpt lat="46.29437" lon="-0.43352">
        <ele>21</ele>
        <time>2016-11-08T14:24:58Z</time>
      </trkpt>
      <trkpt lat="46.29436" lon="-0.43343">
        <ele>21</ele>
        <time>2016-11-08T14:25:03Z</time>
      </trkpt>
      <trkpt lat="46.29438" lon="-0.43336">
        <ele>21</ele>
        <time>2016-11-08T14:25:08Z</time>
      </trkpt>
      <trkpt lat="46.29438" lon="-0.43329">
        <ele>21</ele>
        <time>2016-11-08T14:25:13Z</time>
      </trkpt>
      <trkpt lat="46.29438" lon="-0.43323">
        <ele>21</ele>
        <time>2016-11-08T14:25:18Z</time>
      </trkpt>
      <trkpt lat="46.29439" lon="-0.43315">
        <ele>21</ele>
        <time>2016-11-08T14:25:23Z</time>
      </trkpt>
      <trkpt lat="46.29439" lon="-0.43308">
        <ele>21</ele>
        <time>2016-11-08T14:25:28Z</time>
      </trkpt>
      <trkpt lat="46.29439" lon="-0.43299">
        <ele>21</ele>
        <time>2016-11-08T14:25:33Z</time>
      </trkpt>
      <trkpt lat="46.29438" lon="-0.43292">
        <ele>21</ele>
        <time>2016-11-08T14:25:38Z</time>
      </trkpt>
      <trkpt lat="46.29439" lon="-0.43284">
        <ele>23</ele>
        <time>2016-11-08T14:25:43Z</time>
      </trkpt>
      <trkpt lat="46.29437" lon="-0.43278">
        <ele>23</ele>
        <time>2016-11-08T14:25:48Z</time>
      </trkpt>
      <trkpt lat="46.29436" lon="-0.43272">
        <ele>23</ele>
        <time>2016-11-08T14:25:53Z</time>
      </trkpt>
      <trkpt lat="46.29436" lon="-0.43269">
        <ele>23</ele>
        <time>2016-11-08T14:25:58Z</time>
      </trkpt>
      <trkpt lat="46.29435" lon="-0.43263">
        <ele>23</ele>
        <time>2016-11-08T14:26:03Z</time>
      </trkpt>
      <trkpt lat="46.29434" lon="-0.43255">
        <ele>23</ele>
        <time>2016-11-08T14:26:08Z</time>
      </trkpt>
      <trkpt lat="46.29433" lon="-0.43245">
        <ele>23</ele>
        <time>2016-11-08T14:26:13Z</time>
      </trkpt>
      <trkpt lat="46.29433" lon="-0.43237">
        <ele>23</ele>
        <time>2016-11-08T14:26:18Z</time>
      </trkpt>
      <trkpt lat="46.29432" lon="-0.43233">
        <ele>23</ele>
        <time>2016-11-08T14:26:23Z</time>
      </trkpt>
      <trkpt lat="46.29431" lon="-0.43216">
        <ele>23</ele>
        <time>2016-11-08T14:26:38Z</time>
      </trkpt>
      <trkpt lat="46.29431" lon="-0.43211">
        <ele>23</ele>
        <time>2016-11-08T14:26:43Z</time>
      </trkpt>
      <trkpt lat="46.29431" lon="-0.4321">
        <ele>23</ele>
        <time>2016-11-08T14:26:48Z</time>
      </trkpt>
      <trkpt lat="46.29432" lon="-0.43194">
        <ele>28</ele>
        <time>2016-11-08T14:26:58Z</time>
      </trkpt>
      <trkpt lat="46.29432" lon="-0.43187">
        <ele>28</ele>
        <time>2016-11-08T14:27:03Z</time>
      </trkpt>
      <trkpt lat="46.29431" lon="-0.43162">
        <ele>28</ele>
        <time>2016-11-08T14:27:08Z</time>
      </trkpt>
      <trkpt lat="46.29432" lon="-0.43143">
        <ele>28</ele>
        <time>2016-11-08T14:27:13Z</time>
      </trkpt>
      <trkpt lat="46.29434" lon="-0.43135">
        <ele>28</ele>
        <time>2016-11-08T14:27:18Z</time>
      </trkpt>
      <trkpt lat="46.29434" lon="-0.43131">
        <ele>28</ele>
        <time>2016-11-08T14:27:23Z</time>
      </trkpt>
      <trkpt lat="46.29436" lon="-0.43122">
        <ele>29</ele>
        <time>2016-11-08T14:27:28Z</time>
      </trkpt>
      <trkpt lat="46.29438" lon="-0.4312">
        <ele>29</ele>
        <time>2016-11-08T14:27:33Z</time>
      </trkpt>
      <trkpt lat="46.29439" lon="-0.43119">
        <ele>29</ele>
        <time>2016-11-08T14:27:38Z</time>
      </trkpt>
      <trkpt lat="46.29444" lon="-0.43112">
        <ele>29</ele>
        <time>2016-11-08T14:27:43Z</time>
      </trkpt>
      <trkpt lat="46.29448" lon="-0.43109">
        <ele>29</ele>
        <time>2016-11-08T14:27:48Z</time>
      </trkpt>
      <trkpt lat="46.29452" lon="-0.43106">
        <ele>29</ele>
        <time>2016-11-08T14:27:53Z</time>
      </trkpt>
      <trkpt lat="46.29456" lon="-0.431">
        <ele>29</ele>
        <time>2016-11-08T14:27:58Z</time>
      </trkpt>
      <trkpt lat="46.29462" lon="-0.43092">
        <ele>28</ele>
        <time>2016-11-08T14:28:03Z</time>
      </trkpt>
      <trkpt lat="46.29468" lon="-0.43084">
        <ele>28</ele>
        <time>2016-11-08T14:28:08Z</time>
      </trkpt>
      <trkpt lat="46.29474" lon="-0.43079">
        <ele>28</ele>
        <time>2016-11-08T14:28:13Z</time>
      </trkpt>
      <trkpt lat="46.29479" lon="-0.43079">
        <ele>28</ele>
        <time>2016-11-08T14:28:18Z</time>
      </trkpt>
      <trkpt lat="46.29485" lon="-0.43078">
        <ele>28</ele>
        <time>2016-11-08T14:28:23Z</time>
      </trkpt>
      <trkpt lat="46.29489" lon="-0.43076">
        <ele>28</ele>
        <time>2016-11-08T14:28:28Z</time>
      </trkpt>
      <trkpt lat="46.29495" lon="-0.43075">
        <ele>28</ele>
        <time>2016-11-08T14:28:33Z</time>
      </trkpt>
      <trkpt lat="46.29499" lon="-0.43072">
        <ele>28</ele>
        <time>2016-11-08T14:28:38Z</time>
      </trkpt>
      <trkpt lat="46.29503" lon="-0.43069">
        <ele>28</ele>
        <time>2016-11-08T14:28:43Z</time>
      </trkpt>
      <trkpt lat="46.29506" lon="-0.43065">
        <ele>28</ele>
        <time>2016-11-08T14:28:48Z</time>
      </trkpt>
      <trkpt lat="46.29509" lon="-0.43062">
        <ele>28</ele>
        <time>2016-11-08T14:28:53Z</time>
      </trkpt>
      <trkpt lat="46.29511" lon="-0.43057">
        <ele>28</ele>
        <time>2016-11-08T14:28:58Z</time>
      </trkpt>
      <trkpt lat="46.29516" lon="-0.43054">
        <ele>28</ele>
        <time>2016-11-08T14:29:03Z</time>
      </trkpt>
      <trkpt lat="46.29521" lon="-0.4305">
        <ele>28</ele>
        <time>2016-11-08T14:29:08Z</time>
      </trkpt>
      <trkpt lat="46.29527" lon="-0.43049">
        <ele>28</ele>
        <time>2016-11-08T14:29:13Z</time>
      </trkpt>
      <trkpt lat="46.29536" lon="-0.43052">
        <ele>28</ele>
        <time>2016-11-08T14:29:18Z</time>
      </trkpt>
      <trkpt lat="46.29544" lon="-0.43056">
        <ele>26</ele>
        <time>2016-11-08T14:29:23Z</time>
      </trkpt>
      <trkpt lat="46.29551" lon="-0.4306">
        <ele>26</ele>
        <time>2016-11-08T14:29:28Z</time>
      </trkpt>
      <trkpt lat="46.29555" lon="-0.43064">
        <ele>26</ele>
        <time>2016-11-08T14:29:33Z</time>
      </trkpt>
      <trkpt lat="46.2956" lon="-0.43066">
        <ele>26</ele>
        <time>2016-11-08T14:29:38Z</time>
      </trkpt>
      <trkpt lat="46.29564" lon="-0.43063">
        <ele>26</ele>
        <time>2016-11-08T14:29:43Z</time>
      </trkpt>
      <trkpt lat="46.29568" lon="-0.43061">
        <ele>26</ele>
        <time>2016-11-08T14:29:48Z</time>
      </trkpt>
      <trkpt lat="46.29572" lon="-0.43057">
        <ele>26</ele>
        <time>2016-11-08T14:29:53Z</time>
      </trkpt>
      <trkpt lat="46.29576" lon="-0.43053">
        <ele>26</ele>
        <time>2016-11-08T14:29:58Z</time>
      </trkpt>
      <trkpt lat="46.2958" lon="-0.43049">
        <ele>26</ele>
        <time>2016-11-08T14:30:03Z</time>
      </trkpt>
      <trkpt lat="46.29584" lon="-0.43047">
        <ele>26</ele>
        <time>2016-11-08T14:30:08Z</time>
      </trkpt>
      <trkpt lat="46.29588" lon="-0.43043">
        <ele>26</ele>
        <time>2016-11-08T14:30:13Z</time>
      </trkpt>
      <trkpt lat="46.29591" lon="-0.43039">
        <ele>28</ele>
        <time>2016-11-08T14:30:18Z</time>
      </trkpt>
      <trkpt lat="46.29597" lon="-0.43035">
        <ele>28</ele>
        <time>2016-11-08T14:30:23Z</time>
      </trkpt>
      <trkpt lat="46.29602" lon="-0.43031">
        <ele>28</ele>
        <time>2016-11-08T14:30:28Z</time>
      </trkpt>
      <trkpt lat="46.29606" lon="-0.43026">
        <ele>28</ele>
        <time>2016-11-08T14:30:33Z</time>
      </trkpt>
      <trkpt lat="46.29611" lon="-0.43022">
        <ele>28</ele>
        <time>2016-11-08T14:30:38Z</time>
      </trkpt>
      <trkpt lat="46.29617" lon="-0.43017">
        <ele>28</ele>
        <time>2016-11-08T14:30:43Z</time>
      </trkpt>
      <trkpt lat="46.29622" lon="-0.43013">
        <ele>28</ele>
        <time>2016-11-08T14:30:48Z</time>
      </trkpt>
      <trkpt lat="46.29627" lon="-0.43009">
        <ele>30</ele>
        <time>2016-11-08T14:30:53Z</time>
      </trkpt>
      <trkpt lat="46.29632" lon="-0.43004">
        <ele>30</ele>
        <time>2016-11-08T14:30:58Z</time>
      </trkpt>
      <trkpt lat="46.29636" lon="-0.43001">
        <ele>30</ele>
        <time>2016-11-08T14:31:03Z</time>
      </trkpt>
      <trkpt lat="46.29641" lon="-0.42997">
        <ele>30</ele>
        <time>2016-11-08T14:31:08Z</time>
      </trkpt>
      <trkpt lat="46.29645" lon="-0.42993">
        <ele>30</ele>
        <time>2016-11-08T14:31:13Z</time>
      </trkpt>
      <trkpt lat="46.29652" lon="-0.42986">
        <ele>30</ele>
        <time>2016-11-08T14:31:18Z</time>
      </trkpt>
      <trkpt lat="46.29662" lon="-0.42983">
        <ele>30</ele>
        <time>2016-11-08T14:31:23Z</time>
      </trkpt>
      <trkpt lat="46.29667" lon="-0.42978">
        <ele>30</ele>
        <time>2016-11-08T14:31:28Z</time>
      </trkpt>
      <trkpt lat="46.29673" lon="-0.42975">
        <ele>30</ele>
        <time>2016-11-08T14:31:33Z</time>
      </trkpt>
      <trkpt lat="46.29673" lon="-0.42975">
        <ele>30</ele>
        <time>2016-11-08T14:31:38Z</time>
      </trkpt>
      <trkpt lat="46.29678" lon="-0.42978">
        <ele>30</ele>
        <time>2016-11-08T14:31:43Z</time>
      </trkpt>
      <trkpt lat="46.29682" lon="-0.42983">
        <ele>30</ele>
        <time>2016-11-08T14:31:48Z</time>
      </trkpt>
      <trkpt lat="46.29685" lon="-0.4299">
        <ele>30</ele>
        <time>2016-11-08T14:31:53Z</time>
      </trkpt>
      <trkpt lat="46.29687" lon="-0.42996">
        <ele>30</ele>
        <time>2016-11-08T14:31:58Z</time>
      </trkpt>
      <trkpt lat="46.29689" lon="-0.43003">
        <ele>30</ele>
        <time>2016-11-08T14:32:03Z</time>
      </trkpt>
      <trkpt lat="46.29692" lon="-0.4301">
        <ele>30</ele>
        <time>2016-11-08T14:32:08Z</time>
      </trkpt>
      <trkpt lat="46.29695" lon="-0.43014">
        <ele>30</ele>
        <time>2016-11-08T14:32:13Z</time>
      </trkpt>
      <trkpt lat="46.29698" lon="-0.43019">
        <ele>30</ele>
        <time>2016-11-08T14:32:18Z</time>
      </trkpt>
      <trkpt lat="46.297" lon="-0.43026">
        <ele>30</ele>
        <time>2016-11-08T14:32:23Z</time>
      </trkpt>
      <trkpt lat="46.29702" lon="-0.43032">
        <ele>30</ele>
        <time>2016-11-08T14:32:28Z</time>
      </trkpt>
      <trkpt lat="46.29705" lon="-0.43038">
        <ele>30</ele>
        <time>2016-11-08T14:32:33Z</time>
      </trkpt>
      <trkpt lat="46.29707" lon="-0.43046">
        <ele>28</ele>
        <time>2016-11-08T14:32:38Z</time>
      </trkpt>
      <trkpt lat="46.2971" lon="-0.43052">
        <ele>30</ele>
        <time>2016-11-08T14:32:43Z</time>
      </trkpt>
      <trkpt lat="46.29712" lon="-0.43059">
        <ele>30</ele>
        <time>2016-11-08T14:32:48Z</time>
      </trkpt>
      <trkpt lat="46.29715" lon="-0.43066">
        <ele>30</ele>
        <time>2016-11-08T14:32:53Z</time>
      </trkpt>
      <trkpt lat="46.29716" lon="-0.43073">
        <ele>30</ele>
        <time>2016-11-08T14:32:58Z</time>
      </trkpt>
      <trkpt lat="46.29719" lon="-0.43079">
        <ele>30</ele>
        <time>2016-11-08T14:33:03Z</time>
      </trkpt>
      <trkpt lat="46.29722" lon="-0.43087">
        <ele>30</ele>
        <time>2016-11-08T14:33:08Z</time>
      </trkpt>
      <trkpt lat="46.29724" lon="-0.43093">
        <ele>30</ele>
        <time>2016-11-08T14:33:13Z</time>
      </trkpt>
      <trkpt lat="46.29728" lon="-0.43101">
        <ele>30</ele>
        <time>2016-11-08T14:33:18Z</time>
      </trkpt>
      <trkpt lat="46.29731" lon="-0.43107">
        <ele>30</ele>
        <time>2016-11-08T14:33:23Z</time>
      </trkpt>
      <trkpt lat="46.29735" lon="-0.43115">
        <ele>30</ele>
        <time>2016-11-08T14:33:28Z</time>
      </trkpt>
      <trkpt lat="46.29738" lon="-0.43121">
        <ele>30</ele>
        <time>2016-11-08T14:33:33Z</time>
      </trkpt>
      <trkpt lat="46.2974" lon="-0.43128">
        <ele>30</ele>
        <time>2016-11-08T14:33:38Z</time>
      </trkpt>
      <trkpt lat="46.29743" lon="-0.43134">
        <ele>30</ele>
        <time>2016-11-08T14:33:43Z</time>
      </trkpt>
      <trkpt lat="46.29745" lon="-0.43141">
        <ele>30</ele>
        <time>2016-11-08T14:33:48Z</time>
      </trkpt>
      <trkpt lat="46.29748" lon="-0.43148">
        <ele>30</ele>
        <time>2016-11-08T14:33:53Z</time>
      </trkpt>
      <trkpt lat="46.29752" lon="-0.43155">
        <ele>30</ele>
        <time>2016-11-08T14:33:58Z</time>
      </trkpt>
      <trkpt lat="46.29756" lon="-0.43161">
        <ele>30</ele>
        <time>2016-11-08T14:34:03Z</time>
      </trkpt>
      <trkpt lat="46.29759" lon="-0.43167">
        <ele>30</ele>
        <time>2016-11-08T14:34:08Z</time>
      </trkpt>
      <trkpt lat="46.29762" lon="-0.43173">
        <ele>30</ele>
        <time>2016-11-08T14:34:13Z</time>
      </trkpt>
      <trkpt lat="46.29768" lon="-0.43177">
        <ele>30</ele>
        <time>2016-11-08T14:34:18Z</time>
      </trkpt>
      <trkpt lat="46.29772" lon="-0.43184">
        <ele>30</ele>
        <time>2016-11-08T14:34:23Z</time>
      </trkpt>
      <trkpt lat="46.29778" lon="-0.43191">
        <ele>30</ele>
        <time>2016-11-08T14:34:28Z</time>
      </trkpt>
      <trkpt lat="46.29782" lon="-0.43199">
        <ele>30</ele>
        <time>2016-11-08T14:34:33Z</time>
      </trkpt>
      <trkpt lat="46.29786" lon="-0.43207">
        <ele>30</ele>
        <time>2016-11-08T14:34:38Z</time>
      </trkpt>
      <trkpt lat="46.29789" lon="-0.43213">
        <ele>30</ele>
        <time>2016-11-08T14:34:43Z</time>
      </trkpt>
      <trkpt lat="46.29793" lon="-0.43218">
        <ele>33</ele>
        <time>2016-11-08T14:34:48Z</time>
      </trkpt>
      <trkpt lat="46.29796" lon="-0.43225">
        <ele>33</ele>
        <time>2016-11-08T14:34:53Z</time>
      </trkpt>
      <trkpt lat="46.29798" lon="-0.43231">
        <ele>33</ele>
        <time>2016-11-08T14:34:58Z</time>
      </trkpt>
      <trkpt lat="46.298" lon="-0.43237">
        <ele>33</ele>
        <time>2016-11-08T14:35:03Z</time>
      </trkpt>
      <trkpt lat="46.29803" lon="-0.43244">
        <ele>33</ele>
        <time>2016-11-08T14:35:08Z</time>
      </trkpt>
      <trkpt lat="46.29805" lon="-0.43254">
        <ele>33</ele>
        <time>2016-11-08T14:35:13Z</time>
      </trkpt>
      <trkpt lat="46.29808" lon="-0.4326">
        <ele>33</ele>
        <time>2016-11-08T14:35:18Z</time>
      </trkpt>
      <trkpt lat="46.2981" lon="-0.43268">
        <ele>33</ele>
        <time>2016-11-08T14:35:23Z</time>
      </trkpt>
      <trkpt lat="46.29813" lon="-0.43277">
        <ele>33</ele>
        <time>2016-11-08T14:35:28Z</time>
      </trkpt>
      <trkpt lat="46.29817" lon="-0.43284">
        <ele>33</ele>
        <time>2016-11-08T14:35:33Z</time>
      </trkpt>
      <trkpt lat="46.29821" lon="-0.43292">
        <ele>29</ele>
        <time>2016-11-08T14:35:38Z</time>
      </trkpt>
      <trkpt lat="46.29825" lon="-0.43299">
        <ele>29</ele>
        <time>2016-11-08T14:35:43Z</time>
      </trkpt>
      <trkpt lat="46.29828" lon="-0.43308">
        <ele>29</ele>
        <time>2016-11-08T14:35:48Z</time>
      </trkpt>
      <trkpt lat="46.29833" lon="-0.43315">
        <ele>29</ele>
        <time>2016-11-08T14:35:53Z</time>
      </trkpt>
      <trkpt lat="46.29836" lon="-0.43324">
        <ele>29</ele>
        <time>2016-11-08T14:35:58Z</time>
      </trkpt>
      <trkpt lat="46.2984" lon="-0.4333">
        <ele>29</ele>
        <time>2016-11-08T14:36:03Z</time>
      </trkpt>
      <trkpt lat="46.29842" lon="-0.43336">
        <ele>29</ele>
        <time>2016-11-08T14:36:08Z</time>
      </trkpt>
      <trkpt lat="46.29844" lon="-0.43342">
        <ele>29</ele>
        <time>2016-11-08T14:36:13Z</time>
      </trkpt>
      <trkpt lat="46.29846" lon="-0.43351">
        <ele>29</ele>
        <time>2016-11-08T14:36:18Z</time>
      </trkpt>
      <trkpt lat="46.29849" lon="-0.43358">
        <ele>29</ele>
        <time>2016-11-08T14:36:23Z</time>
      </trkpt>
      <trkpt lat="46.29851" lon="-0.43365">
        <ele>29</ele>
        <time>2016-11-08T14:36:28Z</time>
      </trkpt>
      <trkpt lat="46.29854" lon="-0.43372">
        <ele>29</ele>
        <time>2016-11-08T14:36:33Z</time>
      </trkpt>
      <trkpt lat="46.29856" lon="-0.43381">
        <ele>27</ele>
        <time>2016-11-08T14:36:38Z</time>
      </trkpt>
      <trkpt lat="46.29859" lon="-0.43387">
        <ele>27</ele>
        <time>2016-11-08T14:36:43Z</time>
      </trkpt>
      <trkpt lat="46.29864" lon="-0.43394">
        <ele>27</ele>
        <time>2016-11-08T14:36:48Z</time>
      </trkpt>
      <trkpt lat="46.29868" lon="-0.43401">
        <ele>27</ele>
        <time>2016-11-08T14:36:53Z</time>
      </trkpt>
      <trkpt lat="46.2987" lon="-0.43409">
        <ele>27</ele>
        <time>2016-11-08T14:36:58Z</time>
      </trkpt>
      <trkpt lat="46.29875" lon="-0.43416">
        <ele>27</ele>
        <time>2016-11-08T14:37:03Z</time>
      </trkpt>
      <trkpt lat="46.29877" lon="-0.43424">
        <ele>25</ele>
        <time>2016-11-08T14:37:08Z</time>
      </trkpt>
      <trkpt lat="46.29879" lon="-0.43432">
        <ele>25</ele>
        <time>2016-11-08T14:37:13Z</time>
      </trkpt>
      <trkpt lat="46.29882" lon="-0.43439">
        <ele>25</ele>
        <time>2016-11-08T14:37:18Z</time>
      </trkpt>
      <trkpt lat="46.29883" lon="-0.43446">
        <ele>25</ele>
        <time>2016-11-08T14:37:23Z</time>
      </trkpt>
      <trkpt lat="46.29886" lon="-0.43451">
        <ele>25</ele>
        <time>2016-11-08T14:37:28Z</time>
      </trkpt>
      <trkpt lat="46.29889" lon="-0.43458">
        <ele>25</ele>
        <time>2016-11-08T14:37:33Z</time>
      </trkpt>
      <trkpt lat="46.2989" lon="-0.43467">
        <ele>24</ele>
        <time>2016-11-08T14:37:38Z</time>
      </trkpt>
      <trkpt lat="46.29893" lon="-0.43476">
        <ele>24</ele>
        <time>2016-11-08T14:37:43Z</time>
      </trkpt>
      <trkpt lat="46.29895" lon="-0.43484">
        <ele>24</ele>
        <time>2016-11-08T14:37:48Z</time>
      </trkpt>
      <trkpt lat="46.29899" lon="-0.4349">
        <ele>24</ele>
        <time>2016-11-08T14:37:53Z</time>
      </trkpt>
      <trkpt lat="46.299" lon="-0.43497">
        <ele>24</ele>
        <time>2016-11-08T14:37:58Z</time>
      </trkpt>
      <trkpt lat="46.29904" lon="-0.43505">
        <ele>24</ele>
        <time>2016-11-08T14:38:03Z</time>
      </trkpt>
      <trkpt lat="46.29908" lon="-0.43512">
        <ele>24</ele>
        <time>2016-11-08T14:38:08Z</time>
      </trkpt>
      <trkpt lat="46.29912" lon="-0.43517">
        <ele>24</ele>
        <time>2016-11-08T14:38:13Z</time>
      </trkpt>
      <trkpt lat="46.29915" lon="-0.43523">
        <ele>24</ele>
        <time>2016-11-08T14:38:18Z</time>
      </trkpt>
      <trkpt lat="46.29918" lon="-0.43528">
        <ele>24</ele>
        <time>2016-11-08T14:38:23Z</time>
      </trkpt>
      <trkpt lat="46.29923" lon="-0.43545">
        <ele>21</ele>
        <time>2016-11-08T14:38:28Z</time>
      </trkpt>
      <trkpt lat="46.29926" lon="-0.43556">
        <ele>21</ele>
        <time>2016-11-08T14:38:33Z</time>
      </trkpt>
      <trkpt lat="46.29929" lon="-0.43565">
        <ele>21</ele>
        <time>2016-11-08T14:38:38Z</time>
      </trkpt>
      <trkpt lat="46.29932" lon="-0.43575">
        <ele>21</ele>
        <time>2016-11-08T14:38:43Z</time>
      </trkpt>
      <trkpt lat="46.29935" lon="-0.43584">
        <ele>21</ele>
        <time>2016-11-08T14:38:48Z</time>
      </trkpt>
      <trkpt lat="46.29938" lon="-0.43593">
        <ele>21</ele>
        <time>2016-11-08T14:38:53Z</time>
      </trkpt>
      <trkpt lat="46.29941" lon="-0.436">
        <ele>21</ele>
        <time>2016-11-08T14:38:58Z</time>
      </trkpt>
      <trkpt lat="46.29945" lon="-0.43608">
        <ele>21</ele>
        <time>2016-11-08T14:39:03Z</time>
      </trkpt>
      <trkpt lat="46.29948" lon="-0.43615">
        <ele>21</ele>
        <time>2016-11-08T14:39:08Z</time>
      </trkpt>
      <trkpt lat="46.29951" lon="-0.43622">
        <ele>21</ele>
        <time>2016-11-08T14:39:13Z</time>
      </trkpt>
      <trkpt lat="46.29954" lon="-0.43629">
        <ele>22</ele>
        <time>2016-11-08T14:39:18Z</time>
      </trkpt>
      <trkpt lat="46.29956" lon="-0.43634">
        <ele>22</ele>
        <time>2016-11-08T14:39:23Z</time>
      </trkpt>
      <trkpt lat="46.29959" lon="-0.4364">
        <ele>25</ele>
        <time>2016-11-08T14:39:28Z</time>
      </trkpt>
      <trkpt lat="46.29962" lon="-0.43647">
        <ele>25</ele>
        <time>2016-11-08T14:39:33Z</time>
      </trkpt>
      <trkpt lat="46.29964" lon="-0.43653">
        <ele>25</ele>
        <time>2016-11-08T14:39:38Z</time>
      </trkpt>
      <trkpt lat="46.29968" lon="-0.43661">
        <ele>25</ele>
        <time>2016-11-08T14:39:43Z</time>
      </trkpt>
      <trkpt lat="46.29971" lon="-0.43668">
        <ele>25</ele>
        <time>2016-11-08T14:39:48Z</time>
      </trkpt>
      <trkpt lat="46.29975" lon="-0.43675">
        <ele>25</ele>
        <time>2016-11-08T14:39:53Z</time>
      </trkpt>
      <trkpt lat="46.29978" lon="-0.43682">
        <ele>25</ele>
        <time>2016-11-08T14:39:58Z</time>
      </trkpt>
      <trkpt lat="46.2998" lon="-0.43688">
        <ele>25</ele>
        <time>2016-11-08T14:40:03Z</time>
      </trkpt>
      <trkpt lat="46.2998" lon="-0.43691">
        <ele>25</ele>
        <time>2016-11-08T14:40:08Z</time>
      </trkpt>
      <trkpt lat="46.2998" lon="-0.43692">
        <ele>25</ele>
        <time>2016-11-08T14:40:23Z</time>
      </trkpt>
      <trkpt lat="46.29979" lon="-0.43698">
        <ele>25</ele>
        <time>2016-11-08T14:41:03Z</time>
      </trkpt>
      <trkpt lat="46.29978" lon="-0.43702">
        <ele>25</ele>
        <time>2016-11-08T14:41:08Z</time>
      </trkpt>
      <trkpt lat="46.29976" lon="-0.43706">
        <ele>25</ele>
        <time>2016-11-08T14:41:13Z</time>
      </trkpt>
      <trkpt lat="46.29974" lon="-0.43708">
        <ele>25</ele>
        <time>2016-11-08T14:41:18Z</time>
      </trkpt>
      <trkpt lat="46.29971" lon="-0.43711">
        <ele>23</ele>
        <time>2016-11-08T14:41:23Z</time>
      </trkpt>
      <trkpt lat="46.29969" lon="-0.43714">
        <ele>23</ele>
        <time>2016-11-08T14:41:28Z</time>
      </trkpt>
      <trkpt lat="46.29965" lon="-0.43717">
        <ele>23</ele>
        <time>2016-11-08T14:41:33Z</time>
      </trkpt>
      <trkpt lat="46.29961" lon="-0.43721">
        <ele>23</ele>
        <time>2016-11-08T14:41:38Z</time>
      </trkpt>
      <trkpt lat="46.29957" lon="-0.43724">
        <ele>21</ele>
        <time>2016-11-08T14:41:43Z</time>
      </trkpt>
      <trkpt lat="46.29954" lon="-0.43728">
        <ele>21</ele>
        <time>2016-11-08T14:41:48Z</time>
      </trkpt>
      <trkpt lat="46.29948" lon="-0.43732">
        <ele>21</ele>
        <time>2016-11-08T14:41:53Z</time>
      </trkpt>
      <trkpt lat="46.29945" lon="-0.43735">
        <ele>21</ele>
        <time>2016-11-08T14:41:58Z</time>
      </trkpt>
      <trkpt lat="46.2994" lon="-0.43739">
        <ele>21</ele>
        <time>2016-11-08T14:42:03Z</time>
      </trkpt>
      <trkpt lat="46.29935" lon="-0.43744">
        <ele>21</ele>
        <time>2016-11-08T14:42:08Z</time>
      </trkpt>
      <trkpt lat="46.2993" lon="-0.43747">
        <ele>21</ele>
        <time>2016-11-08T14:42:13Z</time>
      </trkpt>
      <trkpt lat="46.29926" lon="-0.43751">
        <ele>21</ele>
        <time>2016-11-08T14:42:18Z</time>
      </trkpt>
      <trkpt lat="46.29921" lon="-0.43755">
        <ele>21</ele>
        <time>2016-11-08T14:42:23Z</time>
      </trkpt>
      <trkpt lat="46.29916" lon="-0.43758">
        <ele>21</ele>
        <time>2016-11-08T14:42:28Z</time>
      </trkpt>
      <trkpt lat="46.29912" lon="-0.43761">
        <ele>21</ele>
        <time>2016-11-08T14:42:33Z</time>
      </trkpt>
      <trkpt lat="46.29907" lon="-0.43764">
        <ele>21</ele>
        <time>2016-11-08T14:42:38Z</time>
      </trkpt>
      <trkpt lat="46.29902" lon="-0.43764">
        <ele>21</ele>
        <time>2016-11-08T14:42:43Z</time>
      </trkpt>
      <trkpt lat="46.29896" lon="-0.43766">
        <ele>21</ele>
        <time>2016-11-08T14:42:48Z</time>
      </trkpt>
      <trkpt lat="46.2989" lon="-0.43766">
        <ele>21</ele>
        <time>2016-11-08T14:42:53Z</time>
      </trkpt>
      <trkpt lat="46.29885" lon="-0.43766">
        <ele>21</ele>
        <time>2016-11-08T14:42:58Z</time>
      </trkpt>
      <trkpt lat="46.2988" lon="-0.43766">
        <ele>21</ele>
        <time>2016-11-08T14:43:03Z</time>
      </trkpt>
      <trkpt lat="46.29875" lon="-0.43766">
        <ele>21</ele>
        <time>2016-11-08T14:43:08Z</time>
      </trkpt>
      <trkpt lat="46.29871" lon="-0.43767">
        <ele>19</ele>
        <time>2016-11-08T14:43:13Z</time>
      </trkpt>
      <trkpt lat="46.29865" lon="-0.43765">
        <ele>19</ele>
        <time>2016-11-08T14:43:18Z</time>
      </trkpt>
      <trkpt lat="46.29858" lon="-0.43764">
        <ele>19</ele>
        <time>2016-11-08T14:43:23Z</time>
      </trkpt>
      <trkpt lat="46.29853" lon="-0.43763">
        <ele>19</ele>
        <time>2016-11-08T14:43:28Z</time>
      </trkpt>
      <trkpt lat="46.29848" lon="-0.43763">
        <ele>19</ele>
        <time>2016-11-08T14:43:33Z</time>
      </trkpt>
      <trkpt lat="46.29843" lon="-0.43765">
        <ele>19</ele>
        <time>2016-11-08T14:43:38Z</time>
      </trkpt>
      <trkpt lat="46.29838" lon="-0.43766">
        <ele>19</ele>
        <time>2016-11-08T14:43:43Z</time>
      </trkpt>
      <trkpt lat="46.29833" lon="-0.43765">
        <ele>19</ele>
        <time>2016-11-08T14:43:48Z</time>
      </trkpt>
      <trkpt lat="46.2983" lon="-0.43764">
        <ele>19</ele>
        <time>2016-11-08T14:43:53Z</time>
      </trkpt>
      <trkpt lat="46.29824" lon="-0.43766">
        <ele>19</ele>
        <time>2016-11-08T14:43:58Z</time>
      </trkpt>
      <trkpt lat="46.29821" lon="-0.43767">
        <ele>19</ele>
        <time>2016-11-08T14:44:03Z</time>
      </trkpt>
      <trkpt lat="46.29815" lon="-0.4377">
        <ele>19</ele>
        <time>2016-11-08T14:44:08Z</time>
      </trkpt>
      <trkpt lat="46.29806" lon="-0.43773">
        <ele>19</ele>
        <time>2016-11-08T14:44:13Z</time>
      </trkpt>
      <trkpt lat="46.29801" lon="-0.43779">
        <ele>19</ele>
        <time>2016-11-08T14:44:18Z</time>
      </trkpt>
      <trkpt lat="46.29795" lon="-0.43781">
        <ele>19</ele>
        <time>2016-11-08T14:44:23Z</time>
      </trkpt>
      <trkpt lat="46.2979" lon="-0.43784">
        <ele>20</ele>
        <time>2016-11-08T14:44:28Z</time>
      </trkpt>
      <trkpt lat="46.29784" lon="-0.43788">
        <ele>20</ele>
        <time>2016-11-08T14:44:33Z</time>
      </trkpt>
      <trkpt lat="46.29779" lon="-0.4379">
        <ele>20</ele>
        <time>2016-11-08T14:44:38Z</time>
      </trkpt>
      <trkpt lat="46.29773" lon="-0.43793">
        <ele>17</ele>
        <time>2016-11-08T14:44:43Z</time>
      </trkpt>
      <trkpt lat="46.29768" lon="-0.43797">
        <ele>17</ele>
        <time>2016-11-08T14:44:48Z</time>
      </trkpt>
      <trkpt lat="46.29761" lon="-0.43801">
        <ele>17</ele>
        <time>2016-11-08T14:44:53Z</time>
      </trkpt>
      <trkpt lat="46.29756" lon="-0.43806">
        <ele>17</ele>
        <time>2016-11-08T14:44:58Z</time>
      </trkpt>
      <trkpt lat="46.2975" lon="-0.43808">
        <ele>17</ele>
        <time>2016-11-08T14:45:03Z</time>
      </trkpt>
      <trkpt lat="46.29745" lon="-0.43812">
        <ele>17</ele>
        <time>2016-11-08T14:45:08Z</time>
      </trkpt>
      <trkpt lat="46.29741" lon="-0.43815">
        <ele>17</ele>
        <time>2016-11-08T14:45:13Z</time>
      </trkpt>
      <trkpt lat="46.29735" lon="-0.43818">
        <ele>17</ele>
        <time>2016-11-08T14:45:18Z</time>
      </trkpt>
      <trkpt lat="46.29729" lon="-0.43822">
        <ele>17</ele>
        <time>2016-11-08T14:45:23Z</time>
      </trkpt>
      <trkpt lat="46.29725" lon="-0.43826">
        <ele>17</ele>
        <time>2016-11-08T14:45:28Z</time>
      </trkpt>
      <trkpt lat="46.29719" lon="-0.43829">
        <ele>17</ele>
        <time>2016-11-08T14:45:33Z</time>
      </trkpt>
      <trkpt lat="46.29714" lon="-0.43834">
        <ele>17</ele>
        <time>2016-11-08T14:45:38Z</time>
      </trkpt>
      <trkpt lat="46.29709" lon="-0.43838">
        <ele>17</ele>
        <time>2016-11-08T14:45:43Z</time>
      </trkpt>
      <trkpt lat="46.29704" lon="-0.43841">
        <ele>17</ele>
        <time>2016-11-08T14:45:48Z</time>
      </trkpt>
      <trkpt lat="46.29699" lon="-0.43845">
        <ele>17</ele>
        <time>2016-11-08T14:45:53Z</time>
      </trkpt>
      <trkpt lat="46.29695" lon="-0.43849">
        <ele>17</ele>
        <time>2016-11-08T14:45:58Z</time>
      </trkpt>
      <trkpt lat="46.29689" lon="-0.43852">
        <ele>17</ele>
        <time>2016-11-08T14:46:03Z</time>
      </trkpt>
      <trkpt lat="46.29685" lon="-0.43855">
        <ele>17</ele>
        <time>2016-11-08T14:46:08Z</time>
      </trkpt>
      <trkpt lat="46.29683" lon="-0.43859">
        <ele>17</ele>
        <time>2016-11-08T14:46:13Z</time>
      </trkpt>
      <trkpt lat="46.29682" lon="-0.43864">
        <ele>17</ele>
        <time>2016-11-08T14:46:18Z</time>
      </trkpt>
      <trkpt lat="46.29683" lon="-0.43869">
        <ele>17</ele>
        <time>2016-11-08T14:46:23Z</time>
      </trkpt>
      <trkpt lat="46.29683" lon="-0.43874">
        <ele>17</ele>
        <time>2016-11-08T14:46:28Z</time>
      </trkpt>
      <trkpt lat="46.29685" lon="-0.43879">
        <ele>18</ele>
        <time>2016-11-08T14:46:33Z</time>
      </trkpt>
      <trkpt lat="46.29684" lon="-0.43884">
        <ele>18</ele>
        <time>2016-11-08T14:46:38Z</time>
      </trkpt>
      <trkpt lat="46.29684" lon="-0.4389">
        <ele>18</ele>
        <time>2016-11-08T14:46:43Z</time>
      </trkpt>
      <trkpt lat="46.29686" lon="-0.43893">
        <ele>18</ele>
        <time>2016-11-08T14:46:48Z</time>
      </trkpt>
      <trkpt lat="46.29688" lon="-0.43899">
        <ele>18</ele>
        <time>2016-11-08T14:46:53Z</time>
      </trkpt>
      <trkpt lat="46.29689" lon="-0.43905">
        <ele>18</ele>
        <time>2016-11-08T14:46:58Z</time>
      </trkpt>
      <trkpt lat="46.29691" lon="-0.43913">
        <ele>18</ele>
        <time>2016-11-08T14:47:03Z</time>
      </trkpt>
      <trkpt lat="46.29692" lon="-0.43921">
        <ele>18</ele>
        <time>2016-11-08T14:47:08Z</time>
      </trkpt>
      <trkpt lat="46.29695" lon="-0.43929">
        <ele>18</ele>
        <time>2016-11-08T14:47:13Z</time>
      </trkpt>
      <trkpt lat="46.29697" lon="-0.43937">
        <ele>18</ele>
        <time>2016-11-08T14:47:18Z</time>
      </trkpt>
      <trkpt lat="46.297" lon="-0.43944">
        <ele>18</ele>
        <time>2016-11-08T14:47:23Z</time>
      </trkpt>
      <trkpt lat="46.29704" lon="-0.43951">
        <ele>18</ele>
        <time>2016-11-08T14:47:28Z</time>
      </trkpt>
      <trkpt lat="46.2971" lon="-0.43958">
        <ele>17</ele>
        <time>2016-11-08T14:47:33Z</time>
      </trkpt>
      <trkpt lat="46.29713" lon="-0.43964">
        <ele>20</ele>
        <time>2016-11-08T14:47:38Z</time>
      </trkpt>
      <trkpt lat="46.29717" lon="-0.43969">
        <ele>20</ele>
        <time>2016-11-08T14:47:43Z</time>
      </trkpt>
      <trkpt lat="46.29722" lon="-0.43974">
        <ele>20</ele>
        <time>2016-11-08T14:47:48Z</time>
      </trkpt>
      <trkpt lat="46.29725" lon="-0.43978">
        <ele>20</ele>
        <time>2016-11-08T14:47:53Z</time>
      </trkpt>
      <trkpt lat="46.2973" lon="-0.43982">
        <ele>20</ele>
        <time>2016-11-08T14:47:58Z</time>
      </trkpt>
      <trkpt lat="46.29733" lon="-0.43986">
        <ele>20</ele>
        <time>2016-11-08T14:48:03Z</time>
      </trkpt>
      <trkpt lat="46.29737" lon="-0.43991">
        <ele>20</ele>
        <time>2016-11-08T14:48:08Z</time>
      </trkpt>
      <trkpt lat="46.29741" lon="-0.43997">
        <ele>20</ele>
        <time>2016-11-08T14:48:13Z</time>
      </trkpt>
      <trkpt lat="46.29744" lon="-0.44003">
        <ele>20</ele>
        <time>2016-11-08T14:48:18Z</time>
      </trkpt>
      <trkpt lat="46.29748" lon="-0.44009">
        <ele>20</ele>
        <time>2016-11-08T14:48:23Z</time>
      </trkpt>
      <trkpt lat="46.29751" lon="-0.44017">
        <ele>20</ele>
        <time>2016-11-08T14:48:28Z</time>
      </trkpt>
      <trkpt lat="46.29754" lon="-0.44023">
        <ele>20</ele>
        <time>2016-11-08T14:48:33Z</time>
      </trkpt>
      <trkpt lat="46.29758" lon="-0.44029">
        <ele>20</ele>
        <time>2016-11-08T14:48:38Z</time>
      </trkpt>
      <trkpt lat="46.29763" lon="-0.44032">
        <ele>20</ele>
        <time>2016-11-08T14:48:43Z</time>
      </trkpt>
      <trkpt lat="46.29769" lon="-0.44037">
        <ele>20</ele>
        <time>2016-11-08T14:48:48Z</time>
      </trkpt>
      <trkpt lat="46.29773" lon="-0.44043">
        <ele>19</ele>
        <time>2016-11-08T14:48:53Z</time>
      </trkpt>
      <trkpt lat="46.29777" lon="-0.4405">
        <ele>19</ele>
        <time>2016-11-08T14:48:58Z</time>
      </trkpt>
      <trkpt lat="46.2978" lon="-0.44056">
        <ele>19</ele>
        <time>2016-11-08T14:49:03Z</time>
      </trkpt>
      <trkpt lat="46.29784" lon="-0.44061">
        <ele>19</ele>
        <time>2016-11-08T14:49:08Z</time>
      </trkpt>
      <trkpt lat="46.29789" lon="-0.44066">
        <ele>19</ele>
        <time>2016-11-08T14:49:13Z</time>
      </trkpt>
      <trkpt lat="46.29794" lon="-0.44071">
        <ele>18</ele>
        <time>2016-11-08T14:49:18Z</time>
      </trkpt>
      <trkpt lat="46.29798" lon="-0.44075">
        <ele>18</ele>
        <time>2016-11-08T14:49:23Z</time>
      </trkpt>
      <trkpt lat="46.29804" lon="-0.4408">
        <ele>18</ele>
        <time>2016-11-08T14:49:28Z</time>
      </trkpt>
      <trkpt lat="46.29812" lon="-0.44086">
        <ele>18</ele>
        <time>2016-11-08T14:49:33Z</time>
      </trkpt>
      <trkpt lat="46.29819" lon="-0.44095">
        <ele>18</ele>
        <time>2016-11-08T14:49:38Z</time>
      </trkpt>
      <trkpt lat="46.29825" lon="-0.44101">
        <ele>18</ele>
        <time>2016-11-08T14:49:43Z</time>
      </trkpt>
      <trkpt lat="46.29829" lon="-0.44106">
        <ele>18</ele>
        <time>2016-11-08T14:49:48Z</time>
      </trkpt>
      <trkpt lat="46.29834" lon="-0.44112">
        <ele>18</ele>
        <time>2016-11-08T14:49:53Z</time>
      </trkpt>
      <trkpt lat="46.29837" lon="-0.44117">
        <ele>18</ele>
        <time>2016-11-08T14:49:58Z</time>
      </trkpt>
      <trkpt lat="46.29842" lon="-0.44122">
        <ele>18</ele>
        <time>2016-11-08T14:50:03Z</time>
      </trkpt>
      <trkpt lat="46.29845" lon="-0.44125">
        <ele>18</ele>
        <time>2016-11-08T14:50:08Z</time>
      </trkpt>
      <trkpt lat="46.29848" lon="-0.44129">
        <ele>17</ele>
        <time>2016-11-08T14:50:13Z</time>
      </trkpt>
      <trkpt lat="46.2985" lon="-0.4414">
        <ele>17</ele>
        <time>2016-11-08T14:50:18Z</time>
      </trkpt>
      <trkpt lat="46.29854" lon="-0.44148">
        <ele>17</ele>
        <time>2016-11-08T14:50:23Z</time>
      </trkpt>
      <trkpt lat="46.2986" lon="-0.44156">
        <ele>17</ele>
        <time>2016-11-08T14:50:28Z</time>
      </trkpt>
      <trkpt lat="46.29865" lon="-0.44162">
        <ele>17</ele>
        <time>2016-11-08T14:50:33Z</time>
      </trkpt>
      <trkpt lat="46.2987" lon="-0.44166">
        <ele>17</ele>
        <time>2016-11-08T14:50:38Z</time>
      </trkpt>
      <trkpt lat="46.29874" lon="-0.44172">
        <ele>17</ele>
        <time>2016-11-08T14:50:43Z</time>
      </trkpt>
      <trkpt lat="46.29879" lon="-0.44178">
        <ele>18</ele>
        <time>2016-11-08T14:50:48Z</time>
      </trkpt>
      <trkpt lat="46.29883" lon="-0.44182">
        <ele>18</ele>
        <time>2016-11-08T14:50:53Z</time>
      </trkpt>
      <trkpt lat="46.29887" lon="-0.44186">
        <ele>18</ele>
        <time>2016-11-08T14:50:58Z</time>
      </trkpt>
      <trkpt lat="46.29891" lon="-0.4419">
        <ele>18</ele>
        <time>2016-11-08T14:51:03Z</time>
      </trkpt>
      <trkpt lat="46.29895" lon="-0.44193">
        <ele>18</ele>
        <time>2016-11-08T14:51:08Z</time>
      </trkpt>
      <trkpt lat="46.299" lon="-0.44197">
        <ele>18</ele>
        <time>2016-11-08T14:51:13Z</time>
      </trkpt>
      <trkpt lat="46.29905" lon="-0.44203">
        <ele>18</ele>
        <time>2016-11-08T14:51:18Z</time>
      </trkpt>
      <trkpt lat="46.2991" lon="-0.44208">
        <ele>18</ele>
        <time>2016-11-08T14:51:23Z</time>
      </trkpt>
      <trkpt lat="46.29914" lon="-0.44215">
        <ele>17</ele>
        <time>2016-11-08T14:51:28Z</time>
      </trkpt>
      <trkpt lat="46.29918" lon="-0.44219">
        <ele>17</ele>
        <time>2016-11-08T14:51:33Z</time>
      </trkpt>
      <trkpt lat="46.29922" lon="-0.44223">
        <ele>17</ele>
        <time>2016-11-08T14:51:38Z</time>
      </trkpt>
      <trkpt lat="46.29926" lon="-0.44228">
        <ele>17</ele>
        <time>2016-11-08T14:51:43Z</time>
      </trkpt>
      <trkpt lat="46.29929" lon="-0.44235">
        <ele>17</ele>
        <time>2016-11-08T14:51:48Z</time>
      </trkpt>
      <trkpt lat="46.29934" lon="-0.44241">
        <ele>17</ele>
        <time>2016-11-08T14:51:53Z</time>
      </trkpt>
      <trkpt lat="46.29938" lon="-0.44247">
        <ele>17</ele>
        <time>2016-11-08T14:51:58Z</time>
      </trkpt>
      <trkpt lat="46.29942" lon="-0.44252">
        <ele>17</ele>
        <time>2016-11-08T14:52:03Z</time>
      </trkpt>
      <trkpt lat="46.29946" lon="-0.44258">
        <ele>17</ele>
        <time>2016-11-08T14:52:08Z</time>
      </trkpt>
      <trkpt lat="46.29949" lon="-0.44264">
        <ele>17</ele>
        <time>2016-11-08T14:52:13Z</time>
      </trkpt>
      <trkpt lat="46.29955" lon="-0.44268">
        <ele>17</ele>
        <time>2016-11-08T14:52:18Z</time>
      </trkpt>
      <trkpt lat="46.29959" lon="-0.44273">
        <ele>15</ele>
        <time>2016-11-08T14:52:23Z</time>
      </trkpt>
      <trkpt lat="46.29962" lon="-0.44279">
        <ele>15</ele>
        <time>2016-11-08T14:52:28Z</time>
      </trkpt>
      <trkpt lat="46.29966" lon="-0.44284">
        <ele>15</ele>
        <time>2016-11-08T14:52:33Z</time>
      </trkpt>
      <trkpt lat="46.29972" lon="-0.44291">
        <ele>15</ele>
        <time>2016-11-08T14:52:38Z</time>
      </trkpt>
      <trkpt lat="46.29978" lon="-0.44301">
        <ele>16</ele>
        <time>2016-11-08T14:52:43Z</time>
      </trkpt>
      <trkpt lat="46.29984" lon="-0.44308">
        <ele>16</ele>
        <time>2016-11-08T14:52:48Z</time>
      </trkpt>
      <trkpt lat="46.2999" lon="-0.44314">
        <ele>16</ele>
        <time>2016-11-08T14:52:53Z</time>
      </trkpt>
      <trkpt lat="46.29995" lon="-0.4432">
        <ele>16</ele>
        <time>2016-11-08T14:52:58Z</time>
      </trkpt>
      <trkpt lat="46.30001" lon="-0.44327">
        <ele>16</ele>
        <time>2016-11-08T14:53:03Z</time>
      </trkpt>
      <trkpt lat="46.30006" lon="-0.44332">
        <ele>16</ele>
        <time>2016-11-08T14:53:08Z</time>
      </trkpt>
      <trkpt lat="46.30011" lon="-0.44337">
        <ele>16</ele>
        <time>2016-11-08T14:53:13Z</time>
      </trkpt>
      <trkpt lat="46.30016" lon="-0.44341">
        <ele>16</ele>
        <time>2016-11-08T14:53:18Z</time>
      </trkpt>
      <trkpt lat="46.30021" lon="-0.44343">
        <ele>16</ele>
        <time>2016-11-08T14:53:23Z</time>
      </trkpt>
      <trkpt lat="46.30023" lon="-0.44345">
        <ele>16</ele>
        <time>2016-11-08T14:53:28Z</time>
      </trkpt>
      <trkpt lat="46.30027" lon="-0.44345">
        <ele>16</ele>
        <time>2016-11-08T14:53:33Z</time>
      </trkpt>
      <trkpt lat="46.30032" lon="-0.44342">
        <ele>16</ele>
        <time>2016-11-08T14:53:38Z</time>
      </trkpt>
      <trkpt lat="46.30037" lon="-0.4434">
        <ele>16</ele>
        <time>2016-11-08T14:53:43Z</time>
      </trkpt>
      <trkpt lat="46.30043" lon="-0.44337">
        <ele>17</ele>
        <time>2016-11-08T14:53:48Z</time>
      </trkpt>
      <trkpt lat="46.30048" lon="-0.44334">
        <ele>17</ele>
        <time>2016-11-08T14:53:53Z</time>
      </trkpt>
      <trkpt lat="46.30053" lon="-0.44331">
        <ele>17</ele>
        <time>2016-11-08T14:53:58Z</time>
      </trkpt>
      <trkpt lat="46.30058" lon="-0.44328">
        <ele>17</ele>
        <time>2016-11-08T14:54:03Z</time>
      </trkpt>
      <trkpt lat="46.30062" lon="-0.44325">
        <ele>17</ele>
        <time>2016-11-08T14:54:08Z</time>
      </trkpt>
      <trkpt lat="46.30068" lon="-0.44323">
        <ele>17</ele>
        <time>2016-11-08T14:54:13Z</time>
      </trkpt>
      <trkpt lat="46.30073" lon="-0.4432">
        <ele>17</ele>
        <time>2016-11-08T14:54:18Z</time>
      </trkpt>
      <trkpt lat="46.30079" lon="-0.44317">
        <ele>17</ele>
        <time>2016-11-08T14:54:23Z</time>
      </trkpt>
      <trkpt lat="46.30084" lon="-0.44315">
        <ele>17</ele>
        <time>2016-11-08T14:54:28Z</time>
      </trkpt>
      <trkpt lat="46.3009" lon="-0.44312">
        <ele>17</ele>
        <time>2016-11-08T14:54:33Z</time>
      </trkpt>
      <trkpt lat="46.30096" lon="-0.44309">
        <ele>17</ele>
        <time>2016-11-08T14:54:38Z</time>
      </trkpt>
      <trkpt lat="46.30101" lon="-0.44306">
        <ele>17</ele>
        <time>2016-11-08T14:54:43Z</time>
      </trkpt>
      <trkpt lat="46.30106" lon="-0.44304">
        <ele>17</ele>
        <time>2016-11-08T14:54:48Z</time>
      </trkpt>
      <trkpt lat="46.30112" lon="-0.44303">
        <ele>17</ele>
        <time>2016-11-08T14:54:53Z</time>
      </trkpt>
      <trkpt lat="46.30117" lon="-0.44301">
        <ele>17</ele>
        <time>2016-11-08T14:54:58Z</time>
      </trkpt>
      <trkpt lat="46.30123" lon="-0.44299">
        <ele>17</ele>
        <time>2016-11-08T14:55:03Z</time>
      </trkpt>
      <trkpt lat="46.30128" lon="-0.44296">
        <ele>16</ele>
        <time>2016-11-08T14:55:08Z</time>
      </trkpt>
      <trkpt lat="46.30134" lon="-0.44293">
        <ele>16</ele>
        <time>2016-11-08T14:55:13Z</time>
      </trkpt>
      <trkpt lat="46.30139" lon="-0.44291">
        <ele>18</ele>
        <time>2016-11-08T14:55:18Z</time>
      </trkpt>
      <trkpt lat="46.30144" lon="-0.44288">
        <ele>18</ele>
        <time>2016-11-08T14:55:23Z</time>
      </trkpt>
      <trkpt lat="46.3015" lon="-0.44285">
        <ele>18</ele>
        <time>2016-11-08T14:55:28Z</time>
      </trkpt>
      <trkpt lat="46.30155" lon="-0.44282">
        <ele>18</ele>
        <time>2016-11-08T14:55:33Z</time>
      </trkpt>
      <trkpt lat="46.3016" lon="-0.44279">
        <ele>18</ele>
        <time>2016-11-08T14:55:38Z</time>
      </trkpt>
      <trkpt lat="46.30164" lon="-0.44276">
        <ele>18</ele>
        <time>2016-11-08T14:55:43Z</time>
      </trkpt>
      <trkpt lat="46.3017" lon="-0.44273">
        <ele>18</ele>
        <time>2016-11-08T14:55:48Z</time>
      </trkpt>
      <trkpt lat="46.30175" lon="-0.44269">
        <ele>18</ele>
        <time>2016-11-08T14:55:53Z</time>
      </trkpt>
      <trkpt lat="46.30181" lon="-0.44266">
        <ele>18</ele>
        <time>2016-11-08T14:55:58Z</time>
      </trkpt>
      <trkpt lat="46.30186" lon="-0.44263">
        <ele>18</ele>
        <time>2016-11-08T14:56:03Z</time>
      </trkpt>
      <trkpt lat="46.30192" lon="-0.4426">
        <ele>18</ele>
        <time>2016-11-08T14:56:08Z</time>
      </trkpt>
      <trkpt lat="46.30197" lon="-0.44256">
        <ele>18</ele>
        <time>2016-11-08T14:56:13Z</time>
      </trkpt>
      <trkpt lat="46.30202" lon="-0.44253">
        <ele>18</ele>
        <time>2016-11-08T14:56:18Z</time>
      </trkpt>
      <trkpt lat="46.30207" lon="-0.4425">
        <ele>18</ele>
        <time>2016-11-08T14:56:23Z</time>
      </trkpt>
      <trkpt lat="46.30212" lon="-0.44247">
        <ele>18</ele>
        <time>2016-11-08T14:56:28Z</time>
      </trkpt>
      <trkpt lat="46.30218" lon="-0.44244">
        <ele>18</ele>
        <time>2016-11-08T14:56:33Z</time>
      </trkpt>
      <trkpt lat="46.30223" lon="-0.44241">
        <ele>18</ele>
        <time>2016-11-08T14:56:38Z</time>
      </trkpt>
      <trkpt lat="46.30228" lon="-0.44237">
        <ele>18</ele>
        <time>2016-11-08T14:56:43Z</time>
      </trkpt>
      <trkpt lat="46.30233" lon="-0.44235">
        <ele>18</ele>
        <time>2016-11-08T14:56:48Z</time>
      </trkpt>
      <trkpt lat="46.30238" lon="-0.44232">
        <ele>18</ele>
        <time>2016-11-08T14:56:53Z</time>
      </trkpt>
      <trkpt lat="46.30242" lon="-0.44228">
        <ele>18</ele>
        <time>2016-11-08T14:56:58Z</time>
      </trkpt>
      <trkpt lat="46.30248" lon="-0.44225">
        <ele>18</ele>
        <time>2016-11-08T14:57:03Z</time>
      </trkpt>
      <trkpt lat="46.30252" lon="-0.44223">
        <ele>18</ele>
        <time>2016-11-08T14:57:08Z</time>
      </trkpt>
      <trkpt lat="46.30257" lon="-0.4422">
        <ele>18</ele>
        <time>2016-11-08T14:57:13Z</time>
      </trkpt>
      <trkpt lat="46.30263" lon="-0.44218">
        <ele>18</ele>
        <time>2016-11-08T14:57:18Z</time>
      </trkpt>
      <trkpt lat="46.30266" lon="-0.44215">
        <ele>18</ele>
        <time>2016-11-08T14:57:23Z</time>
      </trkpt>
      <trkpt lat="46.3027" lon="-0.44213">
        <ele>18</ele>
        <time>2016-11-08T14:57:28Z</time>
      </trkpt>
      <trkpt lat="46.30273" lon="-0.44211">
        <ele>18</ele>
        <time>2016-11-08T14:57:33Z</time>
      </trkpt>
      <trkpt lat="46.30277" lon="-0.44207">
        <ele>18</ele>
        <time>2016-11-08T14:57:38Z</time>
      </trkpt>
      <trkpt lat="46.3028" lon="-0.44204">
        <ele>18</ele>
        <time>2016-11-08T14:57:43Z</time>
      </trkpt>
      <trkpt lat="46.30285" lon="-0.44202">
        <ele>18</ele>
        <time>2016-11-08T14:57:48Z</time>
      </trkpt>
      <trkpt lat="46.30293" lon="-0.44201">
        <ele>21</ele>
        <time>2016-11-08T14:57:53Z</time>
      </trkpt>
      <trkpt lat="46.30299" lon="-0.44198">
        <ele>21</ele>
        <time>2016-11-08T14:57:58Z</time>
      </trkpt>
      <trkpt lat="46.30305" lon="-0.44196">
        <ele>21</ele>
        <time>2016-11-08T14:58:03Z</time>
      </trkpt>
      <trkpt lat="46.30312" lon="-0.44195">
        <ele>21</ele>
        <time>2016-11-08T14:58:08Z</time>
      </trkpt>
      <trkpt lat="46.30318" lon="-0.44195">
        <ele>21</ele>
        <time>2016-11-08T14:58:13Z</time>
      </trkpt>
      <trkpt lat="46.30325" lon="-0.44197">
        <ele>21</ele>
        <time>2016-11-08T14:58:18Z</time>
      </trkpt>
      <trkpt lat="46.3033" lon="-0.44198">
        <ele>21</ele>
        <time>2016-11-08T14:58:23Z</time>
      </trkpt>
      <trkpt lat="46.30333" lon="-0.44198">
        <ele>21</ele>
        <time>2016-11-08T14:58:28Z</time>
      </trkpt>
      <trkpt lat="46.30338" lon="-0.44198">
        <ele>21</ele>
        <time>2016-11-08T14:58:33Z</time>
      </trkpt>
      <trkpt lat="46.30342" lon="-0.44197">
        <ele>21</ele>
        <time>2016-11-08T14:58:38Z</time>
      </trkpt>
      <trkpt lat="46.30347" lon="-0.44197">
        <ele>21</ele>
        <time>2016-11-08T14:58:43Z</time>
      </trkpt>
      <trkpt lat="46.30353" lon="-0.44194">
        <ele>21</ele>
        <time>2016-11-08T14:58:48Z</time>
      </trkpt>
      <trkpt lat="46.30359" lon="-0.44193">
        <ele>21</ele>
        <time>2016-11-08T14:58:53Z</time>
      </trkpt>
      <trkpt lat="46.30368" lon="-0.44192">
        <ele>21</ele>
        <time>2016-11-08T14:58:58Z</time>
      </trkpt>
      <trkpt lat="46.30372" lon="-0.44194">
        <ele>21</ele>
        <time>2016-11-08T14:59:03Z</time>
      </trkpt>
      <trkpt lat="46.30376" lon="-0.44196">
        <ele>21</ele>
        <time>2016-11-08T14:59:08Z</time>
      </trkpt>
      <trkpt lat="46.30381" lon="-0.442">
        <ele>21</ele>
        <time>2016-11-08T14:59:13Z</time>
      </trkpt>
      <trkpt lat="46.30387" lon="-0.44201">
        <ele>21</ele>
        <time>2016-11-08T14:59:18Z</time>
      </trkpt>
      <trkpt lat="46.30393" lon="-0.44205">
        <ele>21</ele>
        <time>2016-11-08T14:59:23Z</time>
      </trkpt>
      <trkpt lat="46.30402" lon="-0.44212">
        <ele>19</ele>
        <time>2016-11-08T14:59:28Z</time>
      </trkpt>
      <trkpt lat="46.30407" lon="-0.44221">
        <ele>19</ele>
        <time>2016-11-08T14:59:33Z</time>
      </trkpt>
      <trkpt lat="46.30412" lon="-0.44228">
        <ele>19</ele>
        <time>2016-11-08T14:59:38Z</time>
      </trkpt>
      <trkpt lat="46.30415" lon="-0.44235">
        <ele>19</ele>
        <time>2016-11-08T14:59:43Z</time>
      </trkpt>
      <trkpt lat="46.30417" lon="-0.44243">
        <ele>19</ele>
        <time>2016-11-08T14:59:48Z</time>
      </trkpt>
      <trkpt lat="46.3042" lon="-0.44247">
        <ele>19</ele>
        <time>2016-11-08T14:59:53Z</time>
      </trkpt>
      <trkpt lat="46.30423" lon="-0.4425">
        <ele>19</ele>
        <time>2016-11-08T14:59:58Z</time>
      </trkpt>
      <trkpt lat="46.30426" lon="-0.44255">
        <ele>19</ele>
        <time>2016-11-08T15:00:03Z</time>
      </trkpt>
      <trkpt lat="46.30428" lon="-0.44262">
        <ele>19</ele>
        <time>2016-11-08T15:00:08Z</time>
      </trkpt>
      <trkpt lat="46.3043" lon="-0.44267">
        <ele>19</ele>
        <time>2016-11-08T15:00:13Z</time>
      </trkpt>
      <trkpt lat="46.30432" lon="-0.44272">
        <ele>19</ele>
        <time>2016-11-08T15:00:18Z</time>
      </trkpt>
      <trkpt lat="46.30434" lon="-0.44279">
        <ele>19</ele>
        <time>2016-11-08T15:00:23Z</time>
      </trkpt>
      <trkpt lat="46.30436" lon="-0.44286">
        <ele>19</ele>
        <time>2016-11-08T15:00:28Z</time>
      </trkpt>
      <trkpt lat="46.30437" lon="-0.4429">
        <ele>19</ele>
        <time>2016-11-08T15:00:33Z</time>
      </trkpt>
      <trkpt lat="46.30439" lon="-0.44296">
        <ele>20</ele>
        <time>2016-11-08T15:00:38Z</time>
      </trkpt>
      <trkpt lat="46.3044" lon="-0.44302">
        <ele>20</ele>
        <time>2016-11-08T15:00:43Z</time>
      </trkpt>
      <trkpt lat="46.30442" lon="-0.44308">
        <ele>20</ele>
        <time>2016-11-08T15:00:48Z</time>
      </trkpt>
      <trkpt lat="46.30444" lon="-0.44314">
        <ele>20</ele>
        <time>2016-11-08T15:00:53Z</time>
      </trkpt>
      <trkpt lat="46.30445" lon="-0.44321">
        <ele>20</ele>
        <time>2016-11-08T15:00:58Z</time>
      </trkpt>
      <trkpt lat="46.30447" lon="-0.44327">
        <ele>20</ele>
        <time>2016-11-08T15:01:03Z</time>
      </trkpt>
      <trkpt lat="46.3045" lon="-0.44334">
        <ele>20</ele>
        <time>2016-11-08T15:01:08Z</time>
      </trkpt>
      <trkpt lat="46.30452" lon="-0.44345">
        <ele>20</ele>
        <time>2016-11-08T15:01:13Z</time>
      </trkpt>
      <trkpt lat="46.30454" lon="-0.44352">
        <ele>20</ele>
        <time>2016-11-08T15:01:18Z</time>
      </trkpt>
      <trkpt lat="46.30455" lon="-0.44359">
        <ele>20</ele>
        <time>2016-11-08T15:01:23Z</time>
      </trkpt>
      <trkpt lat="46.30456" lon="-0.44367">
        <ele>20</ele>
        <time>2016-11-08T15:01:28Z</time>
      </trkpt>
      <trkpt lat="46.30456" lon="-0.44375">
        <ele>20</ele>
        <time>2016-11-08T15:01:33Z</time>
      </trkpt>
      <trkpt lat="46.30457" lon="-0.44383">
        <ele>20</ele>
        <time>2016-11-08T15:01:38Z</time>
      </trkpt>
      <trkpt lat="46.30457" lon="-0.44392">
        <ele>20</ele>
        <time>2016-11-08T15:01:43Z</time>
      </trkpt>
      <trkpt lat="46.30458" lon="-0.44401">
        <ele>20</ele>
        <time>2016-11-08T15:01:48Z</time>
      </trkpt>
      <trkpt lat="46.3046" lon="-0.44411">
        <ele>21</ele>
        <time>2016-11-08T15:01:53Z</time>
      </trkpt>
      <trkpt lat="46.30461" lon="-0.44419">
        <ele>21</ele>
        <time>2016-11-08T15:01:58Z</time>
      </trkpt>
      <trkpt lat="46.30461" lon="-0.44427">
        <ele>21</ele>
        <time>2016-11-08T15:02:03Z</time>
      </trkpt>
      <trkpt lat="46.30461" lon="-0.44435">
        <ele>21</ele>
        <time>2016-11-08T15:02:08Z</time>
      </trkpt>
      <trkpt lat="46.30461" lon="-0.44442">
        <ele>21</ele>
        <time>2016-11-08T15:02:13Z</time>
      </trkpt>
      <trkpt lat="46.3046" lon="-0.44448">
        <ele>21</ele>
        <time>2016-11-08T15:02:18Z</time>
      </trkpt>
      <trkpt lat="46.3046" lon="-0.44454">
        <ele>21</ele>
        <time>2016-11-08T15:02:23Z</time>
      </trkpt>
      <trkpt lat="46.3046" lon="-0.44464">
        <ele>20</ele>
        <time>2016-11-08T15:02:28Z</time>
      </trkpt>
      <trkpt lat="46.30461" lon="-0.44476">
        <ele>20</ele>
        <time>2016-11-08T15:02:33Z</time>
      </trkpt>
      <trkpt lat="46.30464" lon="-0.44488">
        <ele>20</ele>
        <time>2016-11-08T15:02:38Z</time>
      </trkpt>
      <trkpt lat="46.30465" lon="-0.44497">
        <ele>20</ele>
        <time>2016-11-08T15:02:43Z</time>
      </trkpt>
      <trkpt lat="46.30466" lon="-0.44505">
        <ele>20</ele>
        <time>2016-11-08T15:02:48Z</time>
      </trkpt>
      <trkpt lat="46.30468" lon="-0.4451">
        <ele>20</ele>
        <time>2016-11-08T15:02:53Z</time>
      </trkpt>
      <trkpt lat="46.30471" lon="-0.44514">
        <ele>20</ele>
        <time>2016-11-08T15:02:58Z</time>
      </trkpt>
      <trkpt lat="46.30473" lon="-0.44522">
        <ele>20</ele>
        <time>2016-11-08T15:03:03Z</time>
      </trkpt>
      <trkpt lat="46.30474" lon="-0.44529">
        <ele>20</ele>
        <time>2016-11-08T15:03:08Z</time>
      </trkpt>
      <trkpt lat="46.30476" lon="-0.44537">
        <ele>20</ele>
        <time>2016-11-08T15:03:13Z</time>
      </trkpt>
      <trkpt lat="46.30477" lon="-0.44542">
        <ele>20</ele>
        <time>2016-11-08T15:03:18Z</time>
      </trkpt>
      <trkpt lat="46.30478" lon="-0.44548">
        <ele>19</ele>
        <time>2016-11-08T15:03:23Z</time>
      </trkpt>
      <trkpt lat="46.3048" lon="-0.44553">
        <ele>19</ele>
        <time>2016-11-08T15:03:28Z</time>
      </trkpt>
      <trkpt lat="46.30481" lon="-0.44561">
        <ele>19</ele>
        <time>2016-11-08T15:03:33Z</time>
      </trkpt>
      <trkpt lat="46.30483" lon="-0.44568">
        <ele>19</ele>
        <time>2016-11-08T15:03:38Z</time>
      </trkpt>
      <trkpt lat="46.30484" lon="-0.44576">
        <ele>19</ele>
        <time>2016-11-08T15:03:43Z</time>
      </trkpt>
      <trkpt lat="46.30487" lon="-0.4459">
        <ele>19</ele>
        <time>2016-11-08T15:03:48Z</time>
      </trkpt>
      <trkpt lat="46.30489" lon="-0.44604">
        <ele>19</ele>
        <time>2016-11-08T15:03:53Z</time>
      </trkpt>
      <trkpt lat="46.30491" lon="-0.44615">
        <ele>19</ele>
        <time>2016-11-08T15:03:58Z</time>
      </trkpt>
      <trkpt lat="46.30493" lon="-0.44622">
        <ele>19</ele>
        <time>2016-11-08T15:04:03Z</time>
      </trkpt>
      <trkpt lat="46.30496" lon="-0.44628">
        <ele>16</ele>
        <time>2016-11-08T15:04:08Z</time>
      </trkpt>
      <trkpt lat="46.30498" lon="-0.44635">
        <ele>16</ele>
        <time>2016-11-08T15:04:13Z</time>
      </trkpt>
      <trkpt lat="46.30498" lon="-0.4464">
        <ele>16</ele>
        <time>2016-11-08T15:04:18Z</time>
      </trkpt>
      <trkpt lat="46.30499" lon="-0.44645">
        <ele>16</ele>
        <time>2016-11-08T15:04:23Z</time>
      </trkpt>
      <trkpt lat="46.30499" lon="-0.44646">
        <ele>16</ele>
        <time>2016-11-08T15:04:28Z</time>
      </trkpt>
      <trkpt lat="46.30504" lon="-0.44661">
        <ele>16</ele>
        <time>2016-11-08T15:04:33Z</time>
      </trkpt>
      <trkpt lat="46.30505" lon="-0.4467">
        <ele>16</ele>
        <time>2016-11-08T15:04:38Z</time>
      </trkpt>
      <trkpt lat="46.30508" lon="-0.44681">
        <ele>16</ele>
        <time>2016-11-08T15:04:43Z</time>
      </trkpt>
      <trkpt lat="46.30511" lon="-0.44689">
        <ele>16</ele>
        <time>2016-11-08T15:04:48Z</time>
      </trkpt>
      <trkpt lat="46.30512" lon="-0.44697">
        <ele>16</ele>
        <time>2016-11-08T15:04:53Z</time>
      </trkpt>
      <trkpt lat="46.30516" lon="-0.44702">
        <ele>16</ele>
        <time>2016-11-08T15:04:58Z</time>
      </trkpt>
      <trkpt lat="46.30518" lon="-0.44708">
        <ele>16</ele>
        <time>2016-11-08T15:05:03Z</time>
      </trkpt>
      <trkpt lat="46.30519" lon="-0.44716">
        <ele>17</ele>
        <time>2016-11-08T15:05:08Z</time>
      </trkpt>
      <trkpt lat="46.30519" lon="-0.44719">
        <ele>17</ele>
        <time>2016-11-08T15:05:13Z</time>
      </trkpt>
      <trkpt lat="46.30523" lon="-0.44726">
        <ele>17</ele>
        <time>2016-11-08T15:05:18Z</time>
      </trkpt>
      <trkpt lat="46.30525" lon="-0.44729">
        <ele>17</ele>
        <time>2016-11-08T15:05:23Z</time>
      </trkpt>
      <trkpt lat="46.30526" lon="-0.44733">
        <ele>17</ele>
        <time>2016-11-08T15:05:28Z</time>
      </trkpt>
      <trkpt lat="46.30529" lon="-0.44744">
        <ele>17</ele>
        <time>2016-11-08T15:05:33Z</time>
      </trkpt>
      <trkpt lat="46.30531" lon="-0.44752">
        <ele>17</ele>
        <time>2016-11-08T15:05:38Z</time>
      </trkpt>
      <trkpt lat="46.30532" lon="-0.4476">
        <ele>17</ele>
        <time>2016-11-08T15:05:43Z</time>
      </trkpt>
      <trkpt lat="46.30533" lon="-0.4477">
        <ele>17</ele>
        <time>2016-11-08T15:05:48Z</time>
      </trkpt>
      <trkpt lat="46.30534" lon="-0.44774">
        <ele>17</ele>
        <time>2016-11-08T15:05:53Z</time>
      </trkpt>
      <trkpt lat="46.30542" lon="-0.4479">
        <ele>17</ele>
        <time>2016-11-08T15:06:03Z</time>
      </trkpt>
      <trkpt lat="46.30545" lon="-0.44796">
        <ele>18</ele>
        <time>2016-11-08T15:06:08Z</time>
      </trkpt>
      <trkpt lat="46.3055" lon="-0.44808">
        <ele>18</ele>
        <time>2016-11-08T15:06:13Z</time>
      </trkpt>
      <trkpt lat="46.30555" lon="-0.44817">
        <ele>18</ele>
        <time>2016-11-08T15:06:18Z</time>
      </trkpt>
      <trkpt lat="46.30557" lon="-0.44825">
        <ele>18</ele>
        <time>2016-11-08T15:06:23Z</time>
      </trkpt>
      <trkpt lat="46.30561" lon="-0.44831">
        <ele>18</ele>
        <time>2016-11-08T15:06:28Z</time>
      </trkpt>
      <trkpt lat="46.30563" lon="-0.44837">
        <ele>18</ele>
        <time>2016-11-08T15:06:33Z</time>
      </trkpt>
      <trkpt lat="46.30564" lon="-0.44844">
        <ele>18</ele>
        <time>2016-11-08T15:06:38Z</time>
      </trkpt>
      <trkpt lat="46.30566" lon="-0.44852">
        <ele>18</ele>
        <time>2016-11-08T15:06:43Z</time>
      </trkpt>
      <trkpt lat="46.30568" lon="-0.44861">
        <ele>18</ele>
        <time>2016-11-08T15:06:48Z</time>
      </trkpt>
      <trkpt lat="46.30571" lon="-0.44868">
        <ele>18</ele>
        <time>2016-11-08T15:06:53Z</time>
      </trkpt>
      <trkpt lat="46.30574" lon="-0.44876">
        <ele>17</ele>
        <time>2016-11-08T15:06:58Z</time>
      </trkpt>
      <trkpt lat="46.30577" lon="-0.44884">
        <ele>17</ele>
        <time>2016-11-08T15:07:03Z</time>
      </trkpt>
      <trkpt lat="46.3058" lon="-0.44894">
        <ele>17</ele>
        <time>2016-11-08T15:07:08Z</time>
      </trkpt>
      <trkpt lat="46.30584" lon="-0.44906">
        <ele>17</ele>
        <time>2016-11-08T15:07:13Z</time>
      </trkpt>
      <trkpt lat="46.30585" lon="-0.44915">
        <ele>17</ele>
        <time>2016-11-08T15:07:18Z</time>
      </trkpt>
      <trkpt lat="46.30589" lon="-0.44922">
        <ele>17</ele>
        <time>2016-11-08T15:07:23Z</time>
      </trkpt>
      <trkpt lat="46.30592" lon="-0.44929">
        <ele>17</ele>
        <time>2016-11-08T15:07:28Z</time>
      </trkpt>
      <trkpt lat="46.30593" lon="-0.44934">
        <ele>17</ele>
        <time>2016-11-08T15:07:33Z</time>
      </trkpt>
      <trkpt lat="46.30594" lon="-0.44941">
        <ele>17</ele>
        <time>2016-11-08T15:07:38Z</time>
      </trkpt>
      <trkpt lat="46.30593" lon="-0.44948">
        <ele>17</ele>
        <time>2016-11-08T15:07:43Z</time>
      </trkpt>
      <trkpt lat="46.30591" lon="-0.44957">
        <ele>17</ele>
        <time>2016-11-08T15:07:48Z</time>
      </trkpt>
      <trkpt lat="46.3059" lon="-0.44965">
        <ele>18</ele>
        <time>2016-11-08T15:07:53Z</time>
      </trkpt>
      <trkpt lat="46.30589" lon="-0.44979">
        <ele>18</ele>
        <time>2016-11-08T15:08:03Z</time>
      </trkpt>
      <trkpt lat="46.30589" lon="-0.4498">
        <ele>18</ele>
        <time>2016-11-08T15:08:08Z</time>
      </trkpt>
      <trkpt lat="46.30593" lon="-0.44993">
        <ele>18</ele>
        <time>2016-11-08T15:08:38Z</time>
      </trkpt>
      <trkpt lat="46.30592" lon="-0.44996">
        <ele>18</ele>
        <time>2016-11-08T15:09:08Z</time>
      </trkpt>
      <trkpt lat="46.30592" lon="-0.45001">
        <ele>18</ele>
        <time>2016-11-08T15:09:13Z</time>
      </trkpt>
      <trkpt lat="46.3059" lon="-0.45004">
        <ele>18</ele>
        <time>2016-11-08T15:09:18Z</time>
      </trkpt>
      <trkpt lat="46.30589" lon="-0.45008">
        <ele>18</ele>
        <time>2016-11-08T15:09:23Z</time>
      </trkpt>
      <trkpt lat="46.30586" lon="-0.45012">
        <ele>18</ele>
        <time>2016-11-08T15:09:28Z</time>
      </trkpt>
      <trkpt lat="46.30582" lon="-0.45014">
        <ele>18</ele>
        <time>2016-11-08T15:09:33Z</time>
      </trkpt>
      <trkpt lat="46.30579" lon="-0.45016">
        <ele>18</ele>
        <time>2016-11-08T15:09:38Z</time>
      </trkpt>
      <trkpt lat="46.30576" lon="-0.45018">
        <ele>18</ele>
        <time>2016-11-08T15:09:43Z</time>
      </trkpt>
      <trkpt lat="46.30572" lon="-0.45019">
        <ele>18</ele>
        <time>2016-11-08T15:09:48Z</time>
      </trkpt>
      <trkpt lat="46.3057" lon="-0.4502">
        <ele>18</ele>
        <time>2016-11-08T15:09:53Z</time>
      </trkpt>
      <trkpt lat="46.30566" lon="-0.45023">
        <ele>18</ele>
        <time>2016-11-08T15:09:58Z</time>
      </trkpt>
      <trkpt lat="46.30562" lon="-0.45024">
        <ele>18</ele>
        <time>2016-11-08T15:10:03Z</time>
      </trkpt>
      <trkpt lat="46.30557" lon="-0.45026">
        <ele>18</ele>
        <time>2016-11-08T15:10:08Z</time>
      </trkpt>
      <trkpt lat="46.30551" lon="-0.45027">
        <ele>18</ele>
        <time>2016-11-08T15:10:13Z</time>
      </trkpt>
      <trkpt lat="46.30546" lon="-0.45028">
        <ele>18</ele>
        <time>2016-11-08T15:10:18Z</time>
      </trkpt>
      <trkpt lat="46.30541" lon="-0.45027">
        <ele>16</ele>
        <time>2016-11-08T15:10:23Z</time>
      </trkpt>
      <trkpt lat="46.30535" lon="-0.45029">
        <ele>16</ele>
        <time>2016-11-08T15:10:28Z</time>
      </trkpt>
      <trkpt lat="46.30529" lon="-0.4503">
        <ele>16</ele>
        <time>2016-11-08T15:10:33Z</time>
      </trkpt>
      <trkpt lat="46.30523" lon="-0.4503">
        <ele>16</ele>
        <time>2016-11-08T15:10:38Z</time>
      </trkpt>
      <trkpt lat="46.30516" lon="-0.45029">
        <ele>16</ele>
        <time>2016-11-08T15:10:43Z</time>
      </trkpt>
      <trkpt lat="46.30511" lon="-0.45028">
        <ele>16</ele>
        <time>2016-11-08T15:10:48Z</time>
      </trkpt>
      <trkpt lat="46.30507" lon="-0.45025">
        <ele>16</ele>
        <time>2016-11-08T15:10:53Z</time>
      </trkpt>
      <trkpt lat="46.30501" lon="-0.45023">
        <ele>16</ele>
        <time>2016-11-08T15:10:58Z</time>
      </trkpt>
      <trkpt lat="46.30497" lon="-0.45023">
        <ele>16</ele>
        <time>2016-11-08T15:11:03Z</time>
      </trkpt>
      <trkpt lat="46.30492" lon="-0.45022">
        <ele>16</ele>
        <time>2016-11-08T15:11:08Z</time>
      </trkpt>
      <trkpt lat="46.3049" lon="-0.45025">
        <ele>16</ele>
        <time>2016-11-08T15:11:13Z</time>
      </trkpt>
      <trkpt lat="46.30485" lon="-0.45027">
        <ele>16</ele>
        <time>2016-11-08T15:11:18Z</time>
      </trkpt>
      <trkpt lat="46.30475" lon="-0.45026">
        <ele>16</ele>
        <time>2016-11-08T15:11:23Z</time>
      </trkpt>
      <trkpt lat="46.30474" lon="-0.45029">
        <ele>16</ele>
        <time>2016-11-08T15:11:28Z</time>
      </trkpt>
      <trkpt lat="46.30464" lon="-0.45032">
        <ele>16</ele>
        <time>2016-11-08T15:12:33Z</time>
      </trkpt>
      <trkpt lat="46.3046" lon="-0.45032">
        <ele>16</ele>
        <time>2016-11-08T15:12:38Z</time>
      </trkpt>
      <trkpt lat="46.30458" lon="-0.45033">
        <ele>15</ele>
        <time>2016-11-08T15:12:43Z</time>
      </trkpt>
      <trkpt lat="46.30457" lon="-0.45034">
        <ele>15</ele>
        <time>2016-11-08T15:12:48Z</time>
      </trkpt>
      <trkpt lat="46.30442" lon="-0.45031">
        <ele>15</ele>
        <time>2016-11-08T15:12:58Z</time>
      </trkpt>
      <trkpt lat="46.30437" lon="-0.45029">
        <ele>15</ele>
        <time>2016-11-08T15:13:03Z</time>
      </trkpt>
      <trkpt lat="46.30432" lon="-0.45027">
        <ele>15</ele>
        <time>2016-11-08T15:13:08Z</time>
      </trkpt>
      <trkpt lat="46.30429" lon="-0.45026">
        <ele>15</ele>
        <time>2016-11-08T15:13:13Z</time>
      </trkpt>
      <trkpt lat="46.30425" lon="-0.45025">
        <ele>15</ele>
        <time>2016-11-08T15:13:18Z</time>
      </trkpt>
      <trkpt lat="46.30421" lon="-0.45024">
        <ele>15</ele>
        <time>2016-11-08T15:13:23Z</time>
      </trkpt>
      <trkpt lat="46.30413" lon="-0.45026">
        <ele>15</ele>
        <time>2016-11-08T15:13:33Z</time>
      </trkpt>
      <trkpt lat="46.30407" lon="-0.45029">
        <ele>15</ele>
        <time>2016-11-08T15:13:38Z</time>
      </trkpt>
      <trkpt lat="46.30402" lon="-0.45033">
        <ele>15</ele>
        <time>2016-11-08T15:13:43Z</time>
      </trkpt>
      <trkpt lat="46.30397" lon="-0.45037">
        <ele>15</ele>
        <time>2016-11-08T15:13:48Z</time>
      </trkpt>
      <trkpt lat="46.30393" lon="-0.45042">
        <ele>15</ele>
        <time>2016-11-08T15:13:53Z</time>
      </trkpt>
      <trkpt lat="46.3039" lon="-0.45048">
        <ele>15</ele>
        <time>2016-11-08T15:13:58Z</time>
      </trkpt>
      <trkpt lat="46.30389" lon="-0.45055">
        <ele>15</ele>
        <time>2016-11-08T15:14:03Z</time>
      </trkpt>
      <trkpt lat="46.30391" lon="-0.45061">
        <ele>15</ele>
        <time>2016-11-08T15:14:08Z</time>
      </trkpt>
      <trkpt lat="46.30391" lon="-0.45068">
        <ele>15</ele>
        <time>2016-11-08T15:14:13Z</time>
      </trkpt>
      <trkpt lat="46.3039" lon="-0.45075">
        <ele>15</ele>
        <time>2016-11-08T15:14:18Z</time>
      </trkpt>
      <trkpt lat="46.30387" lon="-0.4508">
        <ele>15</ele>
        <time>2016-11-08T15:14:23Z</time>
      </trkpt>
      <trkpt lat="46.30384" lon="-0.45085">
        <ele>15</ele>
        <time>2016-11-08T15:14:28Z</time>
      </trkpt>
      <trkpt lat="46.30379" lon="-0.45091">
        <ele>15</ele>
        <time>2016-11-08T15:14:33Z</time>
      </trkpt>
      <trkpt lat="46.30376" lon="-0.45095">
        <ele>15</ele>
        <time>2016-11-08T15:14:38Z</time>
      </trkpt>
      <trkpt lat="46.30371" lon="-0.451">
        <ele>14</ele>
        <time>2016-11-08T15:14:43Z</time>
      </trkpt>
      <trkpt lat="46.30368" lon="-0.45105">
        <ele>14</ele>
        <time>2016-11-08T15:14:48Z</time>
      </trkpt>
      <trkpt lat="46.30363" lon="-0.45109">
        <ele>14</ele>
        <time>2016-11-08T15:14:53Z</time>
      </trkpt>
      <trkpt lat="46.30359" lon="-0.45114">
        <ele>14</ele>
        <time>2016-11-08T15:14:58Z</time>
      </trkpt>
      <trkpt lat="46.30354" lon="-0.45117">
        <ele>14</ele>
        <time>2016-11-08T15:15:03Z</time>
      </trkpt>
      <trkpt lat="46.30349" lon="-0.45121">
        <ele>14</ele>
        <time>2016-11-08T15:15:08Z</time>
      </trkpt>
      <trkpt lat="46.30344" lon="-0.45124">
        <ele>14</ele>
        <time>2016-11-08T15:15:13Z</time>
      </trkpt>
      <trkpt lat="46.3034" lon="-0.45128">
        <ele>16</ele>
        <time>2016-11-08T15:15:18Z</time>
      </trkpt>
      <trkpt lat="46.30335" lon="-0.45132">
        <ele>16</ele>
        <time>2016-11-08T15:15:23Z</time>
      </trkpt>
      <trkpt lat="46.3033" lon="-0.45137">
        <ele>16</ele>
        <time>2016-11-08T15:15:28Z</time>
      </trkpt>
      <trkpt lat="46.30326" lon="-0.45142">
        <ele>16</ele>
        <time>2016-11-08T15:15:33Z</time>
      </trkpt>
      <trkpt lat="46.30322" lon="-0.45147">
        <ele>16</ele>
        <time>2016-11-08T15:15:38Z</time>
      </trkpt>
      <trkpt lat="46.30317" lon="-0.45151">
        <ele>16</ele>
        <time>2016-11-08T15:15:43Z</time>
      </trkpt>
      <trkpt lat="46.30314" lon="-0.45156">
        <ele>16</ele>
        <time>2016-11-08T15:15:48Z</time>
      </trkpt>
      <trkpt lat="46.30312" lon="-0.45162">
        <ele>16</ele>
        <time>2016-11-08T15:15:53Z</time>
      </trkpt>
      <trkpt lat="46.3031" lon="-0.45165">
        <ele>16</ele>
        <time>2016-11-08T15:15:58Z</time>
      </trkpt>
      <trkpt lat="46.30307" lon="-0.45169">
        <ele>16</ele>
        <time>2016-11-08T15:16:03Z</time>
      </trkpt>
      <trkpt lat="46.30304" lon="-0.45173">
        <ele>16</ele>
        <time>2016-11-08T15:16:08Z</time>
      </trkpt>
      <trkpt lat="46.30304" lon="-0.45173">
        <ele>16</ele>
        <time>2016-11-08T15:16:13Z</time>
      </trkpt>
      <trkpt lat="46.30305" lon="-0.45177">
        <ele>16</ele>
        <time>2016-11-08T15:16:23Z</time>
      </trkpt>
      <trkpt lat="46.30307" lon="-0.45182">
        <ele>16</ele>
        <time>2016-11-08T15:16:33Z</time>
      </trkpt>
      <trkpt lat="46.30308" lon="-0.45185">
        <ele>16</ele>
        <time>2016-11-08T15:16:38Z</time>
      </trkpt>
      <trkpt lat="46.30309" lon="-0.45189">
        <ele>16</ele>
        <time>2016-11-08T15:16:43Z</time>
      </trkpt>
      <trkpt lat="46.3031" lon="-0.4519">
        <ele>16</ele>
        <time>2016-11-08T15:16:48Z</time>
      </trkpt>
      <trkpt lat="46.30311" lon="-0.45199">
        <ele>16</ele>
        <time>2016-11-08T15:16:53Z</time>
      </trkpt>
      <trkpt lat="46.30311" lon="-0.45202">
        <ele>16</ele>
        <time>2016-11-08T15:16:58Z</time>
      </trkpt>
      <trkpt lat="46.30307" lon="-0.45205">
        <ele>16</ele>
        <time>2016-11-08T15:17:03Z</time>
      </trkpt>
      <trkpt lat="46.30306" lon="-0.45206">
        <ele>16</ele>
        <time>2016-11-08T15:17:08Z</time>
      </trkpt>
      <trkpt lat="46.30306" lon="-0.45206">
        <ele>16</ele>
        <time>2016-11-08T15:17:13Z</time>
      </trkpt>
      <trkpt lat="46.30302" lon="-0.45207">
        <ele>16</ele>
        <time>2016-11-08T15:17:18Z</time>
      </trkpt>
      <trkpt lat="46.30302" lon="-0.45206">
        <ele>16</ele>
        <time>2016-11-08T15:17:23Z</time>
      </trkpt>
      <trkpt lat="46.30298" lon="-0.45202">
        <ele>16</ele>
        <time>2016-11-08T15:17:28Z</time>
      </trkpt>
      <trkpt lat="46.30297" lon="-0.45201">
        <ele>16</ele>
        <time>2016-11-08T15:17:33Z</time>
      </trkpt>
      <trkpt lat="46.3029" lon="-0.45193">
        <ele>14</ele>
        <time>2016-11-08T15:17:38Z</time>
      </trkpt>
      <trkpt lat="46.30287" lon="-0.45188">
        <ele>14</ele>
        <time>2016-11-08T15:17:43Z</time>
      </trkpt>
      <trkpt lat="46.30286" lon="-0.45188">
        <ele>14</ele>
        <time>2016-11-08T15:17:48Z</time>
      </trkpt>
      <trkpt lat="46.30279" lon="-0.45186">
        <ele>14</ele>
        <time>2016-11-08T15:17:58Z</time>
      </trkpt>
      <trkpt lat="46.30275" lon="-0.45183">
        <ele>14</ele>
        <time>2016-11-08T15:18:03Z</time>
      </trkpt>
      <trkpt lat="46.30273" lon="-0.45182">
        <ele>14</ele>
        <time>2016-11-08T15:18:08Z</time>
      </trkpt>
      <trkpt lat="46.30273" lon="-0.45181">
        <ele>14</ele>
        <time>2016-11-08T15:18:13Z</time>
      </trkpt>
      <trkpt lat="46.30268" lon="-0.45177">
        <ele>14</ele>
        <time>2016-11-08T15:18:18Z</time>
      </trkpt>
      <trkpt lat="46.30265" lon="-0.45177">
        <ele>14</ele>
        <time>2016-11-08T15:18:23Z</time>
      </trkpt>
      <trkpt lat="46.3026" lon="-0.45166">
        <ele>14</ele>
        <time>2016-11-08T15:18:28Z</time>
      </trkpt>
      <trkpt lat="46.30256" lon="-0.45162">
        <ele>14</ele>
        <time>2016-11-08T15:18:33Z</time>
      </trkpt>
      <trkpt lat="46.3025" lon="-0.45159">
        <ele>14</ele>
        <time>2016-11-08T15:18:38Z</time>
      </trkpt>
      <trkpt lat="46.30245" lon="-0.45155">
        <ele>14</ele>
        <time>2016-11-08T15:18:43Z</time>
      </trkpt>
      <trkpt lat="46.30234" lon="-0.4515">
        <ele>14</ele>
        <time>2016-11-08T15:18:48Z</time>
      </trkpt>
      <trkpt lat="46.30232" lon="-0.45149">
        <ele>14</ele>
        <time>2016-11-08T15:18:53Z</time>
      </trkpt>
      <trkpt lat="46.30225" lon="-0.45139">
        <ele>14</ele>
        <time>2016-11-08T15:19:03Z</time>
      </trkpt>
      <trkpt lat="46.30218" lon="-0.45131">
        <ele>14</ele>
        <time>2016-11-08T15:19:18Z</time>
      </trkpt>
      <trkpt lat="46.30217" lon="-0.4513">
        <ele>14</ele>
        <time>2016-11-08T15:19:23Z</time>
      </trkpt>
      <trkpt lat="46.30212" lon="-0.45125">
        <ele>14</ele>
        <time>2016-11-08T15:19:28Z</time>
      </trkpt>
      <trkpt lat="46.30202" lon="-0.45118">
        <ele>13</ele>
        <time>2016-11-08T15:19:33Z</time>
      </trkpt>
      <trkpt lat="46.30195" lon="-0.45112">
        <ele>13</ele>
        <time>2016-11-08T15:19:38Z</time>
      </trkpt>
      <trkpt lat="46.3019" lon="-0.45106">
        <ele>13</ele>
        <time>2016-11-08T15:19:43Z</time>
      </trkpt>
      <trkpt lat="46.30182" lon="-0.45098">
        <ele>13</ele>
        <time>2016-11-08T15:19:48Z</time>
      </trkpt>
      <trkpt lat="46.30181" lon="-0.45097">
        <ele>13</ele>
        <time>2016-11-08T15:19:53Z</time>
      </trkpt>
      <trkpt lat="46.30179" lon="-0.45095">
        <ele>13</ele>
        <time>2016-11-08T15:19:58Z</time>
      </trkpt>
      <trkpt lat="46.30177" lon="-0.45092">
        <ele>13</ele>
        <time>2016-11-08T15:20:03Z</time>
      </trkpt>
      <trkpt lat="46.30172" lon="-0.45086">
        <ele>13</ele>
        <time>2016-11-08T15:20:08Z</time>
      </trkpt>
      <trkpt lat="46.3017" lon="-0.45077">
        <ele>13</ele>
        <time>2016-11-08T15:20:13Z</time>
      </trkpt>
      <trkpt lat="46.30149" lon="-0.45052">
        <ele>13</ele>
        <time>2016-11-08T15:20:18Z</time>
      </trkpt>
      <trkpt lat="46.30142" lon="-0.45042">
        <ele>13</ele>
        <time>2016-11-08T15:20:23Z</time>
      </trkpt>
      <trkpt lat="46.30139" lon="-0.45034">
        <ele>13</ele>
        <time>2016-11-08T15:20:28Z</time>
      </trkpt>
      <trkpt lat="46.30134" lon="-0.45027">
        <ele>13</ele>
        <time>2016-11-08T15:20:33Z</time>
      </trkpt>
      <trkpt lat="46.30129" lon="-0.45022">
        <ele>13</ele>
        <time>2016-11-08T15:20:38Z</time>
      </trkpt>
      <trkpt lat="46.30128" lon="-0.4502">
        <ele>13</ele>
        <time>2016-11-08T15:20:43Z</time>
      </trkpt>
      <trkpt lat="46.30124" lon="-0.45011">
        <ele>13</ele>
        <time>2016-11-08T15:20:48Z</time>
      </trkpt>
      <trkpt lat="46.3012" lon="-0.45004">
        <ele>13</ele>
        <time>2016-11-08T15:20:53Z</time>
      </trkpt>
      <trkpt lat="46.30116" lon="-0.44998">
        <ele>13</ele>
        <time>2016-11-08T15:20:58Z</time>
      </trkpt>
      <trkpt lat="46.30112" lon="-0.44992">
        <ele>13</ele>
        <time>2016-11-08T15:21:03Z</time>
      </trkpt>
      <trkpt lat="46.30109" lon="-0.44987">
        <ele>13</ele>
        <time>2016-11-08T15:21:08Z</time>
      </trkpt>
      <trkpt lat="46.30106" lon="-0.44981">
        <ele>13</ele>
        <time>2016-11-08T15:21:13Z</time>
      </trkpt>
      <trkpt lat="46.30103" lon="-0.44977">
        <ele>13</ele>
        <time>2016-11-08T15:21:18Z</time>
      </trkpt>
      <trkpt lat="46.301" lon="-0.44973">
        <ele>13</ele>
        <time>2016-11-08T15:21:23Z</time>
      </trkpt>
      <trkpt lat="46.30097" lon="-0.44967">
        <ele>13</ele>
        <time>2016-11-08T15:21:28Z</time>
      </trkpt>
      <trkpt lat="46.30093" lon="-0.44962">
        <ele>13</ele>
        <time>2016-11-08T15:21:33Z</time>
      </trkpt>
      <trkpt lat="46.30089" lon="-0.44956">
        <ele>14</ele>
        <time>2016-11-08T15:21:38Z</time>
      </trkpt>
      <trkpt lat="46.30088" lon="-0.4495">
        <ele>14</ele>
        <time>2016-11-08T15:21:43Z</time>
      </trkpt>
      <trkpt lat="46.30084" lon="-0.44944">
        <ele>14</ele>
        <time>2016-11-08T15:21:48Z</time>
      </trkpt>
      <trkpt lat="46.30081" lon="-0.44939">
        <ele>14</ele>
        <time>2016-11-08T15:21:53Z</time>
      </trkpt>
      <trkpt lat="46.30079" lon="-0.44934">
        <ele>14</ele>
        <time>2016-11-08T15:21:58Z</time>
      </trkpt>
      <trkpt lat="46.30075" lon="-0.44928">
        <ele>14</ele>
        <time>2016-11-08T15:22:03Z</time>
      </trkpt>
      <trkpt lat="46.30071" lon="-0.44923">
        <ele>14</ele>
        <time>2016-11-08T15:22:08Z</time>
      </trkpt>
      <trkpt lat="46.30066" lon="-0.44917">
        <ele>14</ele>
        <time>2016-11-08T15:22:13Z</time>
      </trkpt>
      <trkpt lat="46.3006" lon="-0.4491">
        <ele>14</ele>
        <time>2016-11-08T15:22:18Z</time>
      </trkpt>
      <trkpt lat="46.30057" lon="-0.44906">
        <ele>14</ele>
        <time>2016-11-08T15:22:23Z</time>
      </trkpt>
      <trkpt lat="46.30055" lon="-0.44902">
        <ele>14</ele>
        <time>2016-11-08T15:22:28Z</time>
      </trkpt>
      <trkpt lat="46.30051" lon="-0.44899">
        <ele>14</ele>
        <time>2016-11-08T15:22:33Z</time>
      </trkpt>
      <trkpt lat="46.30048" lon="-0.44898">
        <ele>14</ele>
        <time>2016-11-08T15:22:38Z</time>
      </trkpt>
      <trkpt lat="46.30044" lon="-0.44895">
        <ele>14</ele>
        <time>2016-11-08T15:22:43Z</time>
      </trkpt>
      <trkpt lat="46.30041" lon="-0.44892">
        <ele>14</ele>
        <time>2016-11-08T15:22:48Z</time>
      </trkpt>
      <trkpt lat="46.30036" lon="-0.4489">
        <ele>14</ele>
        <time>2016-11-08T15:22:53Z</time>
      </trkpt>
      <trkpt lat="46.30032" lon="-0.4489">
        <ele>14</ele>
        <time>2016-11-08T15:22:58Z</time>
      </trkpt>
      <trkpt lat="46.30026" lon="-0.4489">
        <ele>14</ele>
        <time>2016-11-08T15:23:03Z</time>
      </trkpt>
      <trkpt lat="46.3002" lon="-0.44889">
        <ele>14</ele>
        <time>2016-11-08T15:23:08Z</time>
      </trkpt>
      <trkpt lat="46.30015" lon="-0.44887">
        <ele>14</ele>
        <time>2016-11-08T15:23:13Z</time>
      </trkpt>
      <trkpt lat="46.3001" lon="-0.44885">
        <ele>14</ele>
        <time>2016-11-08T15:23:18Z</time>
      </trkpt>
      <trkpt lat="46.30003" lon="-0.4488">
        <ele>14</ele>
        <time>2016-11-08T15:23:23Z</time>
      </trkpt>
      <trkpt lat="46.29996" lon="-0.44876">
        <ele>14</ele>
        <time>2016-11-08T15:23:28Z</time>
      </trkpt>
      <trkpt lat="46.29991" lon="-0.44872">
        <ele>13</ele>
        <time>2016-11-08T15:23:33Z</time>
      </trkpt>
      <trkpt lat="46.29983" lon="-0.44865">
        <ele>13</ele>
        <time>2016-11-08T15:23:38Z</time>
      </trkpt>
      <trkpt lat="46.29979" lon="-0.44861">
        <ele>13</ele>
        <time>2016-11-08T15:23:43Z</time>
      </trkpt>
      <trkpt lat="46.29973" lon="-0.44856">
        <ele>13</ele>
        <time>2016-11-08T15:23:48Z</time>
      </trkpt>
      <trkpt lat="46.29967" lon="-0.4485">
        <ele>13</ele>
        <time>2016-11-08T15:23:53Z</time>
      </trkpt>
      <trkpt lat="46.2996" lon="-0.44844">
        <ele>13</ele>
        <time>2016-11-08T15:23:58Z</time>
      </trkpt>
      <trkpt lat="46.29956" lon="-0.44838">
        <ele>16</ele>
        <time>2016-11-08T15:24:03Z</time>
      </trkpt>
      <trkpt lat="46.29951" lon="-0.44833">
        <ele>16</ele>
        <time>2016-11-08T15:24:08Z</time>
      </trkpt>
      <trkpt lat="46.29947" lon="-0.44827">
        <ele>16</ele>
        <time>2016-11-08T15:24:13Z</time>
      </trkpt>
      <trkpt lat="46.29943" lon="-0.44822">
        <ele>16</ele>
        <time>2016-11-08T15:24:18Z</time>
      </trkpt>
      <trkpt lat="46.29941" lon="-0.44817">
        <ele>16</ele>
        <time>2016-11-08T15:24:23Z</time>
      </trkpt>
      <trkpt lat="46.29938" lon="-0.44812">
        <ele>16</ele>
        <time>2016-11-08T15:24:28Z</time>
      </trkpt>
      <trkpt lat="46.29936" lon="-0.44805">
        <ele>16</ele>
        <time>2016-11-08T15:24:33Z</time>
      </trkpt>
      <trkpt lat="46.29931" lon="-0.44799">
        <ele>16</ele>
        <time>2016-11-08T15:24:38Z</time>
      </trkpt>
      <trkpt lat="46.29928" lon="-0.44792">
        <ele>16</ele>
        <time>2016-11-08T15:24:43Z</time>
      </trkpt>
      <trkpt lat="46.29926" lon="-0.44787">
        <ele>15</ele>
        <time>2016-11-08T15:24:48Z</time>
      </trkpt>
      <trkpt lat="46.29923" lon="-0.44782">
        <ele>15</ele>
        <time>2016-11-08T15:24:53Z</time>
      </trkpt>
      <trkpt lat="46.29919" lon="-0.44777">
        <ele>15</ele>
        <time>2016-11-08T15:24:58Z</time>
      </trkpt>
      <trkpt lat="46.29917" lon="-0.44774">
        <ele>15</ele>
        <time>2016-11-08T15:25:03Z</time>
      </trkpt>
      <trkpt lat="46.29915" lon="-0.4477">
        <ele>15</ele>
        <time>2016-11-08T15:25:08Z</time>
      </trkpt>
      <trkpt lat="46.29914" lon="-0.44765">
        <ele>15</ele>
        <time>2016-11-08T15:25:13Z</time>
      </trkpt>
      <trkpt lat="46.29911" lon="-0.4476">
        <ele>15</ele>
        <time>2016-11-08T15:25:18Z</time>
      </trkpt>
      <trkpt lat="46.29909" lon="-0.44754">
        <ele>15</ele>
        <time>2016-11-08T15:25:23Z</time>
      </trkpt>
      <trkpt lat="46.29905" lon="-0.44749">
        <ele>15</ele>
        <time>2016-11-08T15:25:28Z</time>
      </trkpt>
      <trkpt lat="46.29898" lon="-0.44741">
        <ele>15</ele>
        <time>2016-11-08T15:25:33Z</time>
      </trkpt>
      <trkpt lat="46.29895" lon="-0.44735">
        <ele>15</ele>
        <time>2016-11-08T15:25:38Z</time>
      </trkpt>
      <trkpt lat="46.29891" lon="-0.4473">
        <ele>15</ele>
        <time>2016-11-08T15:25:43Z</time>
      </trkpt>
      <trkpt lat="46.29886" lon="-0.44725">
        <ele>15</ele>
        <time>2016-11-08T15:25:48Z</time>
      </trkpt>
      <trkpt lat="46.29882" lon="-0.44721">
        <ele>15</ele>
        <time>2016-11-08T15:25:53Z</time>
      </trkpt>
      <trkpt lat="46.29878" lon="-0.44717">
        <ele>15</ele>
        <time>2016-11-08T15:25:58Z</time>
      </trkpt>
      <trkpt lat="46.29876" lon="-0.44713">
        <ele>15</ele>
        <time>2016-11-08T15:26:03Z</time>
      </trkpt>
      <trkpt lat="46.29872" lon="-0.44708">
        <ele>16</ele>
        <time>2016-11-08T15:26:08Z</time>
      </trkpt>
      <trkpt lat="46.29867" lon="-0.44703">
        <ele>16</ele>
        <time>2016-11-08T15:26:13Z</time>
      </trkpt>
      <trkpt lat="46.29863" lon="-0.44697">
        <ele>16</ele>
        <time>2016-11-08T15:26:18Z</time>
      </trkpt>
      <trkpt lat="46.29857" lon="-0.44693">
        <ele>16</ele>
        <time>2016-11-08T15:26:23Z</time>
      </trkpt>
      <trkpt lat="46.29849" lon="-0.44687">
        <ele>16</ele>
        <time>2016-11-08T15:26:28Z</time>
      </trkpt>
      <trkpt lat="46.29839" lon="-0.4468">
        <ele>16</ele>
        <time>2016-11-08T15:26:33Z</time>
      </trkpt>
      <trkpt lat="46.29834" lon="-0.44675">
        <ele>16</ele>
        <time>2016-11-08T15:26:38Z</time>
      </trkpt>
      <trkpt lat="46.29825" lon="-0.4467">
        <ele>16</ele>
        <time>2016-11-08T15:26:43Z</time>
      </trkpt>
      <trkpt lat="46.29821" lon="-0.44666">
        <ele>16</ele>
        <time>2016-11-08T15:26:48Z</time>
      </trkpt>
      <trkpt lat="46.29818" lon="-0.44664">
        <ele>16</ele>
        <time>2016-11-08T15:26:53Z</time>
      </trkpt>
      <trkpt lat="46.29816" lon="-0.4466">
        <ele>16</ele>
        <time>2016-11-08T15:26:58Z</time>
      </trkpt>
      <trkpt lat="46.29814" lon="-0.44656">
        <ele>16</ele>
        <time>2016-11-08T15:27:03Z</time>
      </trkpt>
      <trkpt lat="46.2981" lon="-0.44655">
        <ele>16</ele>
        <time>2016-11-08T15:27:08Z</time>
      </trkpt>
      <trkpt lat="46.29806" lon="-0.44654">
        <ele>16</ele>
        <time>2016-11-08T15:27:13Z</time>
      </trkpt>
      <trkpt lat="46.29803" lon="-0.44655">
        <ele>16</ele>
        <time>2016-11-08T15:27:18Z</time>
      </trkpt>
      <trkpt lat="46.29801" lon="-0.44658">
        <ele>16</ele>
        <time>2016-11-08T15:27:23Z</time>
      </trkpt>
      <trkpt lat="46.29797" lon="-0.44658">
        <ele>16</ele>
        <time>2016-11-08T15:27:28Z</time>
      </trkpt>
      <trkpt lat="46.29792" lon="-0.44658">
        <ele>16</ele>
        <time>2016-11-08T15:27:33Z</time>
      </trkpt>
      <trkpt lat="46.29788" lon="-0.44663">
        <ele>16</ele>
        <time>2016-11-08T15:27:38Z</time>
      </trkpt>
      <trkpt lat="46.29785" lon="-0.44668">
        <ele>16</ele>
        <time>2016-11-08T15:27:43Z</time>
      </trkpt>
      <trkpt lat="46.29781" lon="-0.44673">
        <ele>16</ele>
        <time>2016-11-08T15:27:48Z</time>
      </trkpt>
      <trkpt lat="46.29779" lon="-0.44675">
        <ele>16</ele>
        <time>2016-11-08T15:27:53Z</time>
      </trkpt>
      <trkpt lat="46.29775" lon="-0.44678">
        <ele>16</ele>
        <time>2016-11-08T15:27:58Z</time>
      </trkpt>
      <trkpt lat="46.29771" lon="-0.44681">
        <ele>16</ele>
        <time>2016-11-08T15:28:03Z</time>
      </trkpt>
      <trkpt lat="46.29768" lon="-0.44686">
        <ele>16</ele>
        <time>2016-11-08T15:28:08Z</time>
      </trkpt>
      <trkpt lat="46.29764" lon="-0.44689">
        <ele>16</ele>
        <time>2016-11-08T15:28:13Z</time>
      </trkpt>
      <trkpt lat="46.29759" lon="-0.44692">
        <ele>16</ele>
        <time>2016-11-08T15:28:18Z</time>
      </trkpt>
      <trkpt lat="46.29754" lon="-0.44695">
        <ele>16</ele>
        <time>2016-11-08T15:28:23Z</time>
      </trkpt>
      <trkpt lat="46.2975" lon="-0.447">
        <ele>16</ele>
        <time>2016-11-08T15:28:28Z</time>
      </trkpt>
      <trkpt lat="46.29747" lon="-0.44706">
        <ele>16</ele>
        <time>2016-11-08T15:28:33Z</time>
      </trkpt>
      <trkpt lat="46.29747" lon="-0.44716">
        <ele>17</ele>
        <time>2016-11-08T15:28:38Z</time>
      </trkpt>
      <trkpt lat="46.29745" lon="-0.44722">
        <ele>17</ele>
        <time>2016-11-08T15:28:43Z</time>
      </trkpt>
      <trkpt lat="46.29743" lon="-0.44728">
        <ele>17</ele>
        <time>2016-11-08T15:28:48Z</time>
      </trkpt>
      <trkpt lat="46.29741" lon="-0.44735">
        <ele>17</ele>
        <time>2016-11-08T15:28:53Z</time>
      </trkpt>
      <trkpt lat="46.29739" lon="-0.44742">
        <ele>17</ele>
        <time>2016-11-08T15:28:58Z</time>
      </trkpt>
      <trkpt lat="46.29735" lon="-0.44746">
        <ele>17</ele>
        <time>2016-11-08T15:29:03Z</time>
      </trkpt>
      <trkpt lat="46.2973" lon="-0.44752">
        <ele>17</ele>
        <time>2016-11-08T15:29:08Z</time>
      </trkpt>
      <trkpt lat="46.29727" lon="-0.44759">
        <ele>17</ele>
        <time>2016-11-08T15:29:13Z</time>
      </trkpt>
      <trkpt lat="46.29724" lon="-0.44764">
        <ele>17</ele>
        <time>2016-11-08T15:29:18Z</time>
      </trkpt>
      <trkpt lat="46.29721" lon="-0.44771">
        <ele>17</ele>
        <time>2016-11-08T15:29:23Z</time>
      </trkpt>
      <trkpt lat="46.29718" lon="-0.44777">
        <ele>17</ele>
        <time>2016-11-08T15:29:28Z</time>
      </trkpt>
      <trkpt lat="46.29715" lon="-0.44781">
        <ele>17</ele>
        <time>2016-11-08T15:29:33Z</time>
      </trkpt>
      <trkpt lat="46.29711" lon="-0.44785">
        <ele>17</ele>
        <time>2016-11-08T15:29:38Z</time>
      </trkpt>
      <trkpt lat="46.29707" lon="-0.44793">
        <ele>15</ele>
        <time>2016-11-08T15:29:43Z</time>
      </trkpt>
      <trkpt lat="46.29707" lon="-0.448">
        <ele>15</ele>
        <time>2016-11-08T15:29:48Z</time>
      </trkpt>
      <trkpt lat="46.29703" lon="-0.44804">
        <ele>15</ele>
        <time>2016-11-08T15:29:53Z</time>
      </trkpt>
      <trkpt lat="46.29699" lon="-0.44807">
        <ele>15</ele>
        <time>2016-11-08T15:29:58Z</time>
      </trkpt>
      <trkpt lat="46.29696" lon="-0.44816">
        <ele>15</ele>
        <time>2016-11-08T15:30:03Z</time>
      </trkpt>
      <trkpt lat="46.29695" lon="-0.44825">
        <ele>15</ele>
        <time>2016-11-08T15:30:08Z</time>
      </trkpt>
      <trkpt lat="46.29694" lon="-0.44834">
        <ele>15</ele>
        <time>2016-11-08T15:30:13Z</time>
      </trkpt>
      <trkpt lat="46.29692" lon="-0.44839">
        <ele>15</ele>
        <time>2016-11-08T15:30:18Z</time>
      </trkpt>
      <trkpt lat="46.2969" lon="-0.44843">
        <ele>15</ele>
        <time>2016-11-08T15:30:23Z</time>
      </trkpt>
      <trkpt lat="46.29689" lon="-0.44849">
        <ele>15</ele>
        <time>2016-11-08T15:30:28Z</time>
      </trkpt>
      <trkpt lat="46.29688" lon="-0.44854">
        <ele>15</ele>
        <time>2016-11-08T15:30:33Z</time>
      </trkpt>
      <trkpt lat="46.29685" lon="-0.44859">
        <ele>15</ele>
        <time>2016-11-08T15:30:38Z</time>
      </trkpt>
      <trkpt lat="46.29684" lon="-0.4486">
        <ele>15</ele>
        <time>2016-11-08T15:30:43Z</time>
      </trkpt>
      <trkpt lat="46.2968" lon="-0.44867">
        <ele>15</ele>
        <time>2016-11-08T15:30:48Z</time>
      </trkpt>
      <trkpt lat="46.29675" lon="-0.44873">
        <ele>15</ele>
        <time>2016-11-08T15:30:53Z</time>
      </trkpt>
      <trkpt lat="46.29672" lon="-0.44876">
        <ele>15</ele>
        <time>2016-11-08T15:30:58Z</time>
      </trkpt>
      <trkpt lat="46.29669" lon="-0.4488">
        <ele>15</ele>
        <time>2016-11-08T15:31:03Z</time>
      </trkpt>
      <trkpt lat="46.29666" lon="-0.44886">
        <ele>15</ele>
        <time>2016-11-08T15:31:08Z</time>
      </trkpt>
      <trkpt lat="46.29659" lon="-0.44894">
        <ele>15</ele>
        <time>2016-11-08T15:31:13Z</time>
      </trkpt>
      <trkpt lat="46.29653" lon="-0.44899">
        <ele>15</ele>
        <time>2016-11-08T15:31:18Z</time>
      </trkpt>
      <trkpt lat="46.2965" lon="-0.44903">
        <ele>15</ele>
        <time>2016-11-08T15:31:23Z</time>
      </trkpt>
      <trkpt lat="46.29647" lon="-0.44907">
        <ele>15</ele>
        <time>2016-11-08T15:31:28Z</time>
      </trkpt>
      <trkpt lat="46.29641" lon="-0.4491">
        <ele>15</ele>
        <time>2016-11-08T15:31:33Z</time>
      </trkpt>
      <trkpt lat="46.29636" lon="-0.44911">
        <ele>15</ele>
        <time>2016-11-08T15:31:38Z</time>
      </trkpt>
      <trkpt lat="46.29632" lon="-0.44915">
        <ele>15</ele>
        <time>2016-11-08T15:31:43Z</time>
      </trkpt>
      <trkpt lat="46.29626" lon="-0.44919">
        <ele>15</ele>
        <time>2016-11-08T15:31:48Z</time>
      </trkpt>
      <trkpt lat="46.29622" lon="-0.44922">
        <ele>18</ele>
        <time>2016-11-08T15:31:53Z</time>
      </trkpt>
      <trkpt lat="46.29617" lon="-0.44926">
        <ele>18</ele>
        <time>2016-11-08T15:31:58Z</time>
      </trkpt>
      <trkpt lat="46.29614" lon="-0.44929">
        <ele>18</ele>
        <time>2016-11-08T15:32:03Z</time>
      </trkpt>
      <trkpt lat="46.29613" lon="-0.44929">
        <ele>18</ele>
        <time>2016-11-08T15:32:08Z</time>
      </trkpt>
      <trkpt lat="46.29605" lon="-0.44935">
        <ele>18</ele>
        <time>2016-11-08T15:32:13Z</time>
      </trkpt>
      <trkpt lat="46.29601" lon="-0.4494">
        <ele>18</ele>
        <time>2016-11-08T15:32:18Z</time>
      </trkpt>
      <trkpt lat="46.29599" lon="-0.44941">
        <ele>18</ele>
        <time>2016-11-08T15:32:23Z</time>
      </trkpt>
      <trkpt lat="46.29589" lon="-0.44947">
        <ele>18</ele>
        <time>2016-11-08T15:32:33Z</time>
      </trkpt>
      <trkpt lat="46.29585" lon="-0.44949">
        <ele>18</ele>
        <time>2016-11-08T15:32:38Z</time>
      </trkpt>
      <trkpt lat="46.29579" lon="-0.44956">
        <ele>18</ele>
        <time>2016-11-08T15:32:48Z</time>
      </trkpt>
      <trkpt lat="46.29575" lon="-0.44963">
        <ele>17</ele>
        <time>2016-11-08T15:32:53Z</time>
      </trkpt>
      <trkpt lat="46.29571" lon="-0.44969">
        <ele>17</ele>
        <time>2016-11-08T15:32:58Z</time>
      </trkpt>
      <trkpt lat="46.29568" lon="-0.44975">
        <ele>17</ele>
        <time>2016-11-08T15:33:03Z</time>
      </trkpt>
      <trkpt lat="46.29553" lon="-0.44981">
        <ele>17</ele>
        <time>2016-11-08T15:33:08Z</time>
      </trkpt>
      <trkpt lat="46.29547" lon="-0.44986">
        <ele>17</ele>
        <time>2016-11-08T15:33:13Z</time>
      </trkpt>
      <trkpt lat="46.29545" lon="-0.44991">
        <ele>17</ele>
        <time>2016-11-08T15:33:18Z</time>
      </trkpt>
      <trkpt lat="46.29544" lon="-0.44995">
        <ele>17</ele>
        <time>2016-11-08T15:33:23Z</time>
      </trkpt>
      <trkpt lat="46.29544" lon="-0.45">
        <ele>17</ele>
        <time>2016-11-08T15:33:28Z</time>
      </trkpt>
      <trkpt lat="46.29545" lon="-0.45004">
        <ele>17</ele>
        <time>2016-11-08T15:33:33Z</time>
      </trkpt>
      <trkpt lat="46.29546" lon="-0.45009">
        <ele>17</ele>
        <time>2016-11-08T15:33:38Z</time>
      </trkpt>
      <trkpt lat="46.29547" lon="-0.45017">
        <ele>17</ele>
        <time>2016-11-08T15:33:43Z</time>
      </trkpt>
      <trkpt lat="46.29549" lon="-0.45028">
        <ele>17</ele>
        <time>2016-11-08T15:33:48Z</time>
      </trkpt>
      <trkpt lat="46.2955" lon="-0.45038">
        <ele>17</ele>
        <time>2016-11-08T15:33:53Z</time>
      </trkpt>
      <trkpt lat="46.2955" lon="-0.45048">
        <ele>15</ele>
        <time>2016-11-08T15:33:58Z</time>
      </trkpt>
      <trkpt lat="46.29549" lon="-0.45056">
        <ele>15</ele>
        <time>2016-11-08T15:34:03Z</time>
      </trkpt>
      <trkpt lat="46.29549" lon="-0.45066">
        <ele>15</ele>
        <time>2016-11-08T15:34:08Z</time>
      </trkpt>
      <trkpt lat="46.29547" lon="-0.45075">
        <ele>15</ele>
        <time>2016-11-08T15:34:13Z</time>
      </trkpt>
      <trkpt lat="46.29547" lon="-0.45081">
        <ele>15</ele>
        <time>2016-11-08T15:34:18Z</time>
      </trkpt>
      <trkpt lat="46.29547" lon="-0.45088">
        <ele>15</ele>
        <time>2016-11-08T15:34:23Z</time>
      </trkpt>
      <trkpt lat="46.29547" lon="-0.45095">
        <ele>15</ele>
        <time>2016-11-08T15:34:28Z</time>
      </trkpt>
      <trkpt lat="46.29548" lon="-0.45101">
        <ele>15</ele>
        <time>2016-11-08T15:34:33Z</time>
      </trkpt>
      <trkpt lat="46.29549" lon="-0.45106">
        <ele>15</ele>
        <time>2016-11-08T15:34:38Z</time>
      </trkpt>
      <trkpt lat="46.2955" lon="-0.45108">
        <ele>15</ele>
        <time>2016-11-08T15:34:43Z</time>
      </trkpt>
      <trkpt lat="46.29551" lon="-0.45124">
        <ele>15</ele>
        <time>2016-11-08T15:34:53Z</time>
      </trkpt>
      <trkpt lat="46.29554" lon="-0.4513">
        <ele>16</ele>
        <time>2016-11-08T15:34:58Z</time>
      </trkpt>
      <trkpt lat="46.29555" lon="-0.45141">
        <ele>16</ele>
        <time>2016-11-08T15:35:03Z</time>
      </trkpt>
      <trkpt lat="46.29557" lon="-0.4515">
        <ele>16</ele>
        <time>2016-11-08T15:35:08Z</time>
      </trkpt>
      <trkpt lat="46.29557" lon="-0.45153">
        <ele>16</ele>
        <time>2016-11-08T15:35:13Z</time>
      </trkpt>
      <trkpt lat="46.29558" lon="-0.45168">
        <ele>16</ele>
        <time>2016-11-08T15:35:18Z</time>
      </trkpt>
      <trkpt lat="46.29558" lon="-0.45177">
        <ele>16</ele>
        <time>2016-11-08T15:35:23Z</time>
      </trkpt>
      <trkpt lat="46.29558" lon="-0.45187">
        <ele>16</ele>
        <time>2016-11-08T15:35:28Z</time>
      </trkpt>
      <trkpt lat="46.29557" lon="-0.45196">
        <ele>16</ele>
        <time>2016-11-08T15:35:33Z</time>
      </trkpt>
      <trkpt lat="46.29559" lon="-0.45202">
        <ele>16</ele>
        <time>2016-11-08T15:35:38Z</time>
      </trkpt>
      <trkpt lat="46.2956" lon="-0.45209">
        <ele>17</ele>
        <time>2016-11-08T15:35:43Z</time>
      </trkpt>
      <trkpt lat="46.2956" lon="-0.45216">
        <ele>17</ele>
        <time>2016-11-08T15:35:48Z</time>
      </trkpt>
      <trkpt lat="46.29561" lon="-0.45225">
        <ele>17</ele>
        <time>2016-11-08T15:35:53Z</time>
      </trkpt>
      <trkpt lat="46.29565" lon="-0.45239">
        <ele>17</ele>
        <time>2016-11-08T15:35:58Z</time>
      </trkpt>
      <trkpt lat="46.29566" lon="-0.45251">
        <ele>17</ele>
        <time>2016-11-08T15:36:03Z</time>
      </trkpt>
      <trkpt lat="46.29567" lon="-0.45263">
        <ele>17</ele>
        <time>2016-11-08T15:36:08Z</time>
      </trkpt>
      <trkpt lat="46.29569" lon="-0.45269">
        <ele>17</ele>
        <time>2016-11-08T15:36:13Z</time>
      </trkpt>
      <trkpt lat="46.29571" lon="-0.45277">
        <ele>17</ele>
        <time>2016-11-08T15:36:18Z</time>
      </trkpt>
      <trkpt lat="46.29572" lon="-0.45281">
        <ele>17</ele>
        <time>2016-11-08T15:36:23Z</time>
      </trkpt>
      <trkpt lat="46.29572" lon="-0.45285">
        <ele>17</ele>
        <time>2016-11-08T15:36:28Z</time>
      </trkpt>
      <trkpt lat="46.29574" lon="-0.45292">
        <ele>19</ele>
        <time>2016-11-08T15:36:33Z</time>
      </trkpt>
      <trkpt lat="46.29576" lon="-0.45299">
        <ele>19</ele>
        <time>2016-11-08T15:36:38Z</time>
      </trkpt>
      <trkpt lat="46.29576" lon="-0.45308">
        <ele>19</ele>
        <time>2016-11-08T15:36:43Z</time>
      </trkpt>
      <trkpt lat="46.29575" lon="-0.45317">
        <ele>19</ele>
        <time>2016-11-08T15:36:48Z</time>
      </trkpt>
      <trkpt lat="46.29572" lon="-0.4532">
        <ele>19</ele>
        <time>2016-11-08T15:36:53Z</time>
      </trkpt>
      <trkpt lat="46.2957" lon="-0.45323">
        <ele>19</ele>
        <time>2016-11-08T15:36:58Z</time>
      </trkpt>
      <trkpt lat="46.29569" lon="-0.45323">
        <ele>19</ele>
        <time>2016-11-08T15:37:03Z</time>
      </trkpt>
    </trkseg>
  </trk>
</gpx>